Darstellungsparameter: Aktuell verwendete Einstellungen:
Skalierung der Graphiken ... ?
xyx+y,   Skalierungsfaktor:      Skalierung: Modus: x, Faktor: 1
Darstellungszeitraum ... ?
Vom - - bis: - -   Zeitraum: 01.04.2020 - 07.04.2020
Min/Max/Avg-Anzeige ... ?
Zeige MMA aktuell
Zeige MMA Monat
Zeige MMA alles
Zeige --A aktuell
Zeige --A Monat
Zeige --A alles
Keine MMA-Anzeige
MMA:
Keine MMA-Graphiken
MMA-Basis: 01.04.2020 - 07.04.2020
Quicknavigation für Darstellung... ?
Tage:      1T, 2T, 3T, 5T -1T -2T -3T -5T +1T +2T +3T +5T
Wochen: 1W, 2W, 3W -1W -2W -3W +1W +2W +3W
Monate: 1M, 3M, 6M -1M -3M -6M +1M +3M +6M
Jahre:    1J, 3J, 5J, 10J -1J -3J -5J -10J +1J +3J +5J +10J
Nutze für die Darstellung ... ?
Originaldaten oder Mittelwerte auf ...
Stundenbasis Tagesbasis Wochenbasis
Monatsbasis Jahresbasis      Datenbasis: Original-Daten
Darstellen als:
Statistik (Auto) Statistik J:M      Darstellung:
Zur Graphik,    zurück zur Übersicht aller Sensoren.
 
Tabellarische Datenbersicht: ?
 
Sensor: Nr:Datum:Temp:Abs-Feuchte:Windchill:Wind:
Aussen-T/F 1 01-04-2020 00:00:00 1 C 3.84 g/m*3 1 C 3.2 km/h
2 01-04-2020 00:05:00 0.9 C 3.81 g/m*3 0.9 C 1.6 km/h
3 01-04-2020 00:10:00 0.8 C 3.84 g/m*3 0.8 C 1.6 km/h
4 01-04-2020 00:15:00 0.8 C 3.84 g/m*3 0.8 C 3.2 km/h
5 01-04-2020 00:20:00 0.7 C 3.81 g/m*3 0.7 C 3.2 km/h
6 01-04-2020 00:25:00 0.6 C 3.79 g/m*3 0.6 C 4.8 km/h
7 01-04-2020 00:30:00 0.6 C 3.79 g/m*3 0.6 C 4.8 km/h
8 01-04-2020 00:35:00 0.4 C 3.74 g/m*3 0.4 C 1.6 km/h
9 01-04-2020 00:40:00 0.4 C 3.74 g/m*3 0.4 C 3.2 km/h
10 01-04-2020 00:45:00 0.3 C 3.76 g/m*3 0.3 C 4.8 km/h
11 01-04-2020 00:50:00 0.3 C 3.71 g/m*3 0.3 C 0 km/h
12 01-04-2020 00:55:00 0.3 C 3.76 g/m*3 0.3 C 3.2 km/h
13 01-04-2020 01:00:00 0.2 C 3.73 g/m*3 0.2 C 3.2 km/h
14 01-04-2020 01:05:00 0.2 C 3.78 g/m*3 0.2 C 3.2 km/h
15 01-04-2020 01:10:00 0.1 C 3.76 g/m*3 0.1 C 3.2 km/h
16 01-04-2020 01:15:00 0.1 C 3.81 g/m*3 0.1 C 0 km/h
17 01-04-2020 01:20:00 0 C 3.78 g/m*3 0 C 0 km/h
18 01-04-2020 01:25:00 -0.1 C 3.75 g/m*3 -0.1 C 0 km/h
19 01-04-2020 01:30:00 -0.2 C 3.73 g/m*3 -0.2 C 0 km/h
20 01-04-2020 01:35:00 -0.2 C 3.73 g/m*3 -0.2 C 1.6 km/h
21 01-04-2020 01:40:00 -0.3 C 3.75 g/m*3 -0.3 C 0 km/h
22 01-04-2020 01:45:00 -0.4 C 3.72 g/m*3 -0.4 C 0 km/h
23 01-04-2020 01:50:00 -0.5 C 3.7 g/m*3 -0.5 C 0 km/h
24 01-04-2020 01:55:00 -0.6 C 3.67 g/m*3 -0.6 C 0 km/h
25 01-04-2020 02:00:00 -0.7 C 3.65 g/m*3 -0.7 C 0 km/h
Sensor: Nr:Datum:Temp:Abs-Feuchte:Windchill:Wind:
Aussen-T/F 26 01-04-2020 02:05:00 -0.8 C 3.62 g/m*3 -0.8 C 0 km/h
27 01-04-2020 02:10:00 -0.8 C 3.67 g/m*3 -0.8 C 0 km/h
28 01-04-2020 02:15:00 -0.9 C 3.64 g/m*3 -0.9 C 0 km/h
29 01-04-2020 02:20:00 -0.9 C 3.64 g/m*3 -0.9 C 0 km/h
30 01-04-2020 02:25:00 -1 C 3.62 g/m*3 -1 C 0 km/h
31 01-04-2020 02:30:00 -1.1 C 3.59 g/m*3 -1.1 C 0 km/h
32 01-04-2020 02:35:00 -1.1 C 3.59 g/m*3 -1.1 C 0 km/h
33 01-04-2020 02:40:00 -1.2 C 3.57 g/m*3 -1.2 C 0 km/h
34 01-04-2020 02:45:00 -1.2 C 3.61 g/m*3 -1.2 C 0 km/h
35 01-04-2020 02:50:00 -1.3 C 3.59 g/m*3 -1.3 C 0 km/h
36 01-04-2020 02:55:00 -1.3 C 3.59 g/m*3 -1.3 C 0 km/h
37 01-04-2020 03:00:00 -1.3 C 3.59 g/m*3 -1.3 C 0 km/h
38 01-04-2020 03:05:00 -1.4 C 3.52 g/m*3 -1.4 C 0 km/h
39 01-04-2020 03:10:00 -1.4 C 3.52 g/m*3 -1.4 C 0 km/h
40 01-04-2020 03:15:00 -1.5 C 3.49 g/m*3 -1.5 C 0 km/h
41 01-04-2020 03:20:00 -1.6 C 3.51 g/m*3 -1.6 C 0 km/h
42 01-04-2020 03:25:00 -1.7 C 3.49 g/m*3 -1.7 C 0 km/h
43 01-04-2020 03:30:00 -1.7 C 3.49 g/m*3 -1.7 C 0 km/h
44 01-04-2020 03:35:00 -1.7 C 3.49 g/m*3 -1.7 C 0 km/h
45 01-04-2020 03:40:00 -1.8 C 3.46 g/m*3 -1.8 C 0 km/h
46 01-04-2020 03:45:00 -1.8 C 3.42 g/m*3 -1.8 C 0 km/h
47 01-04-2020 03:50:00 -1.9 C 3.44 g/m*3 -1.9 C 0 km/h
48 01-04-2020 03:55:00 -1.9 C 3.44 g/m*3 -1.9 C 0 km/h
49 01-04-2020 04:00:00 -1.9 C 3.44 g/m*3 -1.9 C 0 km/h
50 01-04-2020 04:05:00 -1.9 C 3.44 g/m*3 -1.9 C 0 km/h
Sensor: Nr:Datum:Temp:Abs-Feuchte:Windchill:Wind:
Aussen-T/F 51 01-04-2020 04:10:00 -2 C 3.41 g/m*3 -2 C 0 km/h
52 01-04-2020 04:15:00 -2.1 C 3.39 g/m*3 -2.1 C 0 km/h
53 01-04-2020 04:20:00 -2.1 C 3.39 g/m*3 -2.1 C 0 km/h
54 01-04-2020 04:25:00 -2.2 C 3.33 g/m*3 -2.2 C 0 km/h
55 01-04-2020 04:30:00 -2.2 C 3.37 g/m*3 -2.2 C 0 km/h
56 01-04-2020 04:35:00 -2.3 C 3.34 g/m*3 -2.3 C 0 km/h
57 01-04-2020 04:40:00 -2.3 C 3.34 g/m*3 -2.3 C 0 km/h
58 01-04-2020 04:45:00 -2.3 C 3.34 g/m*3 -2.3 C 0 km/h
59 01-04-2020 04:50:00 -2.4 C 3.32 g/m*3 -2.4 C 0 km/h
60 01-04-2020 04:55:00 -2.4 C 3.32 g/m*3 -2.4 C 0 km/h
61 01-04-2020 05:00:00 -2.4 C 3.36 g/m*3 -2.4 C 0 km/h
62 01-04-2020 05:05:00 -2.5 C 3.34 g/m*3 -2.5 C 0 km/h
63 01-04-2020 05:10:00 -2.6 C 3.31 g/m*3 -2.6 C 0 km/h
64 01-04-2020 05:15:00 -2.6 C 3.31 g/m*3 -2.6 C 0 km/h
65 01-04-2020 05:20:00 -2.7 C 3.29 g/m*3 -2.7 C 0 km/h
66 01-04-2020 05:25:00 -2.7 C 3.33 g/m*3 -2.7 C 0 km/h
67 01-04-2020 05:30:00 -2.7 C 3.33 g/m*3 -2.7 C 0 km/h
68 01-04-2020 05:35:00 -2.7 C 3.33 g/m*3 -2.7 C 0 km/h
69 01-04-2020 05:40:00 -2.7 C 3.33 g/m*3 -2.7 C 0 km/h
70 01-04-2020 05:45:00 -2.8 C 3.31 g/m*3 -2.8 C 0 km/h
71 01-04-2020 05:50:00 -2.8 C 3.31 g/m*3 -2.8 C 0 km/h
72 01-04-2020 05:55:00 -2.8 C 3.31 g/m*3 -2.8 C 0 km/h
73 01-04-2020 06:00:00 -2.9 C 3.28 g/m*3 -2.9 C 0 km/h
74 01-04-2020 06:05:00 -2.9 C 3.28 g/m*3 -2.9 C 0 km/h
75 01-04-2020 06:10:00 -2.9 C 3.32 g/m*3 -2.9 C 0 km/h
Sensor: Nr:Datum:Temp:Abs-Feuchte:Windchill:Wind:
Aussen-T/F 76 01-04-2020 06:15:00 -3 C 3.3 g/m*3 -3 C 0 km/h
77 01-04-2020 06:20:00 -3 C 3.3 g/m*3 -3 C 0 km/h
78 01-04-2020 06:25:00 -3.1 C 3.28 g/m*3 -3.1 C 0 km/h
79 01-04-2020 06:30:00 -3.1 C 3.28 g/m*3 -3.1 C 0 km/h
80 01-04-2020 06:35:00 -3.1 C 3.32 g/m*3 -3.1 C 0 km/h
81 01-04-2020 06:40:00 -3.1 C 3.32 g/m*3 -3.1 C 0 km/h
82 01-04-2020 06:45:00 -3.1 C 3.32 g/m*3 -3.1 C 0 km/h
83 01-04-2020 06:50:00 -3.2 C 3.29 g/m*3 -3.2 C 0 km/h
84 01-04-2020 06:55:00 -3.2 C 3.29 g/m*3 -3.2 C 0 km/h
85 01-04-2020 07:00:00 -3.2 C 3.29 g/m*3 -3.2 C 0 km/h
86 01-04-2020 07:05:00 -3.3 C 3.27 g/m*3 -3.3 C 0 km/h
87 01-04-2020 07:10:00 -3.3 C 3.27 g/m*3 -3.3 C 0 km/h
88 01-04-2020 07:15:00 -3.4 C 3.25 g/m*3 -3.4 C 0 km/h
89 01-04-2020 07:20:00 -3.4 C 3.25 g/m*3 -3.4 C 0 km/h
90 01-04-2020 07:25:00 -3.4 C 3.25 g/m*3 -3.4 C 0 km/h
91 01-04-2020 07:30:00 -3.4 C 3.28 g/m*3 -3.4 C 0 km/h
92 01-04-2020 07:35:00 -3.3 C 3.31 g/m*3 -3.3 C 0 km/h
93 01-04-2020 07:40:00 -3.3 C 3.27 g/m*3 -3.3 C 0 km/h
94 01-04-2020 07:45:00 -3.3 C 3.27 g/m*3 -3.3 C 0 km/h
95 01-04-2020 07:50:00 -3.3 C 3.31 g/m*3 -3.3 C 0 km/h
96 01-04-2020 07:55:00 -3.3 C 3.31 g/m*3 -3.3 C 0 km/h
97 01-04-2020 08:00:00 -3.2 C 3.33 g/m*3 -3.2 C 0 km/h
98 01-04-2020 08:05:00 -3.2 C 3.33 g/m*3 -3.2 C 0 km/h
99 01-04-2020 08:10:00 -3.2 C 3.33 g/m*3 -3.2 C 0 km/h
100 01-04-2020 08:15:00 -3.1 C 3.39 g/m*3 -3.1 C 0 km/h
Sensor: Nr:Datum:Temp:Abs-Feuchte:Windchill:Wind:
Aussen-T/F 101 01-04-2020 08:20:00 -2.9 C 3.44 g/m*3 -2.9 C 0 km/h
102 01-04-2020 08:25:00 -2.9 C 3.44 g/m*3 -2.9 C 0 km/h
103 01-04-2020 08:30:00 -2.9 C 3.4 g/m*3 -2.9 C 0 km/h
104 01-04-2020 08:35:00 -2.8 C 3.43 g/m*3 -2.8 C 0 km/h
105 01-04-2020 08:40:00 -2.8 C 3.43 g/m*3 -2.8 C 0 km/h
106 01-04-2020 08:45:00 -2.8 C 3.43 g/m*3 -2.8 C 0 km/h
107 01-04-2020 08:50:00 -2.8 C 3.43 g/m*3 -2.8 C 0 km/h
108 01-04-2020 08:55:00 -2.7 C 3.45 g/m*3 -2.7 C 0 km/h
109 01-04-2020 09:00:00 -2.6 C 3.43 g/m*3 -2.6 C 0 km/h
110 01-04-2020 09:05:00 -2.6 C 3.43 g/m*3 -2.6 C 0 km/h
111 01-04-2020 09:10:00 -2.4 C 3.48 g/m*3 -2.4 C 0 km/h
112 01-04-2020 09:15:00 -2.3 C 3.51 g/m*3 -2.3 C 0 km/h
113 01-04-2020 09:20:00 -2.3 C 3.51 g/m*3 -2.3 C 0 km/h
114 01-04-2020 09:25:00 -2.2 C 3.53 g/m*3 -2.2 C 0 km/h
115 01-04-2020 09:30:00 -2.1 C 3.56 g/m*3 -2.1 C 0 km/h
116 01-04-2020 09:35:00 -1.9 C 3.57 g/m*3 -1.9 C 0 km/h
117 01-04-2020 09:40:00 -1.8 C 3.59 g/m*3 -1.8 C 0 km/h
118 01-04-2020 09:45:00 -1.7 C 3.62 g/m*3 -1.7 C 1.6 km/h
119 01-04-2020 09:50:00 -1.7 C 3.62 g/m*3 -1.7 C 1.6 km/h
120 01-04-2020 09:55:00 -1.6 C 3.64 g/m*3 -1.6 C 0 km/h
121 01-04-2020 10:00:00 -1.4 C 3.69 g/m*3 -1.4 C 1.6 km/h
122 01-04-2020 10:05:00 -1.3 C 3.72 g/m*3 -1.3 C 0 km/h
123 01-04-2020 10:10:00 -1.1 C 3.77 g/m*3 -1.1 C 0 km/h
124 01-04-2020 10:15:00 -0.9 C 3.82 g/m*3 -0.9 C 0 km/h
125 01-04-2020 10:20:00 -0.6 C 3.9 g/m*3 -0.6 C 0 km/h
Sensor: Nr:Datum:Temp:Abs-Feuchte:Windchill:Wind:
Aussen-T/F 126 01-04-2020 10:25:00 -0.3 C 3.94 g/m*3 -0.3 C 0 km/h
127 01-04-2020 10:30:00 -0.1 C 3.99 g/m*3 -0.1 C 0 km/h
128 01-04-2020 10:35:00 0.2 C 4.03 g/m*3 0.2 C 0 km/h
129 01-04-2020 10:40:00 0.6 C 4.14 g/m*3 0.6 C 0 km/h
130 01-04-2020 10:45:00 0.9 C 4.18 g/m*3 0.9 C 0 km/h
131 01-04-2020 10:50:00 1.3 C 4.19 g/m*3 1.3 C 0 km/h
132 01-04-2020 10:55:00 1.8 C 4.28 g/m*3 1.8 C 0 km/h
133 01-04-2020 11:00:00 2.3 C 4.31 g/m*3 2.3 C 0 km/h
134 01-04-2020 11:05:00 2.6 C 4.34 g/m*3 2.6 C 0 km/h
135 01-04-2020 11:10:00 2.8 C 4.34 g/m*3 2.8 C 0 km/h
136 01-04-2020 11:15:00 3.1 C 4.25 g/m*3 3.1 C 0 km/h
137 01-04-2020 11:20:00 3.3 C 4.19 g/m*3 3.3 C 0 km/h
138 01-04-2020 11:25:00 3.7 C 3.99 g/m*3 3.7 C 0 km/h
139 01-04-2020 11:30:00 3.9 C 3.92 g/m*3 3.9 C 3.2 km/h
140 01-04-2020 11:35:00 4.3 C 3.76 g/m*3 4.3 C 1.6 km/h
141 01-04-2020 11:40:00 4.7 C 3.93 g/m*3 4.7 C 3.2 km/h
142 01-04-2020 11:45:00 5.1 C 3.9 g/m*3 5.1 C 3.2 km/h
143 01-04-2020 11:50:00 5.4 C 3.77 g/m*3 5.4 C 0 km/h
144 01-04-2020 11:55:00 5.7 C 3.56 g/m*3 5.7 C 3.2 km/h
145 01-04-2020 12:00:00 6 C 3.63 g/m*3 6 C 1.6 km/h
146 01-04-2020 12:05:00 6.3 C 3.55 g/m*3 6.3 C 1.6 km/h
147 01-04-2020 12:10:00 6.7 C 3.65 g/m*3 5.56 C 6.4 km/h
148 01-04-2020 12:15:00 6.8 C 3.59 g/m*3 6.8 C 4.8 km/h
149 01-04-2020 12:20:00 7.1 C 3.59 g/m*3 5.23 C 9.7 km/h
150 01-04-2020 12:25:00 7.3 C 3.71 g/m*3 5.47 C 9.7 km/h
Sensor: Nr:Datum:Temp:Abs-Feuchte:Windchill:Wind:
Aussen-T/F 151 01-04-2020 12:30:00 7.6 C 3.63 g/m*3 6.6 C 6.4 km/h
152 01-04-2020 12:35:00 7.7 C 3.65 g/m*3 7.7 C 4.8 km/h
153 01-04-2020 12:40:00 7.8 C 3.59 g/m*3 6.83 C 6.4 km/h
154 01-04-2020 12:45:00 7.9 C 3.53 g/m*3 7.9 C 4.8 km/h
155 01-04-2020 12:50:00 8.1 C 3.66 g/m*3 7.17 C 6.4 km/h
156 01-04-2020 12:55:00 8.2 C 3.6 g/m*3 7.29 C 6.4 km/h
157 01-04-2020 13:00:00 8.3 C 3.71 g/m*3 7.41 C 6.4 km/h
158 01-04-2020 13:05:00 8.6 C 3.61 g/m*3 7.75 C 6.4 km/h
159 01-04-2020 13:10:00 8.6 C 3.61 g/m*3 8.6 C 4.8 km/h
160 01-04-2020 13:15:00 8.7 C 3.63 g/m*3 8.7 C 4.8 km/h
161 01-04-2020 13:20:00 8.8 C 3.57 g/m*3 6.72 C 12.9 km/h
162 01-04-2020 13:25:00 8.7 C 3.46 g/m*3 6.6 C 12.9 km/h
163 01-04-2020 13:30:00 8.7 C 3.55 g/m*3 7.46 C 8.1 km/h
164 01-04-2020 13:35:00 8.8 C 3.57 g/m*3 8.8 C 3.2 km/h
165 01-04-2020 13:40:00 8.9 C 3.59 g/m*3 8.9 C 3.2 km/h
166 01-04-2020 13:45:00 9.2 C 3.57 g/m*3 9.2 C 4.8 km/h
167 01-04-2020 13:50:00 9.2 C 3.57 g/m*3 8.45 C 6.4 km/h
168 01-04-2020 13:55:00 9.2 C 3.57 g/m*3 8.05 C 8.1 km/h
169 01-04-2020 14:00:00 9.2 C 3.57 g/m*3 7.73 C 9.7 km/h
170 01-04-2020 14:05:00 9.3 C 3.59 g/m*3 8.16 C 8.1 km/h
171 01-04-2020 14:10:00 9.4 C 3.62 g/m*3 8.68 C 6.4 km/h
172 01-04-2020 14:15:00 9.5 C 3.55 g/m*3 8.79 C 6.4 km/h
173 01-04-2020 14:20:00 9.8 C 3.71 g/m*3 8.45 C 9.7 km/h
174 01-04-2020 14:25:00 9.9 C 3.73 g/m*3 8.87 C 8.1 km/h
175 01-04-2020 14:30:00 10.1 C 3.59 g/m*3 10.1 C 4.8 km/h
Sensor: Nr:Datum:Temp:Abs-Feuchte:Windchill:Wind:
Aussen-T/F 176 01-04-2020 14:35:00 10.3 C 3.54 g/m*3 8.34 C 14.5 km/h
177 01-04-2020 14:40:00 10.3 C 3.45 g/m*3 9.34 C 8.1 km/h
178 01-04-2020 14:45:00 10.3 C 3.54 g/m*3 9.72 C 6.4 km/h
179 01-04-2020 14:50:00 10.3 C 3.26 g/m*3 9.04 C 9.7 km/h
180 01-04-2020 14:55:00 10.3 C 3.26 g/m*3 9.72 C 6.4 km/h
181 01-04-2020 15:00:00 10.3 C 3.26 g/m*3 9.34 C 8.1 km/h
182 01-04-2020 15:05:00 10.2 C 3.24 g/m*3 10.2 C 4.8 km/h
183 01-04-2020 15:10:00 10.3 C 3.35 g/m*3 9.72 C 6.4 km/h
184 01-04-2020 15:15:00 10.4 C 3.47 g/m*3 9.46 C 8.1 km/h
185 01-04-2020 15:20:00 10.7 C 3.34 g/m*3 10.18 C 6.4 km/h
186 01-04-2020 15:25:00 10.8 C 3.26 g/m*3 9.64 C 9.7 km/h
187 01-04-2020 15:30:00 10.7 C 3.24 g/m*3 10.18 C 6.4 km/h
188 01-04-2020 15:35:00 10.7 C 3.24 g/m*3 10.7 C 3.2 km/h
189 01-04-2020 15:40:00 10.8 C 3.26 g/m*3 9.93 C 8.1 km/h
190 01-04-2020 15:45:00 10.9 C 3.08 g/m*3 9.76 C 9.7 km/h
191 01-04-2020 15:50:00 11 C 3.1 g/m*3 10.52 C 6.4 km/h
192 01-04-2020 15:55:00 11.1 C 3.12 g/m*3 11.1 C 4.8 km/h
193 01-04-2020 16:00:00 11.1 C 3.32 g/m*3 11.1 C 6.4 km/h
194 01-04-2020 16:05:00 11.1 C 3.32 g/m*3 11.1 C 3.2 km/h
195 01-04-2020 16:10:00 11.2 C 3.45 g/m*3 11.2 C 4.8 km/h
196 01-04-2020 16:15:00 11.4 C 3.39 g/m*3 11.4 C 8.1 km/h
197 01-04-2020 16:20:00 11.5 C 3.31 g/m*3 11.5 C 8.1 km/h
198 01-04-2020 16:25:00 11.6 C 3.22 g/m*3 11.6 C 4.8 km/h
199 01-04-2020 16:30:00 11.6 C 3.22 g/m*3 11.6 C 6.4 km/h
200 01-04-2020 16:35:00 11.7 C 3.14 g/m*3 11.7 C 4.8 km/h
Sensor: Nr:Datum:Temp:Abs-Feuchte:Windchill:Wind:
Aussen-T/F 201 01-04-2020 16:40:00 11.8 C 3.47 g/m*3 11.8 C 3.2 km/h
202 01-04-2020 16:45:00 12.2 C 3.45 g/m*3 12.2 C 3.2 km/h
203 01-04-2020 16:50:00 12.6 C 3.54 g/m*3 12.6 C 9.7 km/h
204 01-04-2020 16:55:00 12.6 C 3.65 g/m*3 12.6 C 8.1 km/h
205 01-04-2020 17:00:00 12.6 C 3.54 g/m*3 12.6 C 8.1 km/h
206 01-04-2020 17:05:00 12.4 C 3.5 g/m*3 12.4 C 9.7 km/h
207 01-04-2020 17:10:00 12.9 C 4.06 g/m*3 12.9 C 3.2 km/h
208 01-04-2020 17:15:00 13.2 C 3.79 g/m*3 13.2 C 6.4 km/h
209 01-04-2020 17:20:00 13.2 C 3.67 g/m*3 13.2 C 6.4 km/h
210 01-04-2020 17:25:00 13.3 C 3.81 g/m*3 13.3 C 8.1 km/h
211 01-04-2020 17:30:00 13.2 C 3.56 g/m*3 13.2 C 6.4 km/h
212 01-04-2020 17:35:00 13.3 C 3.58 g/m*3 13.3 C 3.2 km/h
213 01-04-2020 17:40:00 13.3 C 3.58 g/m*3 13.3 C 8.1 km/h
214 01-04-2020 17:45:00 13.2 C 3.67 g/m*3 13.2 C 6.4 km/h
215 01-04-2020 17:50:00 13.2 C 3.67 g/m*3 13.2 C 4.8 km/h
216 01-04-2020 17:55:00 13.1 C 3.65 g/m*3 13.1 C 9.7 km/h
217 01-04-2020 18:00:00 12.9 C 3.61 g/m*3 12.9 C 8.1 km/h
218 01-04-2020 18:05:00 12.6 C 3.65 g/m*3 12.6 C 9.7 km/h
219 01-04-2020 18:10:00 12.5 C 3.63 g/m*3 12.5 C 8.1 km/h
220 01-04-2020 18:15:00 12.6 C 3.65 g/m*3 12.6 C 8.1 km/h
221 01-04-2020 18:20:00 12.7 C 3.67 g/m*3 12.7 C 6.4 km/h
222 01-04-2020 18:25:00 12.9 C 3.72 g/m*3 12.9 C 6.4 km/h
223 01-04-2020 18:30:00 12.9 C 3.61 g/m*3 12.9 C 4.8 km/h
224 01-04-2020 18:35:00 13 C 3.74 g/m*3 13 C 4.8 km/h
225 01-04-2020 18:40:00 13.1 C 3.77 g/m*3 13.1 C 4.8 km/h
Sensor: Nr:Datum:Temp:Abs-Feuchte:Windchill:Wind:
Aussen-T/F 226 01-04-2020 18:45:00 13.2 C 3.67 g/m*3 13.2 C 4.8 km/h
227 01-04-2020 18:50:00 13.2 C 3.67 g/m*3 13.2 C 4.8 km/h
228 01-04-2020 18:55:00 13.2 C 3.79 g/m*3 13.2 C 3.2 km/h
229 01-04-2020 19:00:00 13.3 C 3.7 g/m*3 13.3 C 6.4 km/h
230 01-04-2020 19:05:00 13 C 3.74 g/m*3 13 C 4.8 km/h
231 01-04-2020 19:10:00 12.8 C 3.7 g/m*3 12.8 C 6.4 km/h
232 01-04-2020 19:15:00 12.7 C 3.67 g/m*3 12.7 C 6.4 km/h
233 01-04-2020 19:20:00 12.4 C 3.71 g/m*3 12.4 C 6.4 km/h
234 01-04-2020 19:25:00 12.2 C 3.67 g/m*3 12.2 C 6.4 km/h
235 01-04-2020 19:30:00 11.8 C 3.58 g/m*3 11.8 C 9.7 km/h
236 01-04-2020 19:35:00 11.5 C 3.62 g/m*3 11.5 C 4.8 km/h
237 01-04-2020 19:40:00 11.2 C 3.55 g/m*3 11.2 C 4.8 km/h
238 01-04-2020 19:45:00 10.9 C 3.58 g/m*3 10.04 C 8.1 km/h
239 01-04-2020 19:50:00 10.7 C 3.54 g/m*3 10.7 C 4.8 km/h
240 01-04-2020 19:55:00 10.4 C 3.76 g/m*3 10.4 C 1.6 km/h
241 01-04-2020 20:00:00 10.1 C 3.59 g/m*3 9.48 C 6.4 km/h
242 01-04-2020 20:05:00 9.7 C 3.69 g/m*3 9.7 C 4.8 km/h
243 01-04-2020 20:10:00 9.4 C 3.8 g/m*3 9.4 C 1.6 km/h
244 01-04-2020 20:15:00 9.2 C 3.48 g/m*3 7.46 C 11.3 km/h
245 01-04-2020 20:20:00 9.1 C 3.46 g/m*3 8.33 C 6.4 km/h
246 01-04-2020 20:25:00 9.1 C 3.64 g/m*3 9.1 C 4.8 km/h
247 01-04-2020 20:30:00 8.8 C 3.83 g/m*3 8.8 C 1.6 km/h
248 01-04-2020 20:35:00 8.4 C 3.9 g/m*3 8.4 C 0 km/h
249 01-04-2020 20:40:00 7.8 C 4 g/m*3 6.83 C 6.4 km/h
250 01-04-2020 20:45:00 7.4 C 4.06 g/m*3 7.4 C 4.8 km/h
Sensor: Nr:Datum:Temp:Abs-Feuchte:Windchill:Wind:
Aussen-T/F 251 01-04-2020 20:50:00 6.9 C 4.16 g/m*3 5.79 C 6.4 km/h
252 01-04-2020 20:55:00 6.6 C 4.08 g/m*3 5.44 C 6.4 km/h
253 01-04-2020 21:00:00 6.3 C 4.07 g/m*3 5.1 C 6.4 km/h
254 01-04-2020 21:05:00 6 C 4.06 g/m*3 6 C 4.8 km/h
255 01-04-2020 21:10:00 5.7 C 4.06 g/m*3 4.4 C 6.4 km/h
256 01-04-2020 21:15:00 5.6 C 4.03 g/m*3 4.29 C 6.4 km/h
257 01-04-2020 21:20:00 5.4 C 4.12 g/m*3 5.4 C 4.8 km/h
258 01-04-2020 21:25:00 5.3 C 4.09 g/m*3 5.3 C 4.8 km/h
259 01-04-2020 21:30:00 5.2 C 4.06 g/m*3 5.2 C 4.8 km/h
260 01-04-2020 21:35:00 5.1 C 4.1 g/m*3 5.1 C 4.8 km/h
261 01-04-2020 21:40:00 5 C 4.08 g/m*3 3.59 C 6.4 km/h
262 01-04-2020 21:45:00 4.9 C 4.12 g/m*3 4.9 C 1.6 km/h
263 01-04-2020 21:50:00 4.7 C 4.13 g/m*3 4.7 C 3.2 km/h
264 01-04-2020 21:55:00 4.6 C 4.17 g/m*3 4.6 C 4.8 km/h
265 01-04-2020 22:00:00 4.4 C 4.05 g/m*3 4.4 C 4.8 km/h
266 01-04-2020 22:05:00 4.3 C 4.09 g/m*3 4.3 C 4.8 km/h
267 01-04-2020 22:10:00 4.2 C 4.12 g/m*3 4.2 C 4.8 km/h
268 01-04-2020 22:15:00 4 C 4.07 g/m*3 4 C 4.8 km/h
269 01-04-2020 22:20:00 3.9 C 4.11 g/m*3 3.9 C 3.2 km/h
270 01-04-2020 22:25:00 3.7 C 4.11 g/m*3 3.7 C 1.6 km/h
271 01-04-2020 22:30:00 3.6 C 4.09 g/m*3 3.6 C 3.2 km/h
272 01-04-2020 22:35:00 3.5 C 4.06 g/m*3 3.5 C 3.2 km/h
273 01-04-2020 22:40:00 3.5 C 4.06 g/m*3 3.5 C 0 km/h
274 01-04-2020 22:45:00 3.4 C 4.03 g/m*3 3.4 C 1.6 km/h
275 01-04-2020 22:50:00 3.3 C 4.06 g/m*3 3.3 C 0 km/h
Sensor: Nr:Datum:Temp:Abs-Feuchte:Windchill:Wind:
Aussen-T/F 276 01-04-2020 22:55:00 3.2 C 4.1 g/m*3 3.2 C 0 km/h
277 01-04-2020 23:00:00 3.1 C 4.13 g/m*3 3.1 C 1.6 km/h
278 01-04-2020 23:05:00 2.9 C 4.13 g/m*3 2.9 C 1.6 km/h
279 01-04-2020 23:10:00 2.7 C 4.08 g/m*3 2.7 C 1.6 km/h
280 01-04-2020 23:15:00 2.7 C 4.14 g/m*3 2.7 C 0 km/h
281 01-04-2020 23:20:00 2.7 C 4.14 g/m*3 2.7 C 0 km/h
282 01-04-2020 23:25:00 2.6 C 4.17 g/m*3 2.6 C 0 km/h
283 01-04-2020 23:30:00 2.4 C 4.05 g/m*3 2.4 C 0 km/h
284 01-04-2020 23:35:00 2.3 C 4.03 g/m*3 2.3 C 0 km/h
285 01-04-2020 23:40:00 2.2 C 4.06 g/m*3 2.2 C 0 km/h
286 01-04-2020 23:45:00 2 C 4.06 g/m*3 2 C 1.6 km/h
287 01-04-2020 23:50:00 1.9 C 4.03 g/m*3 1.9 C 1.6 km/h
288 01-04-2020 23:55:00 1.8 C 4 g/m*3 1.8 C 3.2 km/h
289 02-04-2020 00:00:00 1.8 C 4 g/m*3 1.8 C 1.6 km/h
290 02-04-2020 00:05:00 1.6 C 4 g/m*3 1.6 C 0 km/h
291 02-04-2020 00:10:00 1.4 C 3.95 g/m*3 1.4 C 0 km/h
292 02-04-2020 00:15:00 1.3 C 3.92 g/m*3 1.3 C 0 km/h
293 02-04-2020 00:20:00 1.3 C 3.92 g/m*3 1.3 C 0 km/h
294 02-04-2020 00:25:00 1.2 C 3.89 g/m*3 1.2 C 0 km/h
295 02-04-2020 00:30:00 1.1 C 3.92 g/m*3 1.1 C 3.2 km/h
296 02-04-2020 00:35:00 1 C 3.89 g/m*3 1 C 1.6 km/h
297 02-04-2020 00:40:00 1 C 3.94 g/m*3 1 C 3.2 km/h
298 02-04-2020 00:45:00 1 C 3.94 g/m*3 1 C 3.2 km/h
299 02-04-2020 00:50:00 1 C 3.94 g/m*3 1 C 0 km/h
300 02-04-2020 00:55:00 0.9 C 3.92 g/m*3 0.9 C 1.6 km/h
Sensor: Nr:Datum:Temp:Abs-Feuchte:Windchill:Wind:
Aussen-T/F 301 02-04-2020 01:00:00 0.8 C 3.94 g/m*3 0.8 C 0 km/h
302 02-04-2020 01:05:00 0.8 C 3.94 g/m*3 0.8 C 0 km/h
303 02-04-2020 01:10:00 0.7 C 3.92 g/m*3 0.7 C 0 km/h
304 02-04-2020 01:15:00 0.6 C 3.94 g/m*3 0.6 C 0 km/h
305 02-04-2020 01:20:00 0.5 C 3.91 g/m*3 0.5 C 0 km/h
306 02-04-2020 01:25:00 0.3 C 3.91 g/m*3 0.3 C 0 km/h
307 02-04-2020 01:30:00 0.3 C 3.91 g/m*3 0.3 C 0 km/h
308 02-04-2020 01:35:00 0.2 C 3.88 g/m*3 0.2 C 0 km/h
309 02-04-2020 01:40:00 0.2 C 3.88 g/m*3 0.2 C 0 km/h
310 02-04-2020 01:45:00 0.2 C 3.88 g/m*3 0.2 C 0 km/h
311 02-04-2020 01:50:00 0.1 C 3.9 g/m*3 0.1 C 0 km/h
312 02-04-2020 01:55:00 0.1 C 3.9 g/m*3 0.1 C 0 km/h
313 02-04-2020 02:00:00 0 C 3.88 g/m*3 0 C 0 km/h
314 02-04-2020 02:05:00 0 C 3.88 g/m*3 0 C 0 km/h
315 02-04-2020 02:10:00 0.1 C 3.9 g/m*3 0.1 C 0 km/h
316 02-04-2020 02:15:00 0 C 3.88 g/m*3 0 C 0 km/h
317 02-04-2020 02:20:00 -0.1 C 3.85 g/m*3 -0.1 C 0 km/h
318 02-04-2020 02:25:00 -0.1 C 3.85 g/m*3 -0.1 C 0 km/h
319 02-04-2020 02:30:00 -0.2 C 3.87 g/m*3 -0.2 C 0 km/h
320 02-04-2020 02:35:00 -0.3 C 3.84 g/m*3 -0.3 C 0 km/h
321 02-04-2020 02:40:00 -0.3 C 3.84 g/m*3 -0.3 C 0 km/h
322 02-04-2020 02:45:00 -0.4 C 3.82 g/m*3 -0.4 C 0 km/h
323 02-04-2020 02:50:00 -0.4 C 3.82 g/m*3 -0.4 C 0 km/h
324 02-04-2020 02:55:00 -0.5 C 3.84 g/m*3 -0.5 C 0 km/h
325 02-04-2020 03:00:00 -0.6 C 3.81 g/m*3 -0.6 C 0 km/h
Sensor: Nr:Datum:Temp:Abs-Feuchte:Windchill:Wind:
Aussen-T/F 326 02-04-2020 03:05:00 -0.6 C 3.81 g/m*3 -0.6 C 0 km/h
327 02-04-2020 03:10:00 -0.6 C 3.81 g/m*3 -0.6 C 0 km/h
328 02-04-2020 03:15:00 -0.5 C 3.84 g/m*3 -0.5 C 1.6 km/h
329 02-04-2020 03:20:00 -0.5 C 3.84 g/m*3 -0.5 C 0 km/h
330 02-04-2020 03:25:00 -0.5 C 3.84 g/m*3 -0.5 C 0 km/h
331 02-04-2020 03:30:00 -0.6 C 3.81 g/m*3 -0.6 C 0 km/h
332 02-04-2020 03:35:00 -0.6 C 3.81 g/m*3 -0.6 C 0 km/h
333 02-04-2020 03:40:00 -0.6 C 3.81 g/m*3 -0.6 C 0 km/h
334 02-04-2020 03:45:00 -0.6 C 3.81 g/m*3 -0.6 C 0 km/h
335 02-04-2020 03:50:00 -0.6 C 3.86 g/m*3 -0.6 C 0 km/h
336 02-04-2020 03:55:00 -0.7 C 3.83 g/m*3 -0.7 C 0 km/h
337 02-04-2020 04:00:00 -0.7 C 3.78 g/m*3 -0.7 C 0 km/h
338 02-04-2020 04:05:00 -0.8 C 3.8 g/m*3 -0.8 C 0 km/h
339 02-04-2020 04:10:00 -0.7 C 3.83 g/m*3 -0.7 C 1.6 km/h
340 02-04-2020 04:15:00 -0.7 C 3.83 g/m*3 -0.7 C 0 km/h
341 02-04-2020 04:20:00 -0.6 C 3.86 g/m*3 -0.6 C 0 km/h
342 02-04-2020 04:25:00 -0.6 C 3.86 g/m*3 -0.6 C 0 km/h
343 02-04-2020 04:30:00 -0.6 C 3.86 g/m*3 -0.6 C 0 km/h
344 02-04-2020 04:35:00 -0.7 C 3.78 g/m*3 -0.7 C 0 km/h
345 02-04-2020 04:40:00 -0.9 C 3.73 g/m*3 -0.9 C 0 km/h
346 02-04-2020 04:45:00 -1.1 C 3.73 g/m*3 -1.1 C 1.6 km/h
347 02-04-2020 04:50:00 -1.2 C 3.7 g/m*3 -1.2 C 0 km/h
348 02-04-2020 04:55:00 -1.3 C 3.67 g/m*3 -1.3 C 0 km/h
349 02-04-2020 05:00:00 -1.4 C 3.69 g/m*3 -1.4 C 0 km/h
350 02-04-2020 05:05:00 -1.4 C 3.69 g/m*3 -1.4 C 0 km/h
Sensor: Nr:Datum:Temp:Abs-Feuchte:Windchill:Wind:
Aussen-T/F 351 02-04-2020 05:10:00 -1.5 C 3.67 g/m*3 -1.5 C 0 km/h
352 02-04-2020 05:15:00 -1.6 C 3.68 g/m*3 -1.6 C 0 km/h
353 02-04-2020 05:20:00 -1.6 C 3.68 g/m*3 -1.6 C 0 km/h
354 02-04-2020 05:25:00 -1.6 C 3.68 g/m*3 -1.6 C 0 km/h
355 02-04-2020 05:30:00 -1.6 C 3.68 g/m*3 -1.6 C 0 km/h
356 02-04-2020 05:35:00 -1.6 C 3.68 g/m*3 -1.6 C 0 km/h
357 02-04-2020 05:40:00 -1.7 C 3.66 g/m*3 -1.7 C 0 km/h
358 02-04-2020 05:45:00 -1.7 C 3.7 g/m*3 -1.7 C 0 km/h
359 02-04-2020 05:50:00 -1.6 C 3.73 g/m*3 -1.6 C 0 km/h
360 02-04-2020 05:55:00 -1.5 C 3.75 g/m*3 -1.5 C 0 km/h
361 02-04-2020 06:00:00 -1.5 C 3.75 g/m*3 -1.5 C 0 km/h
362 02-04-2020 06:05:00 -1.6 C 3.73 g/m*3 -1.6 C 0 km/h
363 02-04-2020 06:10:00 -1.6 C 3.73 g/m*3 -1.6 C 0 km/h
364 02-04-2020 06:15:00 -1.7 C 3.66 g/m*3 -1.7 C 0 km/h
365 02-04-2020 06:20:00 -1.8 C 3.63 g/m*3 -1.8 C 0 km/h
366 02-04-2020 06:25:00 -1.8 C 3.68 g/m*3 -1.8 C 0 km/h
367 02-04-2020 06:30:00 -1.8 C 3.72 g/m*3 -1.8 C 0 km/h
368 02-04-2020 06:35:00 -1.7 C 3.75 g/m*3 -1.7 C 0 km/h
369 02-04-2020 06:40:00 -1.8 C 3.68 g/m*3 -1.8 C 0 km/h
370 02-04-2020 06:45:00 -1.8 C 3.68 g/m*3 -1.8 C 0 km/h
371 02-04-2020 06:50:00 -1.8 C 3.72 g/m*3 -1.8 C 0 km/h
372 02-04-2020 06:55:00 -1.8 C 3.72 g/m*3 -1.8 C 0 km/h
373 02-04-2020 07:00:00 -1.8 C 3.68 g/m*3 -1.8 C 0 km/h
374 02-04-2020 07:05:00 -1.9 C 3.65 g/m*3 -1.9 C 0 km/h
375 02-04-2020 07:10:00 -2 C 3.63 g/m*3 -2 C 0 km/h
Sensor: Nr:Datum:Temp:Abs-Feuchte:Windchill:Wind:
Aussen-T/F 376 02-04-2020 07:15:00 -2 C 3.67 g/m*3 -2 C 0 km/h
377 02-04-2020 07:20:00 -1.9 C 3.69 g/m*3 -1.9 C 0 km/h
378 02-04-2020 07:25:00 -1.9 C 3.69 g/m*3 -1.9 C 0 km/h
379 02-04-2020 07:30:00 -1.9 C 3.69 g/m*3 -1.9 C 0 km/h
380 02-04-2020 07:35:00 -1.9 C 3.74 g/m*3 -1.9 C 1.6 km/h
381 02-04-2020 07:40:00 -1.9 C 3.69 g/m*3 -1.9 C 1.6 km/h
382 02-04-2020 07:45:00 -1.9 C 3.69 g/m*3 -1.9 C 0 km/h
383 02-04-2020 07:50:00 -1.9 C 3.69 g/m*3 -1.9 C 1.6 km/h
384 02-04-2020 07:55:00 -1.8 C 3.76 g/m*3 -1.8 C 0 km/h
385 02-04-2020 08:00:00 -1.8 C 3.76 g/m*3 -1.8 C 0 km/h
386 02-04-2020 08:05:00 -1.7 C 3.79 g/m*3 -1.7 C 0 km/h
387 02-04-2020 08:10:00 -1.5 C 3.84 g/m*3 -1.5 C 1.6 km/h
388 02-04-2020 08:15:00 -1.3 C 3.9 g/m*3 -1.3 C 0 km/h
389 02-04-2020 08:20:00 -1.3 C 3.85 g/m*3 -1.3 C 0 km/h
390 02-04-2020 08:25:00 -1.3 C 3.85 g/m*3 -1.3 C 0 km/h
391 02-04-2020 08:30:00 -1.3 C 3.85 g/m*3 -1.3 C 0 km/h
392 02-04-2020 08:35:00 -1.3 C 3.85 g/m*3 -1.3 C 0 km/h
393 02-04-2020 08:40:00 -1.3 C 3.85 g/m*3 -1.3 C 0 km/h
394 02-04-2020 08:45:00 -1.2 C 3.88 g/m*3 -1.2 C 0 km/h
395 02-04-2020 08:50:00 -1.2 C 3.88 g/m*3 -1.2 C 0 km/h
396 02-04-2020 08:55:00 -1.1 C 3.91 g/m*3 -1.1 C 0 km/h
397 02-04-2020 09:00:00 -1.1 C 3.91 g/m*3 -1.1 C 0 km/h
398 02-04-2020 09:05:00 -1 C 3.93 g/m*3 -1 C 1.6 km/h
399 02-04-2020 09:10:00 -1 C 3.93 g/m*3 -1 C 0 km/h
400 02-04-2020 09:15:00 -0.9 C 3.96 g/m*3 -0.9 C 0 km/h
Sensor: Nr:Datum:Temp:Abs-Feuchte:Windchill:Wind:
Aussen-T/F 401 02-04-2020 09:20:00 -0.8 C 3.99 g/m*3 -0.8 C 0 km/h
402 02-04-2020 09:25:00 -0.7 C 4.02 g/m*3 -0.7 C 0 km/h
403 02-04-2020 09:30:00 -0.7 C 4.02 g/m*3 -0.7 C 0 km/h
404 02-04-2020 09:35:00 -0.6 C 4.04 g/m*3 -0.6 C 0 km/h
405 02-04-2020 09:40:00 -0.4 C 4.1 g/m*3 -0.4 C 0 km/h
406 02-04-2020 09:45:00 -0.3 C 4.13 g/m*3 -0.3 C 0 km/h
407 02-04-2020 09:50:00 -0.2 C 4.16 g/m*3 -0.2 C 0 km/h
408 02-04-2020 09:55:00 0 C 4.22 g/m*3 0 C 0 km/h
409 02-04-2020 10:00:00 0.2 C 4.27 g/m*3 0.2 C 0 km/h
410 02-04-2020 10:05:00 0.3 C 4.3 g/m*3 0.3 C 0 km/h
411 02-04-2020 10:10:00 0.5 C 4.36 g/m*3 0.5 C 0 km/h
412 02-04-2020 10:15:00 0.7 C 4.42 g/m*3 0.7 C 0 km/h
413 02-04-2020 10:20:00 0.8 C 4.45 g/m*3 0.8 C 0 km/h
414 02-04-2020 10:25:00 1.1 C 4.55 g/m*3 1.1 C 0 km/h
415 02-04-2020 10:30:00 1.3 C 4.56 g/m*3 1.3 C 0 km/h
416 02-04-2020 10:35:00 1.6 C 4.65 g/m*3 1.6 C 0 km/h
417 02-04-2020 10:40:00 1.9 C 4.69 g/m*3 1.9 C 0 km/h
418 02-04-2020 10:45:00 2.3 C 4.76 g/m*3 2.3 C 0 km/h
419 02-04-2020 10:50:00 2.8 C 4.81 g/m*3 2.8 C 0 km/h
420 02-04-2020 10:55:00 3.2 C 4.82 g/m*3 3.2 C 0 km/h
421 02-04-2020 11:00:00 3.7 C 4.92 g/m*3 3.7 C 0 km/h
422 02-04-2020 11:05:00 4 C 4.96 g/m*3 4 C 0 km/h
423 02-04-2020 11:10:00 4.3 C 4.93 g/m*3 4.3 C 0 km/h
424 02-04-2020 11:15:00 4.6 C 4.9 g/m*3 4.6 C 0 km/h
425 02-04-2020 11:20:00 4.9 C 4.86 g/m*3 4.9 C 0 km/h
Sensor: Nr:Datum:Temp:Abs-Feuchte:Windchill:Wind:
Aussen-T/F 426 02-04-2020 11:25:00 5.3 C 4.92 g/m*3 5.3 C 3.2 km/h
427 02-04-2020 11:30:00 5.6 C 4.88 g/m*3 5.6 C 3.2 km/h
428 02-04-2020 11:35:00 5.9 C 4.98 g/m*3 5.9 C 1.6 km/h
429 02-04-2020 11:40:00 6.3 C 4.89 g/m*3 6.3 C 3.2 km/h
430 02-04-2020 11:45:00 6.6 C 4.91 g/m*3 6.6 C 1.6 km/h
431 02-04-2020 11:50:00 6.9 C 5 g/m*3 6.9 C 3.2 km/h
432 02-04-2020 11:55:00 7.2 C 4.95 g/m*3 7.2 C 1.6 km/h
433 02-04-2020 12:00:00 7.5 C 5.04 g/m*3 7.5 C 3.2 km/h
434 02-04-2020 12:05:00 7.8 C 4.9 g/m*3 6.83 C 6.4 km/h
435 02-04-2020 12:10:00 8.1 C 4.99 g/m*3 8.1 C 3.2 km/h
436 02-04-2020 12:15:00 8.3 C 4.97 g/m*3 8.3 C 3.2 km/h
437 02-04-2020 12:20:00 8.6 C 4.9 g/m*3 8.6 C 4.8 km/h
438 02-04-2020 12:25:00 8.8 C 4.96 g/m*3 8.8 C 4.8 km/h
439 02-04-2020 12:30:00 9.1 C 4.97 g/m*3 9.1 C 1.6 km/h
440 02-04-2020 12:35:00 9.2 C 4.91 g/m*3 9.2 C 1.6 km/h
441 02-04-2020 12:40:00 9.4 C 4.52 g/m*3 9.4 C 3.2 km/h
442 02-04-2020 12:45:00 9.6 C 4.76 g/m*3 8.91 C 6.4 km/h
443 02-04-2020 12:50:00 9.7 C 4.79 g/m*3 9.7 C 3.2 km/h
444 02-04-2020 12:55:00 9.9 C 4.67 g/m*3 8.87 C 8.1 km/h
445 02-04-2020 13:00:00 10 C 4.6 g/m*3 10 C 4.8 km/h
446 02-04-2020 13:05:00 10.1 C 4.63 g/m*3 8.8 C 9.7 km/h
447 02-04-2020 13:10:00 10.2 C 4.76 g/m*3 8.92 C 9.7 km/h
448 02-04-2020 13:15:00 10.5 C 4.66 g/m*3 9.95 C 6.4 km/h
449 02-04-2020 13:20:00 10.7 C 4.52 g/m*3 10.18 C 6.4 km/h
450 02-04-2020 13:25:00 10.8 C 4.45 g/m*3 10.29 C 6.4 km/h
Sensor: Nr:Datum:Temp:Abs-Feuchte:Windchill:Wind:
Aussen-T/F 451 02-04-2020 13:30:00 10.8 C 4.15 g/m*3 9.38 C 11.3 km/h
452 02-04-2020 13:35:00 11 C 4.4 g/m*3 11 C 4.8 km/h
453 02-04-2020 13:40:00 11.2 C 4.56 g/m*3 11.2 C 12.9 km/h
454 02-04-2020 13:45:00 11.3 C 4.59 g/m*3 11.3 C 12.9 km/h
455 02-04-2020 13:50:00 11.4 C 4.31 g/m*3 11.4 C 6.4 km/h
456 02-04-2020 13:55:00 11.4 C 4.41 g/m*3 11.4 C 8.1 km/h
457 02-04-2020 14:00:00 11.6 C 4.57 g/m*3 11.6 C 9.7 km/h
458 02-04-2020 14:05:00 11.7 C 4.6 g/m*3 11.7 C 9.7 km/h
459 02-04-2020 14:10:00 11.8 C 4.53 g/m*3 11.8 C 6.4 km/h
460 02-04-2020 14:15:00 11.9 C 4.55 g/m*3 11.9 C 8.1 km/h
461 02-04-2020 14:20:00 12.1 C 4.61 g/m*3 12.1 C 11.3 km/h
462 02-04-2020 14:25:00 12.3 C 4.67 g/m*3 12.3 C 6.4 km/h
463 02-04-2020 14:30:00 12.6 C 4.65 g/m*3 12.6 C 4.8 km/h
464 02-04-2020 14:35:00 12.7 C 4.68 g/m*3 12.7 C 8.1 km/h
465 02-04-2020 14:40:00 12.8 C 4.82 g/m*3 12.8 C 8.1 km/h
466 02-04-2020 14:45:00 12.8 C 4.7 g/m*3 12.8 C 11.3 km/h
467 02-04-2020 14:50:00 12.8 C 4.7 g/m*3 12.8 C 8.1 km/h
468 02-04-2020 14:55:00 12.7 C 4.79 g/m*3 12.7 C 11.3 km/h
469 02-04-2020 15:00:00 12.8 C 4.7 g/m*3 12.8 C 6.4 km/h
470 02-04-2020 15:05:00 12.9 C 4.85 g/m*3 12.9 C 9.7 km/h
471 02-04-2020 15:10:00 13.1 C 4.79 g/m*3 13.1 C 9.7 km/h
472 02-04-2020 15:15:00 13.2 C 4.59 g/m*3 13.2 C 8.1 km/h
473 02-04-2020 15:20:00 13.2 C 4.59 g/m*3 13.2 C 8.1 km/h
474 02-04-2020 15:25:00 13.2 C 4.59 g/m*3 13.2 C 9.7 km/h
475 02-04-2020 15:30:00 13.3 C 4.74 g/m*3 13.3 C 16.1 km/h
Sensor: Nr:Datum:Temp:Abs-Feuchte:Windchill:Wind:
Aussen-T/F 476 02-04-2020 15:35:00 13.3 C 4.74 g/m*3 13.3 C 8.1 km/h
477 02-04-2020 15:40:00 13.4 C 4.65 g/m*3 13.4 C 8.1 km/h
478 02-04-2020 15:45:00 13.5 C 4.68 g/m*3 13.5 C 9.7 km/h
479 02-04-2020 15:50:00 13.6 C 4.71 g/m*3 13.6 C 9.7 km/h
480 02-04-2020 15:55:00 13.6 C 4.83 g/m*3 13.6 C 8.1 km/h
481 02-04-2020 16:00:00 13.6 C 4.71 g/m*3 13.6 C 6.4 km/h
482 02-04-2020 16:05:00 13.8 C 4.89 g/m*3 13.8 C 4.8 km/h
483 02-04-2020 16:10:00 13.9 C 4.92 g/m*3 13.9 C 6.4 km/h
484 02-04-2020 16:15:00 13.8 C 4.89 g/m*3 13.8 C 14.5 km/h
485 02-04-2020 16:20:00 13.4 C 4.88 g/m*3 13.4 C 11.3 km/h
486 02-04-2020 16:25:00 13.2 C 5.05 g/m*3 13.2 C 9.7 km/h
487 02-04-2020 16:30:00 13.3 C 4.97 g/m*3 13.3 C 12.9 km/h
488 02-04-2020 16:35:00 13.3 C 4.97 g/m*3 13.3 C 14.5 km/h
489 02-04-2020 16:40:00 13.5 C 5.03 g/m*3 13.5 C 11.3 km/h
490 02-04-2020 16:45:00 13.6 C 5.06 g/m*3 13.6 C 11.3 km/h
491 02-04-2020 16:50:00 13.7 C 4.97 g/m*3 13.7 C 16.1 km/h
492 02-04-2020 16:55:00 13.7 C 5.09 g/m*3 13.7 C 11.3 km/h
493 02-04-2020 17:00:00 13.8 C 5.12 g/m*3 13.8 C 14.5 km/h
494 02-04-2020 17:05:00 13.9 C 5.27 g/m*3 13.9 C 11.3 km/h
495 02-04-2020 17:10:00 13.9 C 5.15 g/m*3 13.9 C 12.9 km/h
496 02-04-2020 17:15:00 14 C 5.31 g/m*3 14 C 9.7 km/h
497 02-04-2020 17:20:00 14 C 5.19 g/m*3 14 C 14.5 km/h
498 02-04-2020 17:25:00 13.7 C 5.21 g/m*3 13.7 C 17.7 km/h
499 02-04-2020 17:30:00 13.4 C 5.35 g/m*3 13.4 C 12.9 km/h
500 02-04-2020 17:35:00 13.4 C 5.35 g/m*3 13.4 C 14.5 km/h
Sensor: Nr:Datum:Temp:Abs-Feuchte:Windchill:Wind:
Aussen-T/F 501 02-04-2020 17:40:00 13.4 C 5.35 g/m*3 13.4 C 9.7 km/h
502 02-04-2020 17:45:00 13.3 C 5.31 g/m*3 13.3 C 16.1 km/h
503 02-04-2020 17:50:00 13.2 C 5.51 g/m*3 13.2 C 12.9 km/h
504 02-04-2020 17:55:00 13 C 5.56 g/m*3 13 C 12.9 km/h
505 02-04-2020 18:00:00 12.8 C 5.6 g/m*3 12.8 C 16.1 km/h
506 02-04-2020 18:05:00 12.7 C 5.57 g/m*3 12.7 C 14.5 km/h
507 02-04-2020 18:10:00 12.5 C 5.5 g/m*3 12.5 C 14.5 km/h
508 02-04-2020 18:15:00 12.4 C 5.57 g/m*3 12.4 C 11.3 km/h
509 02-04-2020 18:20:00 12.4 C 5.57 g/m*3 12.4 C 14.5 km/h
510 02-04-2020 18:25:00 12.3 C 5.43 g/m*3 12.3 C 9.7 km/h
511 02-04-2020 18:30:00 12.2 C 5.5 g/m*3 12.2 C 17.7 km/h
512 02-04-2020 18:35:00 12.1 C 5.36 g/m*3 12.1 C 9.7 km/h
513 02-04-2020 18:40:00 11.9 C 5.4 g/m*3 11.9 C 14.5 km/h
514 02-04-2020 18:45:00 11.8 C 5.26 g/m*3 11.8 C 14.5 km/h
515 02-04-2020 18:50:00 11.7 C 5.33 g/m*3 11.7 C 9.7 km/h
516 02-04-2020 18:55:00 11.6 C 5.3 g/m*3 11.6 C 9.7 km/h
517 02-04-2020 19:00:00 11.4 C 5.13 g/m*3 11.4 C 11.3 km/h
518 02-04-2020 19:05:00 11.3 C 5.2 g/m*3 11.3 C 12.9 km/h
519 02-04-2020 19:10:00 11.3 C 5.2 g/m*3 11.3 C 6.4 km/h
520 02-04-2020 19:15:00 11.1 C 5.14 g/m*3 11.1 C 8.1 km/h
521 02-04-2020 19:20:00 10.9 C 5.07 g/m*3 10.04 C 8.1 km/h
522 02-04-2020 19:25:00 10.8 C 5.14 g/m*3 10.29 C 6.4 km/h
523 02-04-2020 19:30:00 10.7 C 5.11 g/m*3 9.04 C 12.9 km/h
524 02-04-2020 19:35:00 10.5 C 5.04 g/m*3 9.28 C 9.7 km/h
525 02-04-2020 19:40:00 10.3 C 5.08 g/m*3 10.3 C 4.8 km/h
Sensor: Nr:Datum:Temp:Abs-Feuchte:Windchill:Wind:
Aussen-T/F 526 02-04-2020 19:45:00 10.1 C 5.01 g/m*3 9.48 C 6.4 km/h
527 02-04-2020 19:50:00 10 C 4.98 g/m*3 9.37 C 6.4 km/h
528 02-04-2020 19:55:00 9.8 C 4.92 g/m*3 9.14 C 6.4 km/h
529 02-04-2020 20:00:00 9.6 C 5.04 g/m*3 9.6 C 4.8 km/h
530 02-04-2020 20:05:00 9.4 C 4.97 g/m*3 9.4 C 3.2 km/h
531 02-04-2020 20:10:00 9.2 C 5 g/m*3 7.73 C 9.7 km/h
532 02-04-2020 20:15:00 9.1 C 4.97 g/m*3 7.33 C 11.3 km/h
533 02-04-2020 20:20:00 9 C 5.03 g/m*3 7.21 C 11.3 km/h
534 02-04-2020 20:25:00 8.9 C 5.08 g/m*3 8.9 C 1.6 km/h
535 02-04-2020 20:30:00 8.7 C 5.02 g/m*3 7.46 C 8.1 km/h
536 02-04-2020 20:35:00 8.6 C 5.07 g/m*3 6.73 C 11.3 km/h
537 02-04-2020 20:40:00 8.5 C 5.04 g/m*3 8.5 C 1.6 km/h
538 02-04-2020 20:45:00 8.3 C 5.06 g/m*3 8.3 C 3.2 km/h
539 02-04-2020 20:50:00 8.2 C 5.02 g/m*3 7.29 C 6.4 km/h
540 02-04-2020 20:55:00 8 C 5.04 g/m*3 8 C 3.2 km/h
541 02-04-2020 21:00:00 7.7 C 5.03 g/m*3 7.7 C 1.6 km/h
542 02-04-2020 21:05:00 7.4 C 5.01 g/m*3 7.4 C 3.2 km/h
543 02-04-2020 21:10:00 7.3 C 5.06 g/m*3 7.3 C 3.2 km/h
544 02-04-2020 21:15:00 7.1 C 5.07 g/m*3 7.1 C 3.2 km/h
545 02-04-2020 21:20:00 6.8 C 5.05 g/m*3 6.8 C 4.8 km/h
546 02-04-2020 21:25:00 6.6 C 5.06 g/m*3 6.6 C 4.8 km/h
547 02-04-2020 21:30:00 6.4 C 5.07 g/m*3 6.4 C 4.8 km/h
548 02-04-2020 21:35:00 6.2 C 5.07 g/m*3 6.2 C 4.8 km/h
549 02-04-2020 21:40:00 6.2 C 5.07 g/m*3 6.2 C 4.8 km/h
550 02-04-2020 21:45:00 6.1 C 5.04 g/m*3 6.1 C 4.8 km/h
Sensor: Nr:Datum:Temp:Abs-Feuchte:Windchill:Wind:
Aussen-T/F 551 02-04-2020 21:50:00 6 C 5.08 g/m*3 6 C 3.2 km/h
552 02-04-2020 21:55:00 5.9 C 5.05 g/m*3 5.9 C 4.8 km/h
553 02-04-2020 22:00:00 5.8 C 5.01 g/m*3 5.8 C 3.2 km/h
554 02-04-2020 22:05:00 5.9 C 5.05 g/m*3 5.9 C 4.8 km/h
555 02-04-2020 22:10:00 5.9 C 5.05 g/m*3 5.9 C 3.2 km/h
556 02-04-2020 22:15:00 6 C 5.08 g/m*3 6 C 3.2 km/h
557 02-04-2020 22:20:00 6.1 C 5.11 g/m*3 6.1 C 3.2 km/h
558 02-04-2020 22:25:00 6 C 5.08 g/m*3 6 C 3.2 km/h
559 02-04-2020 22:30:00 5.9 C 5.12 g/m*3 5.9 C 3.2 km/h
560 02-04-2020 22:35:00 5.9 C 5.12 g/m*3 5.9 C 3.2 km/h
561 02-04-2020 22:40:00 5.8 C 5.09 g/m*3 5.8 C 4.8 km/h
562 02-04-2020 22:45:00 5.7 C 5.12 g/m*3 5.7 C 4.8 km/h
563 02-04-2020 22:50:00 5.7 C 5.12 g/m*3 5.7 C 4.8 km/h
564 02-04-2020 22:55:00 5.7 C 5.12 g/m*3 5.7 C 3.2 km/h
565 02-04-2020 23:00:00 5.6 C 5.16 g/m*3 5.6 C 4.8 km/h
566 02-04-2020 23:05:00 5.6 C 5.16 g/m*3 5.6 C 4.8 km/h
567 02-04-2020 23:10:00 5.6 C 5.16 g/m*3 5.6 C 4.8 km/h
568 02-04-2020 23:15:00 5.6 C 5.16 g/m*3 5.6 C 4.8 km/h
569 02-04-2020 23:20:00 5.6 C 5.23 g/m*3 5.6 C 4.8 km/h
570 02-04-2020 23:25:00 5.5 C 5.2 g/m*3 5.5 C 4.8 km/h
571 02-04-2020 23:30:00 5.4 C 5.16 g/m*3 5.4 C 4.8 km/h
572 02-04-2020 23:35:00 5.3 C 5.2 g/m*3 5.3 C 4.8 km/h
573 02-04-2020 23:40:00 5.1 C 5.13 g/m*3 5.1 C 3.2 km/h
574 02-04-2020 23:45:00 4.9 C 5.06 g/m*3 4.9 C 0 km/h
575 02-04-2020 23:50:00 4.6 C 5.03 g/m*3 4.6 C 1.6 km/h
Sensor: Nr:Datum:Temp:Abs-Feuchte:Windchill:Wind:
Aussen-T/F 576 02-04-2020 23:55:00 4.3 C 4.99 g/m*3 4.3 C 1.6 km/h
577 03-04-2020 00:00:00 4.2 C 5.03 g/m*3 4.2 C 1.6 km/h
578 03-04-2020 00:05:00 3.9 C 4.93 g/m*3 3.9 C 0 km/h
579 03-04-2020 00:10:00 3.7 C 4.92 g/m*3 3.7 C 0 km/h
580 03-04-2020 00:15:00 3.4 C 4.89 g/m*3 3.4 C 0 km/h
581 03-04-2020 00:20:00 3.3 C 4.85 g/m*3 3.3 C 1.6 km/h
582 03-04-2020 00:25:00 3.3 C 4.91 g/m*3 3.3 C 3.2 km/h
583 03-04-2020 00:30:00 3.3 C 4.97 g/m*3 3.3 C 1.6 km/h
584 03-04-2020 00:35:00 3.3 C 4.91 g/m*3 3.3 C 0 km/h
585 03-04-2020 00:40:00 3.3 C 4.91 g/m*3 3.3 C 3.2 km/h
586 03-04-2020 00:45:00 3.4 C 5.01 g/m*3 3.4 C 3.2 km/h
587 03-04-2020 00:50:00 3.4 C 4.95 g/m*3 3.4 C 1.6 km/h
588 03-04-2020 00:55:00 3.2 C 4.88 g/m*3 1.51 C 6.4 km/h
589 03-04-2020 01:00:00 3.2 C 4.88 g/m*3 3.2 C 1.6 km/h
590 03-04-2020 01:05:00 3.1 C 4.85 g/m*3 3.1 C 3.2 km/h
591 03-04-2020 01:10:00 2.9 C 4.84 g/m*3 2.9 C 3.2 km/h
592 03-04-2020 01:15:00 3 C 4.88 g/m*3 1.28 C 6.4 km/h
593 03-04-2020 01:20:00 2.9 C 4.84 g/m*3 2.9 C 1.6 km/h
594 03-04-2020 01:25:00 2.9 C 4.9 g/m*3 0.64 C 8.1 km/h
595 03-04-2020 01:30:00 3 C 4.93 g/m*3 0.76 C 8.1 km/h
596 03-04-2020 01:35:00 3.1 C 4.97 g/m*3 0.87 C 8.1 km/h
597 03-04-2020 01:40:00 3.2 C 4.94 g/m*3 0.58 C 9.7 km/h
598 03-04-2020 01:45:00 3.1 C 4.91 g/m*3 3.1 C 3.2 km/h
599 03-04-2020 01:50:00 3 C 4.88 g/m*3 0.76 C 8.1 km/h
600 03-04-2020 01:55:00 2.9 C 4.84 g/m*3 2.9 C 4.8 km/h
Sensor: Nr:Datum:Temp:Abs-Feuchte:Windchill:Wind:
Aussen-T/F 601 03-04-2020 02:00:00 2.9 C 4.9 g/m*3 2.9 C 1.6 km/h
602 03-04-2020 02:05:00 2.8 C 4.87 g/m*3 2.8 C 1.6 km/h
603 03-04-2020 02:10:00 2.8 C 4.87 g/m*3 2.8 C 1.6 km/h
604 03-04-2020 02:15:00 2.8 C 4.87 g/m*3 1.05 C 6.4 km/h
605 03-04-2020 02:20:00 2.9 C 4.96 g/m*3 2.9 C 4.8 km/h
606 03-04-2020 02:25:00 3.1 C 4.97 g/m*3 3.1 C 4.8 km/h
607 03-04-2020 02:30:00 3.2 C 5 g/m*3 3.2 C 4.8 km/h
608 03-04-2020 02:35:00 3.3 C 5.04 g/m*3 3.3 C 1.6 km/h
609 03-04-2020 02:40:00 3.4 C 5.01 g/m*3 3.4 C 3.2 km/h
610 03-04-2020 02:45:00 3.3 C 4.97 g/m*3 3.3 C 0 km/h
611 03-04-2020 02:50:00 3.3 C 4.97 g/m*3 3.3 C 1.6 km/h
612 03-04-2020 02:55:00 3.4 C 5.01 g/m*3 3.4 C 3.2 km/h
613 03-04-2020 03:00:00 3.4 C 5.07 g/m*3 3.4 C 0 km/h
614 03-04-2020 03:05:00 3.6 C 5.14 g/m*3 3.6 C 1.6 km/h
615 03-04-2020 03:10:00 3.7 C 5.17 g/m*3 3.7 C 1.6 km/h
616 03-04-2020 03:15:00 3.8 C 5.14 g/m*3 3.8 C 1.6 km/h
617 03-04-2020 03:20:00 3.9 C 5.18 g/m*3 3.9 C 0 km/h
618 03-04-2020 03:25:00 4.1 C 5.25 g/m*3 4.1 C 4.8 km/h
619 03-04-2020 03:30:00 4.2 C 5.28 g/m*3 4.2 C 1.6 km/h
620 03-04-2020 03:35:00 4.4 C 5.29 g/m*3 2.9 C 6.4 km/h
621 03-04-2020 03:40:00 4.7 C 5.26 g/m*3 2.76 C 8.1 km/h
622 03-04-2020 03:45:00 4.8 C 5.3 g/m*3 3.36 C 6.4 km/h
623 03-04-2020 03:50:00 4.9 C 5.33 g/m*3 3.48 C 6.4 km/h
624 03-04-2020 03:55:00 4.9 C 5.33 g/m*3 4.9 C 3.2 km/h
625 03-04-2020 04:00:00 4.9 C 5.33 g/m*3 4.9 C 4.8 km/h
Sensor: Nr:Datum:Temp:Abs-Feuchte:Windchill:Wind:
Aussen-T/F 626 03-04-2020 04:05:00 5.1 C 5.4 g/m*3 3.71 C 6.4 km/h
627 03-04-2020 04:10:00 5.3 C 5.41 g/m*3 5.3 C 3.2 km/h
628 03-04-2020 04:15:00 5.4 C 5.37 g/m*3 3.2 C 9.7 km/h
629 03-04-2020 04:20:00 5.4 C 5.3 g/m*3 3.58 C 8.1 km/h
630 03-04-2020 04:25:00 5.4 C 5.3 g/m*3 5.4 C 1.6 km/h
631 03-04-2020 04:30:00 5.4 C 5.3 g/m*3 5.4 C 1.6 km/h
632 03-04-2020 04:35:00 5.4 C 5.37 g/m*3 5.4 C 0 km/h
633 03-04-2020 04:40:00 5.4 C 5.44 g/m*3 5.4 C 0 km/h
634 03-04-2020 04:45:00 5.3 C 5.41 g/m*3 5.3 C 0 km/h
635 03-04-2020 04:50:00 5.2 C 5.37 g/m*3 5.2 C 0 km/h
636 03-04-2020 04:55:00 5.2 C 5.44 g/m*3 5.2 C 0 km/h
637 03-04-2020 05:00:00 5.1 C 5.4 g/m*3 5.1 C 0 km/h
638 03-04-2020 05:05:00 5.1 C 5.4 g/m*3 5.1 C 0 km/h
639 03-04-2020 05:10:00 5.1 C 5.4 g/m*3 5.1 C 1.6 km/h
640 03-04-2020 05:15:00 5.2 C 5.44 g/m*3 5.2 C 0 km/h
641 03-04-2020 05:20:00 5.2 C 5.44 g/m*3 5.2 C 3.2 km/h
642 03-04-2020 05:25:00 5.3 C 5.48 g/m*3 5.3 C 1.6 km/h
643 03-04-2020 05:30:00 5.3 C 5.48 g/m*3 5.3 C 0 km/h
644 03-04-2020 05:35:00 5.3 C 5.41 g/m*3 5.3 C 1.6 km/h
645 03-04-2020 05:40:00 5.4 C 5.44 g/m*3 4.06 C 6.4 km/h
646 03-04-2020 05:45:00 5.5 C 5.48 g/m*3 5.5 C 1.6 km/h
647 03-04-2020 05:50:00 5.6 C 5.51 g/m*3 4.29 C 6.4 km/h
648 03-04-2020 05:55:00 5.6 C 5.59 g/m*3 5.6 C 4.8 km/h
649 03-04-2020 06:00:00 5.7 C 5.55 g/m*3 4.4 C 6.4 km/h
650 03-04-2020 06:05:00 5.7 C 5.48 g/m*3 4.4 C 6.4 km/h
Sensor: Nr:Datum:Temp:Abs-Feuchte:Windchill:Wind:
Aussen-T/F 651 03-04-2020 06:10:00 5.8 C 5.59 g/m*3 5.8 C 4.8 km/h
652 03-04-2020 06:15:00 5.7 C 5.55 g/m*3 5.7 C 3.2 km/h
653 03-04-2020 06:20:00 5.7 C 5.55 g/m*3 5.7 C 3.2 km/h
654 03-04-2020 06:25:00 5.7 C 5.55 g/m*3 5.7 C 4.8 km/h
655 03-04-2020 06:30:00 5.7 C 5.55 g/m*3 5.7 C 3.2 km/h
656 03-04-2020 06:35:00 5.7 C 5.62 g/m*3 5.7 C 0 km/h
657 03-04-2020 06:40:00 5.6 C 5.59 g/m*3 5.6 C 3.2 km/h
658 03-04-2020 06:45:00 5.6 C 5.59 g/m*3 5.6 C 0 km/h
659 03-04-2020 06:50:00 5.6 C 5.59 g/m*3 4.29 C 6.4 km/h
660 03-04-2020 06:55:00 5.7 C 5.55 g/m*3 3.56 C 9.7 km/h
661 03-04-2020 07:00:00 5.8 C 5.59 g/m*3 4.05 C 8.1 km/h
662 03-04-2020 07:05:00 6 C 5.59 g/m*3 3.92 C 9.7 km/h
663 03-04-2020 07:10:00 6 C 5.59 g/m*3 4.28 C 8.1 km/h
664 03-04-2020 07:15:00 6.1 C 5.55 g/m*3 3.43 C 12.9 km/h
665 03-04-2020 07:20:00 6.1 C 5.55 g/m*3 3.72 C 11.3 km/h
666 03-04-2020 07:25:00 6.1 C 5.55 g/m*3 4.86 C 6.4 km/h
667 03-04-2020 07:30:00 6.1 C 5.63 g/m*3 4.4 C 8.1 km/h
668 03-04-2020 07:35:00 6.1 C 5.63 g/m*3 4.86 C 6.4 km/h
669 03-04-2020 07:40:00 6.1 C 5.63 g/m*3 4.86 C 6.4 km/h
670 03-04-2020 07:45:00 6.1 C 5.63 g/m*3 6.1 C 4.8 km/h
671 03-04-2020 07:50:00 6.1 C 5.7 g/m*3 6.1 C 4.8 km/h
672 03-04-2020 07:55:00 6.1 C 5.7 g/m*3 6.1 C 1.6 km/h
673 03-04-2020 08:00:00 6.1 C 5.7 g/m*3 4.4 C 8.1 km/h
674 03-04-2020 08:05:00 6.2 C 5.66 g/m*3 4.52 C 8.1 km/h
675 03-04-2020 08:10:00 6.2 C 5.66 g/m*3 4.15 C 9.7 km/h
Sensor: Nr:Datum:Temp:Abs-Feuchte:Windchill:Wind:
Aussen-T/F 676 03-04-2020 08:15:00 6.3 C 5.7 g/m*3 4.27 C 9.7 km/h
677 03-04-2020 08:20:00 6.3 C 5.7 g/m*3 3.96 C 11.3 km/h
678 03-04-2020 08:25:00 6.3 C 5.7 g/m*3 4.27 C 9.7 km/h
679 03-04-2020 08:30:00 6.4 C 5.74 g/m*3 4.75 C 8.1 km/h
680 03-04-2020 08:35:00 6.4 C 5.74 g/m*3 4.08 C 11.3 km/h
681 03-04-2020 08:40:00 6.4 C 5.74 g/m*3 3.8 C 12.9 km/h
682 03-04-2020 08:45:00 6.6 C 5.81 g/m*3 4.63 C 9.7 km/h
683 03-04-2020 08:50:00 6.7 C 5.85 g/m*3 4.75 C 9.7 km/h
684 03-04-2020 08:55:00 6.8 C 5.89 g/m*3 4.87 C 9.7 km/h
685 03-04-2020 09:00:00 7 C 5.97 g/m*3 5.46 C 8.1 km/h
686 03-04-2020 09:05:00 7.1 C 5.93 g/m*3 5.23 C 9.7 km/h
687 03-04-2020 09:10:00 7.2 C 5.97 g/m*3 5.35 C 9.7 km/h
688 03-04-2020 09:15:00 7.3 C 6 g/m*3 5.81 C 8.1 km/h
689 03-04-2020 09:20:00 7.4 C 6.04 g/m*3 6.37 C 6.4 km/h
690 03-04-2020 09:25:00 7.6 C 6.12 g/m*3 5.82 C 9.7 km/h
691 03-04-2020 09:30:00 7.7 C 6.16 g/m*3 6.28 C 8.1 km/h
692 03-04-2020 09:35:00 7.8 C 6.12 g/m*3 5.77 C 11.3 km/h
693 03-04-2020 09:40:00 7.8 C 6.12 g/m*3 6.83 C 6.4 km/h
694 03-04-2020 09:45:00 8 C 6.2 g/m*3 8 C 4.8 km/h
695 03-04-2020 09:50:00 8.1 C 6.24 g/m*3 7.17 C 6.4 km/h
696 03-04-2020 09:55:00 8.2 C 6.2 g/m*3 7.29 C 6.4 km/h
697 03-04-2020 10:00:00 8.3 C 6.32 g/m*3 6.99 C 8.1 km/h
698 03-04-2020 10:05:00 8.5 C 6.4 g/m*3 7.22 C 8.1 km/h
699 03-04-2020 10:10:00 8.7 C 6.4 g/m*3 7.87 C 6.4 km/h
700 03-04-2020 10:15:00 8.8 C 6.44 g/m*3 7.58 C 8.1 km/h
Sensor: Nr:Datum:Temp:Abs-Feuchte:Windchill:Wind:
Aussen-T/F 701 03-04-2020 10:20:00 8.9 C 6.48 g/m*3 7.69 C 8.1 km/h
702 03-04-2020 10:25:00 9.1 C 6.48 g/m*3 7.93 C 8.1 km/h
703 03-04-2020 10:30:00 9.2 C 6.52 g/m*3 7.73 C 9.7 km/h
704 03-04-2020 10:35:00 9.2 C 6.52 g/m*3 7.46 C 11.3 km/h
705 03-04-2020 10:40:00 9.3 C 6.56 g/m*3 8.16 C 8.1 km/h
706 03-04-2020 10:45:00 9.4 C 6.6 g/m*3 7.97 C 9.7 km/h
707 03-04-2020 10:50:00 9.6 C 6.6 g/m*3 7.94 C 11.3 km/h
708 03-04-2020 10:55:00 9.8 C 6.68 g/m*3 7.94 C 12.9 km/h
709 03-04-2020 11:00:00 9.9 C 6.72 g/m*3 8.56 C 9.7 km/h
710 03-04-2020 11:05:00 10.3 C 6.8 g/m*3 9.04 C 9.7 km/h
711 03-04-2020 11:10:00 10.6 C 6.73 g/m*3 9.4 C 9.7 km/h
712 03-04-2020 11:15:00 10.8 C 6.82 g/m*3 9.64 C 9.7 km/h
713 03-04-2020 11:20:00 10.9 C 6.76 g/m*3 9.51 C 11.3 km/h
714 03-04-2020 11:25:00 10.9 C 6.66 g/m*3 9.51 C 11.3 km/h
715 03-04-2020 11:30:00 10.8 C 6.52 g/m*3 10.29 C 6.4 km/h
716 03-04-2020 11:35:00 10.9 C 6.47 g/m*3 10.04 C 8.1 km/h
717 03-04-2020 11:40:00 11.2 C 6.49 g/m*3 11.2 C 14.5 km/h
718 03-04-2020 11:45:00 11.3 C 6.43 g/m*3 11.3 C 14.5 km/h
719 03-04-2020 11:50:00 11.3 C 6.43 g/m*3 11.3 C 12.9 km/h
720 03-04-2020 11:55:00 11.3 C 6.43 g/m*3 11.3 C 16.1 km/h
721 03-04-2020 12:00:00 11.2 C 6.39 g/m*3 11.2 C 19.3 km/h
722 03-04-2020 12:05:00 11.2 C 6.49 g/m*3 11.2 C 11.3 km/h
723 03-04-2020 12:10:00 11.2 C 6.39 g/m*3 11.2 C 9.7 km/h
724 03-04-2020 12:15:00 11.2 C 6.39 g/m*3 11.2 C 9.7 km/h
725 03-04-2020 12:20:00 11.3 C 6.43 g/m*3 11.3 C 9.7 km/h
Sensor: Nr:Datum:Temp:Abs-Feuchte:Windchill:Wind:
Aussen-T/F 726 03-04-2020 12:25:00 11.5 C 6.3 g/m*3 11.5 C 12.9 km/h
727 03-04-2020 12:30:00 11.7 C 6.38 g/m*3 11.7 C 8.1 km/h
728 03-04-2020 12:35:00 11.6 C 6.13 g/m*3 11.6 C 12.9 km/h
729 03-04-2020 12:40:00 11.5 C 6.09 g/m*3 11.5 C 12.9 km/h
730 03-04-2020 12:45:00 11.3 C 6.22 g/m*3 11.3 C 12.9 km/h
731 03-04-2020 12:50:00 11.3 C 6.12 g/m*3 11.3 C 11.3 km/h
732 03-04-2020 12:55:00 11.2 C 6.18 g/m*3 11.2 C 11.3 km/h
733 03-04-2020 13:00:00 11.2 C 6.28 g/m*3 11.2 C 9.7 km/h
734 03-04-2020 13:05:00 11.3 C 6.43 g/m*3 11.3 C 11.3 km/h
735 03-04-2020 13:10:00 11.4 C 6.36 g/m*3 11.4 C 9.7 km/h
736 03-04-2020 13:15:00 11.5 C 6.3 g/m*3 11.5 C 12.9 km/h
737 03-04-2020 13:20:00 11.6 C 6.13 g/m*3 11.6 C 11.3 km/h
738 03-04-2020 13:25:00 11.7 C 6.17 g/m*3 11.7 C 11.3 km/h
739 03-04-2020 13:30:00 11.7 C 5.96 g/m*3 11.7 C 12.9 km/h
740 03-04-2020 13:35:00 11.6 C 6.03 g/m*3 11.6 C 12.9 km/h
741 03-04-2020 13:40:00 11.6 C 6.03 g/m*3 11.6 C 16.1 km/h
742 03-04-2020 13:45:00 11.7 C 6.28 g/m*3 11.7 C 8.1 km/h
743 03-04-2020 13:50:00 11.8 C 6.31 g/m*3 11.8 C 9.7 km/h
744 03-04-2020 13:55:00 11.8 C 6.1 g/m*3 11.8 C 11.3 km/h
745 03-04-2020 14:00:00 11.8 C 5.89 g/m*3 11.8 C 11.3 km/h
746 03-04-2020 14:05:00 11.8 C 5.89 g/m*3 11.8 C 12.9 km/h
747 03-04-2020 14:10:00 11.7 C 5.86 g/m*3 11.7 C 11.3 km/h
748 03-04-2020 14:15:00 11.7 C 5.86 g/m*3 11.7 C 12.9 km/h
749 03-04-2020 14:20:00 11.6 C 5.82 g/m*3 11.6 C 12.9 km/h
750 03-04-2020 14:25:00 11.6 C 5.92 g/m*3 11.6 C 8.1 km/h
Sensor: Nr:Datum:Temp:Abs-Feuchte:Windchill:Wind:
Aussen-T/F 751 03-04-2020 14:30:00 11.7 C 6.38 g/m*3 11.7 C 6.4 km/h
752 03-04-2020 14:35:00 11.6 C 6.44 g/m*3 11.6 C 8.1 km/h
753 03-04-2020 14:40:00 11.6 C 6.24 g/m*3 11.6 C 12.9 km/h
754 03-04-2020 14:45:00 11.6 C 6.13 g/m*3 11.6 C 9.7 km/h
755 03-04-2020 14:50:00 11.6 C 5.92 g/m*3 11.6 C 8.1 km/h
756 03-04-2020 14:55:00 11.7 C 5.86 g/m*3 11.7 C 12.9 km/h
757 03-04-2020 15:00:00 11.7 C 5.75 g/m*3 11.7 C 11.3 km/h
758 03-04-2020 15:05:00 11.8 C 5.79 g/m*3 11.8 C 12.9 km/h
759 03-04-2020 15:10:00 11.8 C 5.79 g/m*3 11.8 C 14.5 km/h
760 03-04-2020 15:15:00 11.7 C 5.75 g/m*3 11.7 C 12.9 km/h
761 03-04-2020 15:20:00 11.7 C 5.65 g/m*3 11.7 C 11.3 km/h
762 03-04-2020 15:25:00 11.7 C 5.86 g/m*3 11.7 C 9.7 km/h
763 03-04-2020 15:30:00 11.7 C 6.07 g/m*3 11.7 C 9.7 km/h
764 03-04-2020 15:35:00 11.7 C 6.07 g/m*3 11.7 C 8.1 km/h
765 03-04-2020 15:40:00 11.7 C 6.07 g/m*3 11.7 C 8.1 km/h
766 03-04-2020 15:45:00 11.8 C 6 g/m*3 11.8 C 11.3 km/h
767 03-04-2020 15:50:00 11.8 C 6.1 g/m*3 11.8 C 11.3 km/h
768 03-04-2020 15:55:00 11.9 C 5.72 g/m*3 11.9 C 11.3 km/h
769 03-04-2020 16:00:00 12.1 C 5.79 g/m*3 12.1 C 11.3 km/h
770 03-04-2020 16:05:00 12.2 C 5.61 g/m*3 12.2 C 11.3 km/h
771 03-04-2020 16:10:00 12.2 C 5.5 g/m*3 12.2 C 9.7 km/h
772 03-04-2020 16:15:00 12.3 C 5.43 g/m*3 12.3 C 11.3 km/h
773 03-04-2020 16:20:00 12.3 C 5.43 g/m*3 12.3 C 12.9 km/h
774 03-04-2020 16:25:00 12.2 C 5.4 g/m*3 12.2 C 14.5 km/h
775 03-04-2020 16:30:00 12.2 C 5.5 g/m*3 12.2 C 14.5 km/h
Sensor: Nr:Datum:Temp:Abs-Feuchte:Windchill:Wind:
Aussen-T/F 776 03-04-2020 16:35:00 12.3 C 5.32 g/m*3 12.3 C 12.9 km/h
777 03-04-2020 16:40:00 12.3 C 5.43 g/m*3 12.3 C 11.3 km/h
778 03-04-2020 16:45:00 12.3 C 5.32 g/m*3 12.3 C 16.1 km/h
779 03-04-2020 16:50:00 12.3 C 5.32 g/m*3 12.3 C 9.7 km/h
780 03-04-2020 16:55:00 12.3 C 5.21 g/m*3 12.3 C 17.7 km/h
781 03-04-2020 17:00:00 12.1 C 5.15 g/m*3 12.1 C 16.1 km/h
782 03-04-2020 17:05:00 12.1 C 5.36 g/m*3 12.1 C 11.3 km/h
783 03-04-2020 17:10:00 12.1 C 5.36 g/m*3 12.1 C 11.3 km/h
784 03-04-2020 17:15:00 12.1 C 5.25 g/m*3 12.1 C 14.5 km/h
785 03-04-2020 17:20:00 12.1 C 5.25 g/m*3 12.1 C 14.5 km/h
786 03-04-2020 17:25:00 12.2 C 5.29 g/m*3 12.2 C 9.7 km/h
787 03-04-2020 17:30:00 12.2 C 5.4 g/m*3 12.2 C 9.7 km/h
788 03-04-2020 17:35:00 12.2 C 5.29 g/m*3 12.2 C 16.1 km/h
789 03-04-2020 17:40:00 12.3 C 5.21 g/m*3 12.3 C 9.7 km/h
790 03-04-2020 17:45:00 12.2 C 5.29 g/m*3 12.2 C 11.3 km/h
791 03-04-2020 17:50:00 12.1 C 5.36 g/m*3 12.1 C 14.5 km/h
792 03-04-2020 17:55:00 11.9 C 5.3 g/m*3 11.9 C 12.9 km/h
793 03-04-2020 18:00:00 11.8 C 5.26 g/m*3 11.8 C 14.5 km/h
794 03-04-2020 18:05:00 11.7 C 5.33 g/m*3 11.7 C 16.1 km/h
795 03-04-2020 18:10:00 11.7 C 5.33 g/m*3 11.7 C 8.1 km/h
796 03-04-2020 18:15:00 11.7 C 5.44 g/m*3 11.7 C 9.7 km/h
797 03-04-2020 18:20:00 11.7 C 5.44 g/m*3 11.7 C 12.9 km/h
798 03-04-2020 18:25:00 11.6 C 5.51 g/m*3 11.6 C 16.1 km/h
799 03-04-2020 18:30:00 11.5 C 5.37 g/m*3 11.5 C 9.7 km/h
800 03-04-2020 18:35:00 11.4 C 5.44 g/m*3 11.4 C 9.7 km/h
Sensor: Nr:Datum:Temp:Abs-Feuchte:Windchill:Wind:
Aussen-T/F 801 03-04-2020 18:40:00 11.4 C 5.34 g/m*3 11.4 C 8.1 km/h
802 03-04-2020 18:45:00 11.3 C 5.41 g/m*3 11.3 C 9.7 km/h
803 03-04-2020 18:50:00 11.2 C 5.47 g/m*3 11.2 C 12.9 km/h
804 03-04-2020 18:55:00 11.2 C 5.47 g/m*3 11.2 C 11.3 km/h
805 03-04-2020 19:00:00 11.2 C 5.57 g/m*3 11.2 C 9.7 km/h
806 03-04-2020 19:05:00 11.1 C 5.64 g/m*3 11.1 C 6.4 km/h
807 03-04-2020 19:10:00 11 C 5.61 g/m*3 9.88 C 9.7 km/h
808 03-04-2020 19:15:00 10.9 C 5.57 g/m*3 9.51 C 11.3 km/h
809 03-04-2020 19:20:00 10.8 C 5.63 g/m*3 9.38 C 11.3 km/h
810 03-04-2020 19:25:00 10.8 C 5.44 g/m*3 9.93 C 8.1 km/h
811 03-04-2020 19:30:00 10.7 C 5.4 g/m*3 9.52 C 9.7 km/h
812 03-04-2020 19:35:00 10.6 C 5.27 g/m*3 8.92 C 12.9 km/h
813 03-04-2020 19:40:00 10.6 C 5.37 g/m*3 9.4 C 9.7 km/h
814 03-04-2020 19:45:00 10.4 C 5.3 g/m*3 9.16 C 9.7 km/h
815 03-04-2020 19:50:00 10.4 C 5.3 g/m*3 9.16 C 9.7 km/h
816 03-04-2020 19:55:00 10.3 C 5.36 g/m*3 9.34 C 8.1 km/h
817 03-04-2020 20:00:00 10.3 C 5.36 g/m*3 9.04 C 9.7 km/h
818 03-04-2020 20:05:00 10.2 C 5.42 g/m*3 10.2 C 3.2 km/h
819 03-04-2020 20:10:00 10.1 C 5.39 g/m*3 9.1 C 8.1 km/h
820 03-04-2020 20:15:00 9.9 C 5.32 g/m*3 9.25 C 6.4 km/h
821 03-04-2020 20:20:00 9.9 C 5.32 g/m*3 9.9 C 4.8 km/h
822 03-04-2020 20:25:00 9.8 C 5.2 g/m*3 7.94 C 12.9 km/h
823 03-04-2020 20:30:00 9.8 C 5.1 g/m*3 7.94 C 12.9 km/h
824 03-04-2020 20:35:00 9.8 C 5.2 g/m*3 9.14 C 6.4 km/h
825 03-04-2020 20:40:00 9.8 C 5.2 g/m*3 9.8 C 4.8 km/h
Sensor: Nr:Datum:Temp:Abs-Feuchte:Windchill:Wind:
Aussen-T/F 826 03-04-2020 20:45:00 9.7 C 5.16 g/m*3 9.7 C 4.8 km/h
827 03-04-2020 20:50:00 9.7 C 4.98 g/m*3 9.7 C 3.2 km/h
828 03-04-2020 20:55:00 9.6 C 5.13 g/m*3 9.6 C 4.8 km/h
829 03-04-2020 21:00:00 9.6 C 5.04 g/m*3 8.91 C 6.4 km/h
830 03-04-2020 21:05:00 9.5 C 4.82 g/m*3 7.82 C 11.3 km/h
831 03-04-2020 21:10:00 9.5 C 4.82 g/m*3 8.4 C 8.1 km/h
832 03-04-2020 21:15:00 9.5 C 4.82 g/m*3 9.5 C 4.8 km/h
833 03-04-2020 21:20:00 9.4 C 4.88 g/m*3 8.68 C 6.4 km/h
834 03-04-2020 21:25:00 9.4 C 4.97 g/m*3 9.4 C 0 km/h
835 03-04-2020 21:30:00 9.2 C 5.09 g/m*3 9.2 C 1.6 km/h
836 03-04-2020 21:35:00 9.1 C 4.88 g/m*3 8.33 C 6.4 km/h
837 03-04-2020 21:40:00 9 C 4.94 g/m*3 9 C 3.2 km/h
838 03-04-2020 21:45:00 8.9 C 5.08 g/m*3 8.9 C 3.2 km/h
839 03-04-2020 21:50:00 8.8 C 5.05 g/m*3 8.8 C 3.2 km/h
840 03-04-2020 21:55:00 8.8 C 4.96 g/m*3 8.8 C 3.2 km/h
841 03-04-2020 22:00:00 8.7 C 5.02 g/m*3 8.7 C 4.8 km/h
842 03-04-2020 22:05:00 8.6 C 4.9 g/m*3 8.6 C 1.6 km/h
843 03-04-2020 22:10:00 8.6 C 5.07 g/m*3 8.6 C 3.2 km/h
844 03-04-2020 22:15:00 8.5 C 5.04 g/m*3 8.5 C 3.2 km/h
845 03-04-2020 22:20:00 8.4 C 5.09 g/m*3 8.4 C 4.8 km/h
846 03-04-2020 22:25:00 8.2 C 5.11 g/m*3 8.2 C 4.8 km/h
847 03-04-2020 22:30:00 7.9 C 5.01 g/m*3 7.9 C 3.2 km/h
848 03-04-2020 22:35:00 7.7 C 5.03 g/m*3 7.7 C 4.8 km/h
849 03-04-2020 22:40:00 7.5 C 5.04 g/m*3 7.5 C 3.2 km/h
850 03-04-2020 22:45:00 7.3 C 5.06 g/m*3 7.3 C 4.8 km/h
Sensor: Nr:Datum:Temp:Abs-Feuchte:Windchill:Wind:
Aussen-T/F 851 03-04-2020 22:50:00 7.1 C 4.99 g/m*3 7.1 C 4.8 km/h
852 03-04-2020 22:55:00 7.1 C 4.91 g/m*3 7.1 C 4.8 km/h
853 03-04-2020 23:00:00 7 C 4.88 g/m*3 7 C 4.8 km/h
854 03-04-2020 23:05:00 7 C 4.88 g/m*3 7 C 3.2 km/h
855 03-04-2020 23:10:00 7.2 C 4.87 g/m*3 7.2 C 4.8 km/h
856 03-04-2020 23:15:00 7.4 C 4.85 g/m*3 7.4 C 4.8 km/h
857 03-04-2020 23:20:00 7.6 C 4.99 g/m*3 7.6 C 0 km/h
858 03-04-2020 23:25:00 7.4 C 4.93 g/m*3 7.4 C 1.6 km/h
859 03-04-2020 23:30:00 7 C 4.88 g/m*3 7 C 0 km/h
860 03-04-2020 23:35:00 6.6 C 4.91 g/m*3 6.6 C 4.8 km/h
861 03-04-2020 23:40:00 6.4 C 4.84 g/m*3 6.4 C 1.6 km/h
862 03-04-2020 23:45:00 6.2 C 4.85 g/m*3 6.2 C 0 km/h
863 03-04-2020 23:50:00 6 C 4.86 g/m*3 6 C 3.2 km/h
864 03-04-2020 23:55:00 5.8 C 4.8 g/m*3 5.8 C 3.2 km/h
865 04-04-2020 00:00:00 5.7 C 4.84 g/m*3 5.7 C 3.2 km/h
866 04-04-2020 00:05:00 5.7 C 4.84 g/m*3 5.7 C 3.2 km/h
867 04-04-2020 00:10:00 5.7 C 4.84 g/m*3 5.7 C 1.6 km/h
868 04-04-2020 00:15:00 5.7 C 4.77 g/m*3 5.7 C 0 km/h
869 04-04-2020 00:20:00 5.7 C 4.77 g/m*3 5.7 C 4.8 km/h
870 04-04-2020 00:25:00 5.8 C 4.73 g/m*3 5.8 C 4.8 km/h
871 04-04-2020 00:30:00 5.8 C 4.73 g/m*3 5.8 C 4.8 km/h
872 04-04-2020 00:35:00 5.8 C 4.73 g/m*3 5.8 C 3.2 km/h
873 04-04-2020 00:40:00 5.7 C 4.7 g/m*3 5.7 C 0 km/h
874 04-04-2020 00:45:00 5.6 C 4.74 g/m*3 5.6 C 3.2 km/h
875 04-04-2020 00:50:00 5.4 C 4.74 g/m*3 5.4 C 4.8 km/h
Sensor: Nr:Datum:Temp:Abs-Feuchte:Windchill:Wind:
Aussen-T/F 876 04-04-2020 00:55:00 5.2 C 4.68 g/m*3 5.2 C 1.6 km/h
877 04-04-2020 01:00:00 5.1 C 4.72 g/m*3 3.71 C 6.4 km/h
878 04-04-2020 01:05:00 5.1 C 4.72 g/m*3 3.71 C 6.4 km/h
879 04-04-2020 01:10:00 5.1 C 4.72 g/m*3 5.1 C 3.2 km/h
880 04-04-2020 01:15:00 5 C 4.69 g/m*3 5 C 3.2 km/h
881 04-04-2020 01:20:00 4.9 C 4.66 g/m*3 4.9 C 1.6 km/h
882 04-04-2020 01:25:00 4.9 C 4.73 g/m*3 4.9 C 1.6 km/h
883 04-04-2020 01:30:00 4.8 C 4.76 g/m*3 4.8 C 4.8 km/h
884 04-04-2020 01:35:00 4.7 C 4.8 g/m*3 4.7 C 3.2 km/h
885 04-04-2020 01:40:00 4.5 C 4.8 g/m*3 4.5 C 3.2 km/h
886 04-04-2020 01:45:00 4.3 C 4.74 g/m*3 4.3 C 3.2 km/h
887 04-04-2020 01:50:00 4.1 C 4.74 g/m*3 4.1 C 0 km/h
888 04-04-2020 01:55:00 3.8 C 4.71 g/m*3 3.8 C 1.6 km/h
889 04-04-2020 02:00:00 3.6 C 4.7 g/m*3 3.6 C 0 km/h
890 04-04-2020 02:05:00 3.3 C 4.67 g/m*3 3.3 C 0 km/h
891 04-04-2020 02:10:00 3 C 4.64 g/m*3 3 C 0 km/h
892 04-04-2020 02:15:00 2.8 C 4.58 g/m*3 2.8 C 0 km/h
893 04-04-2020 02:20:00 2.6 C 4.57 g/m*3 2.6 C 0 km/h
894 04-04-2020 02:25:00 2.5 C 4.6 g/m*3 2.5 C 0 km/h
895 04-04-2020 02:30:00 2.3 C 4.54 g/m*3 2.3 C 0 km/h
896 04-04-2020 02:35:00 2.2 C 4.56 g/m*3 2.2 C 1.6 km/h
897 04-04-2020 02:40:00 2.1 C 4.53 g/m*3 2.1 C 0 km/h
898 04-04-2020 02:45:00 1.9 C 4.53 g/m*3 1.9 C 0 km/h
899 04-04-2020 02:50:00 1.9 C 4.58 g/m*3 1.9 C 0 km/h
900 04-04-2020 02:55:00 1.9 C 4.58 g/m*3 1.9 C 0 km/h
Sensor: Nr:Datum:Temp:Abs-Feuchte:Windchill:Wind:
Aussen-T/F 901 04-04-2020 03:00:00 1.8 C 4.55 g/m*3 1.8 C 0 km/h
902 04-04-2020 03:05:00 1.7 C 4.52 g/m*3 1.7 C 0 km/h
903 04-04-2020 03:10:00 1.7 C 4.52 g/m*3 1.7 C 0 km/h
904 04-04-2020 03:15:00 1.5 C 4.46 g/m*3 1.5 C 0 km/h
905 04-04-2020 03:20:00 1.4 C 4.48 g/m*3 1.4 C 0 km/h
906 04-04-2020 03:25:00 1.3 C 4.5 g/m*3 1.3 C 3.2 km/h
907 04-04-2020 03:30:00 1.3 C 4.5 g/m*3 1.3 C 3.2 km/h
908 04-04-2020 03:35:00 1.4 C 4.59 g/m*3 1.4 C 3.2 km/h
909 04-04-2020 03:40:00 1.4 C 4.59 g/m*3 1.4 C 0 km/h
910 04-04-2020 03:45:00 1.3 C 4.5 g/m*3 1.3 C 0 km/h
911 04-04-2020 03:50:00 1.2 C 4.47 g/m*3 1.2 C 0 km/h
912 04-04-2020 03:55:00 1 C 4.41 g/m*3 1 C 0 km/h
913 04-04-2020 04:00:00 0.9 C 4.38 g/m*3 0.9 C 0 km/h
914 04-04-2020 04:05:00 0.8 C 4.4 g/m*3 0.8 C 0 km/h
915 04-04-2020 04:10:00 0.7 C 4.37 g/m*3 0.7 C 0 km/h
916 04-04-2020 04:15:00 0.6 C 4.34 g/m*3 0.6 C 0 km/h
917 04-04-2020 04:20:00 0.5 C 4.36 g/m*3 0.5 C 0 km/h
918 04-04-2020 04:25:00 0.4 C 4.33 g/m*3 0.4 C 0 km/h
919 04-04-2020 04:30:00 0.4 C 4.33 g/m*3 0.4 C 0 km/h
920 04-04-2020 04:35:00 0.3 C 4.3 g/m*3 0.3 C 1.6 km/h
921 04-04-2020 04:40:00 0.3 C 4.35 g/m*3 0.3 C 0 km/h
922 04-04-2020 04:45:00 0.3 C 4.35 g/m*3 0.3 C 0 km/h
923 04-04-2020 04:50:00 0.2 C 4.27 g/m*3 0.2 C 0 km/h
924 04-04-2020 04:55:00 0.2 C 4.32 g/m*3 0.2 C 0 km/h
925 04-04-2020 05:00:00 0.2 C 4.32 g/m*3 0.2 C 1.6 km/h
Sensor: Nr:Datum:Temp:Abs-Feuchte:Windchill:Wind:
Aussen-T/F 926 04-04-2020 05:05:00 0.2 C 4.32 g/m*3 0.2 C 0 km/h
927 04-04-2020 05:10:00 0.1 C 4.29 g/m*3 0.1 C 0 km/h
928 04-04-2020 05:15:00 0.1 C 4.29 g/m*3 0.1 C 0 km/h
929 04-04-2020 05:20:00 -0.1 C 4.23 g/m*3 -0.1 C 0 km/h
930 04-04-2020 05:25:00 -0.1 C 4.28 g/m*3 -0.1 C 0 km/h
931 04-04-2020 05:30:00 -0.1 C 4.28 g/m*3 -0.1 C 0 km/h
932 04-04-2020 05:35:00 -0.1 C 4.28 g/m*3 -0.1 C 0 km/h
933 04-04-2020 05:40:00 -0.2 C 4.25 g/m*3 -0.2 C 1.6 km/h
934 04-04-2020 05:45:00 -0.2 C 4.25 g/m*3 -0.2 C 0 km/h
935 04-04-2020 05:50:00 -0.2 C 4.25 g/m*3 -0.2 C 0 km/h
936 04-04-2020 05:55:00 -0.2 C 4.25 g/m*3 -0.2 C 0 km/h
937 04-04-2020 06:00:00 -0.2 C 4.25 g/m*3 -0.2 C 0 km/h
938 04-04-2020 06:05:00 -0.3 C 4.22 g/m*3 -0.3 C 0 km/h
939 04-04-2020 06:10:00 -0.4 C 4.19 g/m*3 -0.4 C 0 km/h
940 04-04-2020 06:15:00 -0.4 C 4.19 g/m*3 -0.4 C 0 km/h
941 04-04-2020 06:20:00 -0.4 C 4.24 g/m*3 -0.4 C 0 km/h
942 04-04-2020 06:25:00 -0.5 C 4.17 g/m*3 -0.5 C 0 km/h
943 04-04-2020 06:30:00 -0.4 C 4.24 g/m*3 -0.4 C 0 km/h
944 04-04-2020 06:35:00 -0.6 C 4.14 g/m*3 -0.6 C 3.2 km/h
945 04-04-2020 06:40:00 -0.4 C 4.24 g/m*3 -2.64 C 6.4 km/h
946 04-04-2020 06:45:00 -0.4 C 4.24 g/m*3 -0.4 C 0 km/h
947 04-04-2020 06:50:00 -0.4 C 4.24 g/m*3 -0.4 C 0 km/h
948 04-04-2020 06:55:00 -0.6 C 4.18 g/m*3 -0.6 C 0 km/h
949 04-04-2020 07:00:00 -0.6 C 4.18 g/m*3 -0.6 C 0 km/h
950 04-04-2020 07:05:00 -0.7 C 4.15 g/m*3 -0.7 C 0 km/h
Sensor: Nr:Datum:Temp:Abs-Feuchte:Windchill:Wind:
Aussen-T/F 951 04-04-2020 07:10:00 -0.7 C 4.15 g/m*3 -0.7 C 0 km/h
952 04-04-2020 07:15:00 -0.7 C 4.15 g/m*3 -0.7 C 0 km/h
953 04-04-2020 07:20:00 -0.8 C 4.13 g/m*3 -0.8 C 0 km/h
954 04-04-2020 07:25:00 -0.8 C 4.17 g/m*3 -0.8 C 1.6 km/h
955 04-04-2020 07:30:00 -0.8 C 4.17 g/m*3 -0.8 C 0 km/h
956 04-04-2020 07:35:00 -0.8 C 4.17 g/m*3 -0.8 C 0 km/h
957 04-04-2020 07:40:00 -0.8 C 4.13 g/m*3 -0.8 C 0 km/h
958 04-04-2020 07:45:00 -0.8 C 4.13 g/m*3 -0.8 C 0 km/h
959 04-04-2020 07:50:00 -0.8 C 4.17 g/m*3 -0.8 C 0 km/h
960 04-04-2020 07:55:00 -0.9 C 4.14 g/m*3 -0.9 C 0 km/h
961 04-04-2020 08:00:00 -0.9 C 4.14 g/m*3 -0.9 C 1.6 km/h
962 04-04-2020 08:05:00 -0.9 C 4.14 g/m*3 -0.9 C 0 km/h
963 04-04-2020 08:10:00 -0.8 C 4.17 g/m*3 -0.8 C 0 km/h
964 04-04-2020 08:15:00 -0.8 C 4.22 g/m*3 -0.8 C 0 km/h
965 04-04-2020 08:20:00 -0.7 C 4.25 g/m*3 -0.7 C 0 km/h
966 04-04-2020 08:25:00 -0.6 C 4.28 g/m*3 -0.6 C 0 km/h
967 04-04-2020 08:30:00 -0.4 C 4.34 g/m*3 -0.4 C 0 km/h
968 04-04-2020 08:35:00 -0.3 C 4.37 g/m*3 -0.3 C 0 km/h
969 04-04-2020 08:40:00 -0.3 C 4.37 g/m*3 -0.3 C 0 km/h
970 04-04-2020 08:45:00 -0.2 C 4.4 g/m*3 -0.2 C 0 km/h
971 04-04-2020 08:50:00 -0.1 C 4.43 g/m*3 -0.1 C 0 km/h
972 04-04-2020 08:55:00 -0.1 C 4.43 g/m*3 -0.1 C 0 km/h
973 04-04-2020 09:00:00 0 C 4.46 g/m*3 0 C 0 km/h
974 04-04-2020 09:05:00 0.1 C 4.49 g/m*3 0.1 C 1.6 km/h
975 04-04-2020 09:10:00 0.2 C 4.47 g/m*3 0.2 C 0 km/h
Sensor: Nr:Datum:Temp:Abs-Feuchte:Windchill:Wind:
Aussen-T/F 976 04-04-2020 09:15:00 0.3 C 4.5 g/m*3 0.3 C 0 km/h
977 04-04-2020 09:20:00 0.3 C 4.5 g/m*3 0.3 C 0 km/h
978 04-04-2020 09:25:00 0.4 C 4.53 g/m*3 0.4 C 0 km/h
979 04-04-2020 09:30:00 0.5 C 4.56 g/m*3 0.5 C 3.2 km/h
980 04-04-2020 09:35:00 0.7 C 4.63 g/m*3 0.7 C 0 km/h
981 04-04-2020 09:40:00 0.8 C 4.66 g/m*3 0.8 C 1.6 km/h
982 04-04-2020 09:45:00 1 C 4.72 g/m*3 1 C 3.2 km/h
983 04-04-2020 09:50:00 1.1 C 4.76 g/m*3 1.1 C 0 km/h
984 04-04-2020 09:55:00 1.3 C 4.82 g/m*3 1.3 C 0 km/h
985 04-04-2020 10:00:00 1.5 C 4.89 g/m*3 1.5 C 0 km/h
986 04-04-2020 10:05:00 1.8 C 4.99 g/m*3 1.8 C 0 km/h
987 04-04-2020 10:10:00 2 C 5 g/m*3 2 C 0 km/h
988 04-04-2020 10:15:00 2.2 C 5.07 g/m*3 2.2 C 0 km/h
989 04-04-2020 10:20:00 2.3 C 5.05 g/m*3 2.3 C 0 km/h
990 04-04-2020 10:25:00 2.6 C 5.15 g/m*3 2.6 C 0 km/h
991 04-04-2020 10:30:00 2.7 C 5.13 g/m*3 2.7 C 0 km/h
992 04-04-2020 10:35:00 3 C 5.23 g/m*3 3 C 0 km/h
993 04-04-2020 10:40:00 3.3 C 5.34 g/m*3 3.3 C 0 km/h
994 04-04-2020 10:45:00 3.7 C 5.42 g/m*3 3.7 C 0 km/h
995 04-04-2020 10:50:00 4 C 5.47 g/m*3 4 C 0 km/h
996 04-04-2020 10:55:00 4.3 C 5.45 g/m*3 4.3 C 0 km/h
997 04-04-2020 11:00:00 4.8 C 5.57 g/m*3 4.8 C 1.6 km/h
998 04-04-2020 11:05:00 5.2 C 5.65 g/m*3 5.2 C 0 km/h
999 04-04-2020 11:10:00 5.7 C 5.69 g/m*3 5.7 C 0 km/h
1000 04-04-2020 11:15:00 6.1 C 5.7 g/m*3 6.1 C 0 km/h
Sensor: Nr:Datum:Temp:Abs-Feuchte:Windchill:Wind:
Aussen-T/F 1001 04-04-2020 11:20:00 6.5 C 5.7 g/m*3 6.5 C 1.6 km/h
1002 04-04-2020 11:25:00 6.8 C 5.81 g/m*3 6.8 C 1.6 km/h
1003 04-04-2020 11:30:00 7.2 C 5.73 g/m*3 7.2 C 4.8 km/h
1004 04-04-2020 11:35:00 7.4 C 5.49 g/m*3 7.4 C 0 km/h
1005 04-04-2020 11:40:00 7.8 C 5.55 g/m*3 7.8 C 3.2 km/h
1006 04-04-2020 11:45:00 8.2 C 5.61 g/m*3 8.2 C 3.2 km/h
1007 04-04-2020 11:50:00 8.5 C 5.64 g/m*3 8.5 C 3.2 km/h
1008 04-04-2020 11:55:00 8.8 C 5.48 g/m*3 6.97 C 11.3 km/h
1009 04-04-2020 12:00:00 9 C 5.55 g/m*3 9 C 3.2 km/h
1010 04-04-2020 12:05:00 9.2 C 5.45 g/m*3 9.2 C 4.8 km/h
1011 04-04-2020 12:10:00 9.3 C 5.48 g/m*3 9.3 C 3.2 km/h
1012 04-04-2020 12:15:00 9.6 C 5.5 g/m*3 9.6 C 4.8 km/h
1013 04-04-2020 12:20:00 9.9 C 5.51 g/m*3 8.87 C 8.1 km/h
1014 04-04-2020 12:25:00 10.1 C 5.39 g/m*3 9.48 C 6.4 km/h
1015 04-04-2020 12:30:00 10.3 C 5.27 g/m*3 10.3 C 3.2 km/h
1016 04-04-2020 12:35:00 10.3 C 5.17 g/m*3 9.04 C 9.7 km/h
1017 04-04-2020 12:40:00 10.3 C 5.27 g/m*3 9.04 C 9.7 km/h
1018 04-04-2020 12:45:00 10.3 C 5.27 g/m*3 8.78 C 11.3 km/h
1019 04-04-2020 12:50:00 10.4 C 5.2 g/m*3 9.16 C 9.7 km/h
1020 04-04-2020 12:55:00 10.6 C 5.37 g/m*3 9.4 C 9.7 km/h
1021 04-04-2020 13:00:00 10.7 C 5.21 g/m*3 9.26 C 11.3 km/h
1022 04-04-2020 13:05:00 10.8 C 5.24 g/m*3 9.93 C 8.1 km/h
1023 04-04-2020 13:10:00 10.9 C 5.37 g/m*3 10.41 C 6.4 km/h
1024 04-04-2020 13:15:00 11.2 C 5.47 g/m*3 11.2 C 8.1 km/h
1025 04-04-2020 13:20:00 11.3 C 5.3 g/m*3 11.3 C 9.7 km/h
Sensor: Nr:Datum:Temp:Abs-Feuchte:Windchill:Wind:
Aussen-T/F 1026 04-04-2020 13:25:00 11.4 C 5.44 g/m*3 11.4 C 9.7 km/h
1027 04-04-2020 13:30:00 11.5 C 5.27 g/m*3 11.5 C 12.9 km/h
1028 04-04-2020 13:35:00 11.6 C 5.3 g/m*3 11.6 C 9.7 km/h
1029 04-04-2020 13:40:00 11.7 C 5.44 g/m*3 11.7 C 9.7 km/h
1030 04-04-2020 13:45:00 11.8 C 5.26 g/m*3 11.8 C 9.7 km/h
1031 04-04-2020 13:50:00 12 C 5.44 g/m*3 12 C 11.3 km/h
1032 04-04-2020 13:55:00 12.2 C 5.29 g/m*3 12.2 C 17.7 km/h
1033 04-04-2020 14:00:00 12.1 C 5.15 g/m*3 12.1 C 16.1 km/h
1034 04-04-2020 14:05:00 12.1 C 5.25 g/m*3 12.1 C 11.3 km/h
1035 04-04-2020 14:10:00 12.3 C 5.1 g/m*3 12.3 C 12.9 km/h
1036 04-04-2020 14:15:00 12.6 C 5.31 g/m*3 12.6 C 12.9 km/h
1037 04-04-2020 14:20:00 12.7 C 5.23 g/m*3 12.7 C 19.3 km/h
1038 04-04-2020 14:25:00 12.8 C 5.26 g/m*3 12.8 C 14.5 km/h
1039 04-04-2020 14:30:00 12.9 C 5.3 g/m*3 12.9 C 12.9 km/h
1040 04-04-2020 14:35:00 13 C 5.33 g/m*3 13 C 12.9 km/h
1041 04-04-2020 14:40:00 13.1 C 5.25 g/m*3 13.1 C 12.9 km/h
1042 04-04-2020 14:45:00 13.2 C 5.4 g/m*3 13.2 C 12.9 km/h
1043 04-04-2020 14:50:00 13.2 C 5.28 g/m*3 13.2 C 14.5 km/h
1044 04-04-2020 14:55:00 13.2 C 5.4 g/m*3 13.2 C 8.1 km/h
1045 04-04-2020 15:00:00 13.3 C 5.2 g/m*3 13.3 C 16.1 km/h
1046 04-04-2020 15:05:00 13.2 C 5.4 g/m*3 13.2 C 8.1 km/h
1047 04-04-2020 15:10:00 13.3 C 5.31 g/m*3 13.3 C 12.9 km/h
1048 04-04-2020 15:15:00 13.3 C 5.2 g/m*3 13.3 C 12.9 km/h
1049 04-04-2020 15:20:00 13.3 C 5.2 g/m*3 13.3 C 12.9 km/h
1050 04-04-2020 15:25:00 13.3 C 5.31 g/m*3 13.3 C 12.9 km/h
Sensor: Nr:Datum:Temp:Abs-Feuchte:Windchill:Wind:
Aussen-T/F 1051 04-04-2020 15:30:00 13.6 C 5.41 g/m*3 13.6 C 11.3 km/h
1052 04-04-2020 15:35:00 13.7 C 5.45 g/m*3 13.7 C 9.7 km/h
1053 04-04-2020 15:40:00 13.8 C 5.36 g/m*3 13.8 C 6.4 km/h
1054 04-04-2020 15:45:00 13.9 C 5.39 g/m*3 13.9 C 14.5 km/h
1055 04-04-2020 15:50:00 14 C 5.31 g/m*3 14 C 16.1 km/h
1056 04-04-2020 15:55:00 14 C 5.31 g/m*3 14 C 14.5 km/h
1057 04-04-2020 16:00:00 14.2 C 5.37 g/m*3 14.2 C 12.9 km/h
1058 04-04-2020 16:05:00 14.4 C 5.32 g/m*3 14.4 C 14.5 km/h
1059 04-04-2020 16:10:00 14.4 C 5.32 g/m*3 14.4 C 12.9 km/h
1060 04-04-2020 16:15:00 14.7 C 5.41 g/m*3 14.7 C 6.4 km/h
1061 04-04-2020 16:20:00 14.8 C 5.32 g/m*3 14.8 C 11.3 km/h
1062 04-04-2020 16:25:00 14.7 C 5.29 g/m*3 14.7 C 12.9 km/h
1063 04-04-2020 16:30:00 14.7 C 5.41 g/m*3 14.7 C 11.3 km/h
1064 04-04-2020 16:35:00 14.9 C 5.48 g/m*3 14.9 C 8.1 km/h
1065 04-04-2020 16:40:00 15.2 C 5.58 g/m*3 15.2 C 8.1 km/h
1066 04-04-2020 16:45:00 15.3 C 5.48 g/m*3 15.3 C 9.7 km/h
1067 04-04-2020 16:50:00 15.4 C 5.52 g/m*3 15.4 C 9.7 km/h
1068 04-04-2020 16:55:00 15.6 C 5.45 g/m*3 15.6 C 8.1 km/h
1069 04-04-2020 17:00:00 15.7 C 5.62 g/m*3 15.7 C 9.7 km/h
1070 04-04-2020 17:05:00 15.9 C 5.69 g/m*3 15.9 C 8.1 km/h
1071 04-04-2020 17:10:00 16.1 C 5.48 g/m*3 16.1 C 8.1 km/h
1072 04-04-2020 17:15:00 16.1 C 5.62 g/m*3 16.1 C 9.7 km/h
1073 04-04-2020 17:20:00 15.9 C 5.55 g/m*3 15.9 C 9.7 km/h
1074 04-04-2020 17:25:00 15.9 C 5.55 g/m*3 15.9 C 12.9 km/h
1075 04-04-2020 17:30:00 15.8 C 5.65 g/m*3 15.8 C 8.1 km/h
Sensor: Nr:Datum:Temp:Abs-Feuchte:Windchill:Wind:
Aussen-T/F 1076 04-04-2020 17:35:00 15.8 C 5.52 g/m*3 15.8 C 11.3 km/h
1077 04-04-2020 17:40:00 15.7 C 5.75 g/m*3 15.7 C 8.1 km/h
1078 04-04-2020 17:45:00 15.9 C 5.82 g/m*3 15.9 C 8.1 km/h
1079 04-04-2020 17:50:00 16 C 5.72 g/m*3 16 C 11.3 km/h
1080 04-04-2020 17:55:00 16.1 C 5.76 g/m*3 16.1 C 6.4 km/h
1081 04-04-2020 18:00:00 16.3 C 6.1 g/m*3 16.3 C 6.4 km/h
1082 04-04-2020 18:05:00 16.5 C 5.76 g/m*3 16.5 C 11.3 km/h
1083 04-04-2020 18:10:00 16.5 C 6.04 g/m*3 16.5 C 8.1 km/h
1084 04-04-2020 18:15:00 16.5 C 5.9 g/m*3 16.5 C 9.7 km/h
1085 04-04-2020 18:20:00 16.4 C 5.86 g/m*3 16.4 C 16.1 km/h
1086 04-04-2020 18:25:00 16.3 C 5.97 g/m*3 16.3 C 8.1 km/h
1087 04-04-2020 18:30:00 16.1 C 5.89 g/m*3 16.1 C 12.9 km/h
1088 04-04-2020 18:35:00 16.1 C 6.03 g/m*3 16.1 C 9.7 km/h
1089 04-04-2020 18:40:00 16.2 C 6.07 g/m*3 16.2 C 6.4 km/h
1090 04-04-2020 18:45:00 16.3 C 5.97 g/m*3 16.3 C 8.1 km/h
1091 04-04-2020 18:50:00 16.1 C 6.03 g/m*3 16.1 C 11.3 km/h
1092 04-04-2020 18:55:00 16 C 5.99 g/m*3 16 C 6.4 km/h
1093 04-04-2020 19:00:00 16 C 6.13 g/m*3 16 C 8.1 km/h
1094 04-04-2020 19:05:00 16 C 5.99 g/m*3 16 C 6.4 km/h
1095 04-04-2020 19:10:00 15.9 C 5.96 g/m*3 15.9 C 9.7 km/h
1096 04-04-2020 19:15:00 15.8 C 5.92 g/m*3 15.8 C 6.4 km/h
1097 04-04-2020 19:20:00 15.6 C 5.98 g/m*3 15.6 C 6.4 km/h
1098 04-04-2020 19:25:00 15.4 C 6.31 g/m*3 15.4 C 1.6 km/h
1099 04-04-2020 19:30:00 15.3 C 6.01 g/m*3 15.3 C 3.2 km/h
1100 04-04-2020 19:35:00 15.1 C 6.32 g/m*3 15.1 C 0 km/h
Sensor: Nr:Datum:Temp:Abs-Feuchte:Windchill:Wind:
Aussen-T/F 1101 04-04-2020 19:40:00 14.9 C 6.5 g/m*3 14.9 C 3.2 km/h
1102 04-04-2020 19:45:00 14.4 C 6.43 g/m*3 14.4 C 3.2 km/h
1103 04-04-2020 19:50:00 13.9 C 6.35 g/m*3 13.9 C 4.8 km/h
1104 04-04-2020 19:55:00 13.2 C 6.2 g/m*3 13.2 C 4.8 km/h
1105 04-04-2020 20:00:00 12.6 C 6.2 g/m*3 12.6 C 6.4 km/h
1106 04-04-2020 20:05:00 12.1 C 6.11 g/m*3 12.1 C 6.4 km/h
1107 04-04-2020 20:10:00 11.7 C 6.07 g/m*3 11.7 C 4.8 km/h
1108 04-04-2020 20:15:00 11.3 C 6.02 g/m*3 11.3 C 6.4 km/h
1109 04-04-2020 20:20:00 10.9 C 6.07 g/m*3 10.41 C 6.4 km/h
1110 04-04-2020 20:25:00 10.6 C 6.05 g/m*3 10.6 C 4.8 km/h
1111 04-04-2020 20:30:00 10.3 C 6.03 g/m*3 9.72 C 6.4 km/h
1112 04-04-2020 20:35:00 9.9 C 5.88 g/m*3 9.25 C 6.4 km/h
1113 04-04-2020 20:40:00 9.7 C 5.81 g/m*3 9.02 C 6.4 km/h
1114 04-04-2020 20:45:00 9.4 C 5.7 g/m*3 9.4 C 4.8 km/h
1115 04-04-2020 20:50:00 9.2 C 5.63 g/m*3 8.45 C 6.4 km/h
1116 04-04-2020 20:55:00 9 C 5.64 g/m*3 8.21 C 6.4 km/h
1117 04-04-2020 21:00:00 8.8 C 5.57 g/m*3 7.58 C 8.1 km/h
1118 04-04-2020 21:05:00 8.7 C 5.53 g/m*3 7.87 C 6.4 km/h
1119 04-04-2020 21:10:00 8.6 C 5.59 g/m*3 8.6 C 4.8 km/h
1120 04-04-2020 21:15:00 8.5 C 5.55 g/m*3 7.64 C 6.4 km/h
1121 04-04-2020 21:20:00 8.4 C 5.51 g/m*3 8.4 C 4.8 km/h
1122 04-04-2020 21:25:00 8.3 C 5.48 g/m*3 8.3 C 4.8 km/h
1123 04-04-2020 21:30:00 8.2 C 5.53 g/m*3 8.2 C 4.8 km/h
1124 04-04-2020 21:35:00 8.1 C 5.57 g/m*3 8.1 C 4.8 km/h
1125 04-04-2020 21:40:00 8 C 5.54 g/m*3 8 C 3.2 km/h
Sensor: Nr:Datum:Temp:Abs-Feuchte:Windchill:Wind:
Aussen-T/F 1126 04-04-2020 21:45:00 7.8 C 5.55 g/m*3 7.8 C 1.6 km/h
1127 04-04-2020 21:50:00 7.7 C 5.51 g/m*3 7.7 C 3.2 km/h
1128 04-04-2020 21:55:00 7.5 C 5.52 g/m*3 7.5 C 3.2 km/h
1129 04-04-2020 22:00:00 7.3 C 5.45 g/m*3 7.3 C 1.6 km/h
1130 04-04-2020 22:05:00 7.1 C 5.46 g/m*3 7.1 C 1.6 km/h
1131 04-04-2020 22:10:00 6.8 C 5.43 g/m*3 6.8 C 0 km/h
1132 04-04-2020 22:15:00 6.6 C 5.36 g/m*3 6.6 C 0 km/h
1133 04-04-2020 22:20:00 6.4 C 5.36 g/m*3 6.4 C 0 km/h
1134 04-04-2020 22:25:00 6.2 C 5.37 g/m*3 6.2 C 0 km/h
1135 04-04-2020 22:30:00 6.2 C 5.44 g/m*3 6.2 C 0 km/h
1136 04-04-2020 22:35:00 6.2 C 5.44 g/m*3 6.2 C 0 km/h
1137 04-04-2020 22:40:00 6 C 5.37 g/m*3 6 C 0 km/h
1138 04-04-2020 22:45:00 5.8 C 5.3 g/m*3 5.8 C 0 km/h
1139 04-04-2020 22:50:00 5.7 C 5.27 g/m*3 5.7 C 0 km/h
1140 04-04-2020 22:55:00 5.6 C 5.23 g/m*3 5.6 C 0 km/h
1141 04-04-2020 23:00:00 5.4 C 5.16 g/m*3 5.4 C 0 km/h
1142 04-04-2020 23:05:00 5.3 C 5.13 g/m*3 5.3 C 0 km/h
1143 04-04-2020 23:10:00 5.2 C 5.1 g/m*3 5.2 C 0 km/h
1144 04-04-2020 23:15:00 5.1 C 5.13 g/m*3 5.1 C 0 km/h
1145 04-04-2020 23:20:00 4.9 C 5.06 g/m*3 4.9 C 0 km/h
1146 04-04-2020 23:25:00 4.8 C 5.1 g/m*3 4.8 C 0 km/h
1147 04-04-2020 23:30:00 4.6 C 5.1 g/m*3 4.6 C 0 km/h
1148 04-04-2020 23:35:00 4.4 C 5.03 g/m*3 4.4 C 0 km/h
1149 04-04-2020 23:40:00 4.4 C 5.09 g/m*3 4.4 C 0 km/h
1150 04-04-2020 23:45:00 4.3 C 5.06 g/m*3 4.3 C 0 km/h
Sensor: Nr:Datum:Temp:Abs-Feuchte:Windchill:Wind:
Aussen-T/F 1151 04-04-2020 23:50:00 4.3 C 5.06 g/m*3 4.3 C 0 km/h
1152 04-04-2020 23:55:00 4.2 C 5.03 g/m*3 4.2 C 0 km/h
1153 05-04-2020 00:00:00 4.1 C 4.99 g/m*3 4.1 C 0 km/h
1154 05-04-2020 00:05:00 4 C 4.96 g/m*3 4 C 0 km/h
1155 05-04-2020 00:10:00 3.9 C 4.99 g/m*3 3.9 C 0 km/h
1156 05-04-2020 00:15:00 3.8 C 4.96 g/m*3 3.8 C 0 km/h
1157 05-04-2020 00:20:00 3.7 C 4.99 g/m*3 3.7 C 0 km/h
1158 05-04-2020 00:25:00 3.6 C 5.01 g/m*3 3.6 C 0 km/h
1159 05-04-2020 00:30:00 3.5 C 4.98 g/m*3 3.5 C 0 km/h
1160 05-04-2020 00:35:00 3.4 C 4.95 g/m*3 3.4 C 0 km/h
1161 05-04-2020 00:40:00 3.3 C 4.97 g/m*3 3.3 C 0 km/h
1162 05-04-2020 00:45:00 3.3 C 4.97 g/m*3 3.3 C 0 km/h
1163 05-04-2020 00:50:00 3.3 C 4.97 g/m*3 3.3 C 0 km/h
1164 05-04-2020 00:55:00 3.2 C 4.94 g/m*3 3.2 C 0 km/h
1165 05-04-2020 01:00:00 3.1 C 4.91 g/m*3 3.1 C 0 km/h
1166 05-04-2020 01:05:00 3.1 C 4.97 g/m*3 3.1 C 0 km/h
1167 05-04-2020 01:10:00 2.9 C 4.9 g/m*3 2.9 C 0 km/h
1168 05-04-2020 01:15:00 2.9 C 4.96 g/m*3 2.9 C 0 km/h
1169 05-04-2020 01:20:00 2.9 C 4.96 g/m*3 2.9 C 0 km/h
1170 05-04-2020 01:25:00 2.9 C 4.96 g/m*3 2.9 C 0 km/h
1171 05-04-2020 01:30:00 2.9 C 5.02 g/m*3 2.9 C 0 km/h
1172 05-04-2020 01:35:00 2.9 C 5.02 g/m*3 2.9 C 0 km/h
1173 05-04-2020 01:40:00 2.9 C 4.96 g/m*3 2.9 C 0 km/h
1174 05-04-2020 01:45:00 2.8 C 4.93 g/m*3 2.8 C 0 km/h
1175 05-04-2020 01:50:00 2.8 C 4.99 g/m*3 2.8 C 0 km/h
Sensor: Nr:Datum:Temp:Abs-Feuchte:Windchill:Wind:
Aussen-T/F 1176 05-04-2020 01:55:00 2.7 C 4.89 g/m*3 2.7 C 0 km/h
1177 05-04-2020 02:00:00 2.6 C 4.92 g/m*3 2.6 C 0 km/h
1178 05-04-2020 02:05:00 2.5 C 4.89 g/m*3 2.5 C 0 km/h
1179 05-04-2020 02:10:00 2.4 C 4.91 g/m*3 2.4 C 0 km/h
1180 05-04-2020 02:15:00 2.3 C 4.88 g/m*3 2.3 C 0 km/h
1181 05-04-2020 02:20:00 2.3 C 4.93 g/m*3 2.3 C 0 km/h
1182 05-04-2020 02:25:00 2.3 C 4.93 g/m*3 2.3 C 0 km/h
1183 05-04-2020 02:30:00 2.3 C 4.93 g/m*3 2.3 C 0 km/h
1184 05-04-2020 02:35:00 2.3 C 4.88 g/m*3 2.3 C 0 km/h
1185 05-04-2020 02:40:00 2.3 C 4.93 g/m*3 2.3 C 0 km/h
1186 05-04-2020 02:45:00 2.2 C 4.84 g/m*3 2.2 C 0 km/h
1187 05-04-2020 02:50:00 2.2 C 4.9 g/m*3 2.2 C 0 km/h
1188 05-04-2020 02:55:00 2.1 C 4.87 g/m*3 2.1 C 3.2 km/h
1189 05-04-2020 03:00:00 2.1 C 4.87 g/m*3 2.1 C 3.2 km/h
1190 05-04-2020 03:05:00 2 C 4.83 g/m*3 2 C 0 km/h
1191 05-04-2020 03:10:00 1.9 C 4.8 g/m*3 1.9 C 0 km/h
1192 05-04-2020 03:15:00 1.9 C 4.8 g/m*3 1.9 C 0 km/h
1193 05-04-2020 03:20:00 1.9 C 4.86 g/m*3 1.9 C 0 km/h
1194 05-04-2020 03:25:00 1.9 C 4.86 g/m*3 1.9 C 0 km/h
1195 05-04-2020 03:30:00 1.8 C 4.82 g/m*3 1.8 C 0 km/h
1196 05-04-2020 03:35:00 1.8 C 4.82 g/m*3 1.8 C 0 km/h
1197 05-04-2020 03:40:00 1.7 C 4.79 g/m*3 1.7 C 0 km/h
1198 05-04-2020 03:45:00 1.6 C 4.76 g/m*3 1.6 C 0 km/h
1199 05-04-2020 03:50:00 1.6 C 4.76 g/m*3 1.6 C 0 km/h
1200 05-04-2020 03:55:00 1.6 C 4.81 g/m*3 1.6 C 0 km/h
Sensor: Nr:Datum:Temp:Abs-Feuchte:Windchill:Wind:
Aussen-T/F 1201 05-04-2020 04:00:00 1.5 C 4.78 g/m*3 1.5 C 0 km/h
1202 05-04-2020 04:05:00 1.4 C 4.75 g/m*3 1.4 C 0 km/h
1203 05-04-2020 04:10:00 1.4 C 4.75 g/m*3 1.4 C 0 km/h
1204 05-04-2020 04:15:00 1.3 C 4.72 g/m*3 1.3 C 0 km/h
1205 05-04-2020 04:20:00 1.3 C 4.77 g/m*3 1.3 C 0 km/h
1206 05-04-2020 04:25:00 1.3 C 4.77 g/m*3 1.3 C 0 km/h
1207 05-04-2020 04:30:00 1.3 C 4.77 g/m*3 1.3 C 0 km/h
1208 05-04-2020 04:35:00 1.3 C 4.77 g/m*3 1.3 C 0 km/h
1209 05-04-2020 04:40:00 1.2 C 4.74 g/m*3 1.2 C 0 km/h
1210 05-04-2020 04:45:00 1.2 C 4.74 g/m*3 1.2 C 0 km/h
1211 05-04-2020 04:50:00 1.1 C 4.7 g/m*3 1.1 C 0 km/h
1212 05-04-2020 04:55:00 1.1 C 4.7 g/m*3 1.1 C 0 km/h
1213 05-04-2020 05:00:00 1 C 4.67 g/m*3 1 C 0 km/h
1214 05-04-2020 05:05:00 0.9 C 4.64 g/m*3 0.9 C 0 km/h
1215 05-04-2020 05:10:00 0.9 C 4.69 g/m*3 0.9 C 0 km/h
1216 05-04-2020 05:15:00 0.8 C 4.66 g/m*3 0.8 C 0 km/h
1217 05-04-2020 05:20:00 0.8 C 4.66 g/m*3 0.8 C 0 km/h
1218 05-04-2020 05:25:00 0.8 C 4.66 g/m*3 0.8 C 0 km/h
1219 05-04-2020 05:30:00 0.7 C 4.63 g/m*3 0.7 C 0 km/h
1220 05-04-2020 05:35:00 0.7 C 4.63 g/m*3 0.7 C 0 km/h
1221 05-04-2020 05:40:00 0.6 C 4.6 g/m*3 0.6 C 0 km/h
1222 05-04-2020 05:45:00 0.6 C 4.6 g/m*3 0.6 C 0 km/h
1223 05-04-2020 05:50:00 0.5 C 4.56 g/m*3 0.5 C 0 km/h
1224 05-04-2020 05:55:00 0.5 C 4.61 g/m*3 0.5 C 0 km/h
1225 05-04-2020 06:00:00 0.5 C 4.61 g/m*3 0.5 C 0 km/h
Sensor: Nr:Datum:Temp:Abs-Feuchte:Windchill:Wind:
Aussen-T/F 1226 05-04-2020 06:05:00 0.4 C 4.58 g/m*3 0.4 C 0 km/h
1227 05-04-2020 06:10:00 0.4 C 4.58 g/m*3 0.4 C 0 km/h
1228 05-04-2020 06:15:00 0.4 C 4.58 g/m*3 0.4 C 0 km/h
1229 05-04-2020 06:20:00 0.4 C 4.58 g/m*3 0.4 C 0 km/h
1230 05-04-2020 06:25:00 0.4 C 4.58 g/m*3 0.4 C 0 km/h
1231 05-04-2020 06:30:00 0.4 C 4.58 g/m*3 0.4 C 0 km/h
1232 05-04-2020 06:35:00 0.3 C 4.55 g/m*3 0.3 C 0 km/h
1233 05-04-2020 06:40:00 0.3 C 4.55 g/m*3 0.3 C 0 km/h
1234 05-04-2020 06:45:00 0.3 C 4.6 g/m*3 0.3 C 0 km/h
1235 05-04-2020 06:50:00 0.3 C 4.6 g/m*3 0.3 C 0 km/h
1236 05-04-2020 06:55:00 0.3 C 4.6 g/m*3 0.3 C 0 km/h
1237 05-04-2020 07:00:00 0.3 C 4.6 g/m*3 0.3 C 0 km/h
1238 05-04-2020 07:05:00 0.2 C 4.57 g/m*3 0.2 C 0 km/h
1239 05-04-2020 07:10:00 0.2 C 4.57 g/m*3 0.2 C 0 km/h
1240 05-04-2020 07:15:00 0.3 C 4.6 g/m*3 0.3 C 0 km/h
1241 05-04-2020 07:20:00 0.3 C 4.6 g/m*3 0.3 C 0 km/h
1242 05-04-2020 07:25:00 0.3 C 4.6 g/m*3 0.3 C 0 km/h
1243 05-04-2020 07:30:00 0.3 C 4.6 g/m*3 0.3 C 0 km/h
1244 05-04-2020 07:35:00 0.3 C 4.6 g/m*3 0.3 C 0 km/h
1245 05-04-2020 07:40:00 0.4 C 4.63 g/m*3 0.4 C 0 km/h
1246 05-04-2020 07:45:00 0.4 C 4.63 g/m*3 0.4 C 0 km/h
1247 05-04-2020 07:50:00 0.4 C 4.63 g/m*3 0.4 C 0 km/h
1248 05-04-2020 07:55:00 0.5 C 4.66 g/m*3 0.5 C 0 km/h
1249 05-04-2020 08:00:00 0.5 C 4.66 g/m*3 0.5 C 0 km/h
1250 05-04-2020 08:05:00 0.6 C 4.75 g/m*3 0.6 C 0 km/h
Sensor: Nr:Datum:Temp:Abs-Feuchte:Windchill:Wind:
Aussen-T/F 1251 05-04-2020 08:10:00 0.6 C 4.75 g/m*3 0.6 C 0 km/h
1252 05-04-2020 08:15:00 0.7 C 4.78 g/m*3 0.7 C 0 km/h
1253 05-04-2020 08:20:00 0.7 C 4.78 g/m*3 0.7 C 0 km/h
1254 05-04-2020 08:25:00 0.8 C 4.81 g/m*3 0.8 C 0 km/h
1255 05-04-2020 08:30:00 0.9 C 4.85 g/m*3 0.9 C 0 km/h
1256 05-04-2020 08:35:00 1.1 C 4.91 g/m*3 1.1 C 0 km/h
1257 05-04-2020 08:40:00 1.2 C 4.95 g/m*3 1.2 C 0 km/h
1258 05-04-2020 08:45:00 1.2 C 4.95 g/m*3 1.2 C 0 km/h
1259 05-04-2020 08:50:00 1.3 C 4.98 g/m*3 1.3 C 0 km/h
1260 05-04-2020 08:55:00 1.5 C 5.05 g/m*3 1.5 C 0 km/h
1261 05-04-2020 09:00:00 1.6 C 5.08 g/m*3 1.6 C 0 km/h
1262 05-04-2020 09:05:00 1.7 C 5.12 g/m*3 1.7 C 0 km/h
1263 05-04-2020 09:10:00 1.8 C 5.15 g/m*3 1.8 C 0 km/h
1264 05-04-2020 09:15:00 1.9 C 5.19 g/m*3 1.9 C 0 km/h
1265 05-04-2020 09:20:00 2.2 C 5.29 g/m*3 2.2 C 0 km/h
1266 05-04-2020 09:25:00 2.3 C 5.39 g/m*3 2.3 C 0 km/h
1267 05-04-2020 09:30:00 2.6 C 5.5 g/m*3 2.6 C 0 km/h
1268 05-04-2020 09:35:00 2.8 C 5.57 g/m*3 2.8 C 0 km/h
1269 05-04-2020 09:40:00 3 C 5.65 g/m*3 3 C 0 km/h
1270 05-04-2020 09:45:00 3.3 C 5.76 g/m*3 3.3 C 0 km/h
1271 05-04-2020 09:50:00 3.4 C 5.74 g/m*3 3.4 C 0 km/h
1272 05-04-2020 09:55:00 3.7 C 5.86 g/m*3 3.7 C 0 km/h
1273 05-04-2020 10:00:00 3.8 C 5.9 g/m*3 3.8 C 0 km/h
1274 05-04-2020 10:05:00 4.1 C 5.95 g/m*3 4.1 C 0 km/h
1275 05-04-2020 10:10:00 4.4 C 6.07 g/m*3 4.4 C 0 km/h
Sensor: Nr:Datum:Temp:Abs-Feuchte:Windchill:Wind:
Aussen-T/F 1276 05-04-2020 10:15:00 4.7 C 6.13 g/m*3 4.7 C 0 km/h
1277 05-04-2020 10:20:00 4.9 C 6.21 g/m*3 4.9 C 0 km/h
1278 05-04-2020 10:25:00 5.2 C 6.27 g/m*3 5.2 C 0 km/h
1279 05-04-2020 10:30:00 5.6 C 6.36 g/m*3 5.6 C 0 km/h
1280 05-04-2020 10:35:00 6.1 C 6.43 g/m*3 6.1 C 0 km/h
1281 05-04-2020 10:40:00 6.5 C 6.52 g/m*3 6.5 C 0 km/h
1282 05-04-2020 10:45:00 6.9 C 6.54 g/m*3 6.9 C 0 km/h
1283 05-04-2020 10:50:00 7.3 C 6.64 g/m*3 7.3 C 0 km/h
1284 05-04-2020 10:55:00 7.8 C 6.69 g/m*3 7.8 C 0 km/h
1285 05-04-2020 11:00:00 8.3 C 6.74 g/m*3 8.3 C 0 km/h
1286 05-04-2020 11:05:00 8.9 C 6.92 g/m*3 8.9 C 4.8 km/h
1287 05-04-2020 11:10:00 9.4 C 6.87 g/m*3 9.4 C 4.8 km/h
1288 05-04-2020 11:15:00 9.9 C 7 g/m*3 9.9 C 0 km/h
1289 05-04-2020 11:20:00 10.3 C 6.8 g/m*3 10.3 C 1.6 km/h
1290 05-04-2020 11:25:00 10.7 C 6.97 g/m*3 10.7 C 1.6 km/h
1291 05-04-2020 11:30:00 11.4 C 6.57 g/m*3 11.4 C 8.1 km/h
1292 05-04-2020 11:35:00 12.4 C 6.45 g/m*3 12.4 C 4.8 km/h
1293 05-04-2020 11:40:00 13.1 C 6.39 g/m*3 13.1 C 9.7 km/h
1294 05-04-2020 11:45:00 13.7 C 5.8 g/m*3 13.7 C 14.5 km/h
1295 05-04-2020 11:50:00 14.2 C 5.74 g/m*3 14.2 C 8.1 km/h
1296 05-04-2020 11:55:00 14.8 C 5.7 g/m*3 14.8 C 6.4 km/h
1297 05-04-2020 12:00:00 15.3 C 5.62 g/m*3 15.3 C 14.5 km/h
1298 05-04-2020 12:05:00 15.6 C 5.45 g/m*3 15.6 C 19.3 km/h
1299 05-04-2020 12:10:00 15.8 C 5.65 g/m*3 15.8 C 8.1 km/h
1300 05-04-2020 12:15:00 16.1 C 5.76 g/m*3 16.1 C 14.5 km/h
Sensor: Nr:Datum:Temp:Abs-Feuchte:Windchill:Wind:
Aussen-T/F 1301 05-04-2020 12:20:00 16.2 C 5.52 g/m*3 16.2 C 16.1 km/h
1302 05-04-2020 12:25:00 16.3 C 5.41 g/m*3 16.3 C 9.7 km/h
1303 05-04-2020 12:30:00 16.4 C 5.3 g/m*3 16.4 C 12.9 km/h
1304 05-04-2020 12:35:00 16.6 C 5.51 g/m*3 16.6 C 11.3 km/h
1305 05-04-2020 12:40:00 16.7 C 5.68 g/m*3 16.7 C 11.3 km/h
1306 05-04-2020 12:45:00 16.8 C 5.43 g/m*3 16.8 C 6.4 km/h
1307 05-04-2020 12:50:00 16.8 C 5.58 g/m*3 16.8 C 8.1 km/h
1308 05-04-2020 12:55:00 16.8 C 5.29 g/m*3 16.8 C 9.7 km/h
1309 05-04-2020 13:00:00 16.8 C 5.43 g/m*3 16.8 C 12.9 km/h
1310 05-04-2020 13:05:00 16.9 C 5.32 g/m*3 16.9 C 9.7 km/h
1311 05-04-2020 13:10:00 17.1 C 5.53 g/m*3 17.1 C 9.7 km/h
1312 05-04-2020 13:15:00 17.3 C 5.6 g/m*3 17.3 C 11.3 km/h
1313 05-04-2020 13:20:00 17.2 C 5.42 g/m*3 17.2 C 9.7 km/h
1314 05-04-2020 13:25:00 17.3 C 5.45 g/m*3 17.3 C 12.9 km/h
1315 05-04-2020 13:30:00 17.4 C 5.48 g/m*3 17.4 C 11.3 km/h
1316 05-04-2020 13:35:00 17.4 C 5.48 g/m*3 17.4 C 14.5 km/h
1317 05-04-2020 13:40:00 17.3 C 5.6 g/m*3 17.3 C 19.3 km/h
1318 05-04-2020 13:45:00 17.3 C 5.3 g/m*3 17.3 C 9.7 km/h
1319 05-04-2020 13:50:00 17.3 C 5.45 g/m*3 17.3 C 12.9 km/h
1320 05-04-2020 13:55:00 17.4 C 5.34 g/m*3 17.4 C 16.1 km/h
1321 05-04-2020 14:00:00 17.6 C 5.55 g/m*3 17.6 C 20.9 km/h
1322 05-04-2020 14:05:00 17.7 C 5.58 g/m*3 17.7 C 8.1 km/h
1323 05-04-2020 14:10:00 17.9 C 5.34 g/m*3 17.9 C 12.9 km/h
1324 05-04-2020 14:15:00 17.9 C 5.65 g/m*3 17.9 C 22.5 km/h
1325 05-04-2020 14:20:00 18.1 C 5.56 g/m*3 18.1 C 16.1 km/h
Sensor: Nr:Datum:Temp:Abs-Feuchte:Windchill:Wind:
Aussen-T/F 1326 05-04-2020 14:25:00 18.2 C 5.6 g/m*3 18.2 C 17.7 km/h
1327 05-04-2020 14:30:00 18.2 C 5.44 g/m*3 18.2 C 16.1 km/h
1328 05-04-2020 14:35:00 18.3 C 5.63 g/m*3 18.3 C 11.3 km/h
1329 05-04-2020 14:40:00 18.6 C 5.57 g/m*3 18.6 C 8.1 km/h
1330 05-04-2020 14:45:00 18.7 C 5.6 g/m*3 18.7 C 11.3 km/h
1331 05-04-2020 14:50:00 18.8 C 5.48 g/m*3 18.8 C 14.5 km/h
1332 05-04-2020 14:55:00 18.6 C 5.57 g/m*3 18.6 C 12.9 km/h
1333 05-04-2020 15:00:00 18.6 C 5.57 g/m*3 18.6 C 6.4 km/h
1334 05-04-2020 15:05:00 18.8 C 5.64 g/m*3 18.8 C 6.4 km/h
1335 05-04-2020 15:10:00 18.9 C 5.51 g/m*3 18.9 C 6.4 km/h
1336 05-04-2020 15:15:00 19 C 5.38 g/m*3 19 C 6.4 km/h
1337 05-04-2020 15:20:00 18.9 C 5.51 g/m*3 18.9 C 11.3 km/h
1338 05-04-2020 15:25:00 18.9 C 5.35 g/m*3 18.9 C 8.1 km/h
1339 05-04-2020 15:30:00 19.1 C 5.41 g/m*3 19.1 C 14.5 km/h
1340 05-04-2020 15:35:00 18.9 C 5.18 g/m*3 18.9 C 14.5 km/h
1341 05-04-2020 15:40:00 18.8 C 5.31 g/m*3 18.8 C 6.4 km/h
1342 05-04-2020 15:45:00 18.9 C 5.67 g/m*3 18.9 C 11.3 km/h
1343 05-04-2020 15:50:00 19 C 5.54 g/m*3 19 C 9.7 km/h
1344 05-04-2020 15:55:00 19.2 C 5.44 g/m*3 19.2 C 11.3 km/h
1345 05-04-2020 16:00:00 19.2 C 5.44 g/m*3 19.2 C 12.9 km/h
1346 05-04-2020 16:05:00 19.3 C 5.31 g/m*3 19.3 C 14.5 km/h
1347 05-04-2020 16:10:00 19.3 C 5.47 g/m*3 19.3 C 19.3 km/h
1348 05-04-2020 16:15:00 19.4 C 5.51 g/m*3 19.4 C 12.9 km/h
1349 05-04-2020 16:20:00 19.5 C 5.54 g/m*3 19.5 C 17.7 km/h
1350 05-04-2020 16:25:00 19.6 C 5.4 g/m*3 19.6 C 17.7 km/h
Sensor: Nr:Datum:Temp:Abs-Feuchte:Windchill:Wind:
Aussen-T/F 1351 05-04-2020 16:30:00 19.6 C 5.74 g/m*3 19.6 C 11.3 km/h
1352 05-04-2020 16:35:00 19.8 C 5.64 g/m*3 19.8 C 11.3 km/h
1353 05-04-2020 16:40:00 19.9 C 5.67 g/m*3 19.9 C 8.1 km/h
1354 05-04-2020 16:45:00 20.3 C 5.63 g/m*3 20.3 C 12.9 km/h
1355 05-04-2020 16:50:00 20.3 C 5.45 g/m*3 20.3 C 16.1 km/h
1356 05-04-2020 16:55:00 20.2 C 5.42 g/m*3 20.2 C 16.1 km/h
1357 05-04-2020 17:00:00 20.2 C 5.42 g/m*3 20.2 C 12.9 km/h
1358 05-04-2020 17:05:00 20.1 C 5.74 g/m*3 20.1 C 12.9 km/h
1359 05-04-2020 17:10:00 20.5 C 5.69 g/m*3 20.5 C 8.1 km/h
1360 05-04-2020 17:15:00 20.9 C 5.83 g/m*3 20.9 C 6.4 km/h
1361 05-04-2020 17:20:00 21.2 C 5.56 g/m*3 21.2 C 6.4 km/h
1362 05-04-2020 17:25:00 21.1 C 5.71 g/m*3 21.1 C 11.3 km/h
1363 05-04-2020 17:30:00 21.2 C 5.56 g/m*3 21.2 C 9.7 km/h
1364 05-04-2020 17:35:00 21.2 C 5.56 g/m*3 21.2 C 12.9 km/h
1365 05-04-2020 17:40:00 21.2 C 5.56 g/m*3 21.2 C 12.9 km/h
1366 05-04-2020 17:45:00 21.1 C 5.53 g/m*3 21.1 C 9.7 km/h
1367 05-04-2020 17:50:00 21 C 5.5 g/m*3 21 C 9.7 km/h
1368 05-04-2020 17:55:00 21.1 C 5.53 g/m*3 21.1 C 8.1 km/h
1369 05-04-2020 18:00:00 20.9 C 5.65 g/m*3 20.9 C 8.1 km/h
1370 05-04-2020 18:05:00 20.9 C 5.46 g/m*3 20.9 C 8.1 km/h
1371 05-04-2020 18:10:00 20.7 C 5.4 g/m*3 20.7 C 14.5 km/h
1372 05-04-2020 18:15:00 20.4 C 5.48 g/m*3 20.4 C 11.3 km/h
1373 05-04-2020 18:20:00 20.5 C 5.52 g/m*3 20.5 C 6.4 km/h
1374 05-04-2020 18:25:00 20.7 C 5.76 g/m*3 20.7 C 8.1 km/h
1375 05-04-2020 18:30:00 20.7 C 5.58 g/m*3 20.7 C 9.7 km/h
Sensor: Nr:Datum:Temp:Abs-Feuchte:Windchill:Wind:
Aussen-T/F 1376 05-04-2020 18:35:00 20.7 C 5.76 g/m*3 20.7 C 9.7 km/h
1377 05-04-2020 18:40:00 20.6 C 5.55 g/m*3 20.6 C 9.7 km/h
1378 05-04-2020 18:45:00 20.4 C 5.48 g/m*3 20.4 C 11.3 km/h
1379 05-04-2020 18:50:00 20.4 C 5.48 g/m*3 20.4 C 6.4 km/h
1380 05-04-2020 18:55:00 20.4 C 5.48 g/m*3 20.4 C 8.1 km/h
1381 05-04-2020 19:00:00 20.3 C 5.45 g/m*3 20.3 C 6.4 km/h
1382 05-04-2020 19:05:00 20.3 C 5.45 g/m*3 20.3 C 4.8 km/h
1383 05-04-2020 19:10:00 20.2 C 5.42 g/m*3 20.2 C 8.1 km/h
1384 05-04-2020 19:15:00 20.1 C 5.56 g/m*3 20.1 C 4.8 km/h
1385 05-04-2020 19:20:00 19.9 C 5.67 g/m*3 19.9 C 1.6 km/h
1386 05-04-2020 19:25:00 19.8 C 6.15 g/m*3 19.8 C 3.2 km/h
1387 05-04-2020 19:30:00 19.6 C 5.91 g/m*3 19.6 C 4.8 km/h
1388 05-04-2020 19:35:00 19.4 C 6.01 g/m*3 19.4 C 1.6 km/h
1389 05-04-2020 19:40:00 19.1 C 6.23 g/m*3 19.1 C 3.2 km/h
1390 05-04-2020 19:45:00 18.6 C 6.21 g/m*3 18.6 C 3.2 km/h
1391 05-04-2020 19:50:00 17.9 C 6.11 g/m*3 17.9 C 4.8 km/h
1392 05-04-2020 19:55:00 17.2 C 6.15 g/m*3 17.2 C 4.8 km/h
1393 05-04-2020 20:00:00 16.4 C 6.14 g/m*3 16.4 C 4.8 km/h
1394 05-04-2020 20:05:00 15.8 C 6.06 g/m*3 15.8 C 6.4 km/h
1395 05-04-2020 20:10:00 15.1 C 6.06 g/m*3 15.1 C 6.4 km/h
1396 05-04-2020 20:15:00 14.6 C 5.88 g/m*3 14.6 C 6.4 km/h
1397 05-04-2020 20:20:00 14.2 C 6.11 g/m*3 14.2 C 6.4 km/h
1398 05-04-2020 20:25:00 13.8 C 5.96 g/m*3 13.8 C 6.4 km/h
1399 05-04-2020 20:30:00 13.4 C 5.93 g/m*3 13.4 C 6.4 km/h
1400 05-04-2020 20:35:00 13.1 C 5.93 g/m*3 13.1 C 6.4 km/h
Sensor: Nr:Datum:Temp:Abs-Feuchte:Windchill:Wind:
Aussen-T/F 1401 05-04-2020 20:40:00 12.8 C 5.94 g/m*3 12.8 C 6.4 km/h
1402 05-04-2020 20:45:00 12.6 C 5.97 g/m*3 12.6 C 4.8 km/h
1403 05-04-2020 20:50:00 12.4 C 5.9 g/m*3 12.4 C 4.8 km/h
1404 05-04-2020 20:55:00 12.3 C 5.86 g/m*3 12.3 C 6.4 km/h
1405 05-04-2020 21:00:00 12.1 C 6.01 g/m*3 12.1 C 6.4 km/h
1406 05-04-2020 21:05:00 11.9 C 5.93 g/m*3 11.9 C 6.4 km/h
1407 05-04-2020 21:10:00 11.8 C 6 g/m*3 11.8 C 6.4 km/h
1408 05-04-2020 21:15:00 11.7 C 5.96 g/m*3 11.7 C 6.4 km/h
1409 05-04-2020 21:20:00 11.6 C 5.92 g/m*3 11.6 C 6.4 km/h
1410 05-04-2020 21:25:00 11.4 C 5.85 g/m*3 11.4 C 4.8 km/h
1411 05-04-2020 21:30:00 11.3 C 5.92 g/m*3 11.3 C 4.8 km/h
1412 05-04-2020 21:35:00 11.2 C 5.88 g/m*3 11.2 C 6.4 km/h
1413 05-04-2020 21:40:00 11.1 C 5.84 g/m*3 11.1 C 6.4 km/h
1414 05-04-2020 21:45:00 10.9 C 5.87 g/m*3 10.9 C 4.8 km/h
1415 05-04-2020 21:50:00 10.8 C 5.83 g/m*3 10.29 C 6.4 km/h
1416 05-04-2020 21:55:00 10.6 C 5.86 g/m*3 10.6 C 4.8 km/h
1417 05-04-2020 22:00:00 10.4 C 5.78 g/m*3 10.4 C 4.8 km/h
1418 05-04-2020 22:05:00 10.3 C 5.84 g/m*3 10.3 C 4.8 km/h
1419 05-04-2020 22:10:00 10.1 C 5.86 g/m*3 10.1 C 3.2 km/h
1420 05-04-2020 22:15:00 9.9 C 5.79 g/m*3 9.9 C 4.8 km/h
1421 05-04-2020 22:20:00 9.7 C 5.72 g/m*3 9.7 C 4.8 km/h
1422 05-04-2020 22:25:00 9.6 C 5.77 g/m*3 9.6 C 3.2 km/h
1423 05-04-2020 22:30:00 9.5 C 5.73 g/m*3 9.5 C 1.6 km/h
1424 05-04-2020 22:35:00 9.4 C 5.79 g/m*3 9.4 C 1.6 km/h
1425 05-04-2020 22:40:00 9.2 C 5.71 g/m*3 9.2 C 1.6 km/h
Sensor: Nr:Datum:Temp:Abs-Feuchte:Windchill:Wind:
Aussen-T/F 1426 05-04-2020 22:45:00 9.1 C 5.68 g/m*3 9.1 C 0 km/h
1427 05-04-2020 22:50:00 8.9 C 5.69 g/m*3 8.9 C 0 km/h
1428 05-04-2020 22:55:00 8.9 C 5.78 g/m*3 8.9 C 0 km/h
1429 05-04-2020 23:00:00 8.8 C 5.83 g/m*3 8.8 C 0 km/h
1430 05-04-2020 23:05:00 8.6 C 5.84 g/m*3 8.6 C 0 km/h
1431 05-04-2020 23:10:00 8.4 C 5.77 g/m*3 8.4 C 1.6 km/h
1432 05-04-2020 23:15:00 8.2 C 5.78 g/m*3 8.2 C 0 km/h
1433 05-04-2020 23:20:00 8.1 C 5.74 g/m*3 8.1 C 0 km/h
1434 05-04-2020 23:25:00 8 C 5.7 g/m*3 8 C 0 km/h
1435 05-04-2020 23:30:00 7.9 C 5.67 g/m*3 7.9 C 0 km/h
1436 05-04-2020 23:35:00 7.8 C 5.63 g/m*3 7.8 C 0 km/h
1437 05-04-2020 23:40:00 7.7 C 5.59 g/m*3 7.7 C 0 km/h
1438 05-04-2020 23:45:00 7.7 C 5.68 g/m*3 7.7 C 0 km/h
1439 05-04-2020 23:50:00 7.6 C 5.64 g/m*3 7.6 C 0 km/h
1440 05-04-2020 23:55:00 7.4 C 5.57 g/m*3 7.4 C 0 km/h
1441 06-04-2020 00:00:00 7.3 C 5.61 g/m*3 7.3 C 0 km/h
1442 06-04-2020 00:05:00 7.2 C 5.57 g/m*3 7.2 C 0 km/h
1443 06-04-2020 00:10:00 7.1 C 5.62 g/m*3 7.1 C 0 km/h
1444 06-04-2020 00:15:00 7.1 C 5.69 g/m*3 7.1 C 0 km/h
1445 06-04-2020 00:20:00 7.1 C 5.69 g/m*3 7.1 C 0 km/h
1446 06-04-2020 00:25:00 7 C 5.66 g/m*3 7 C 0 km/h
1447 06-04-2020 00:30:00 6.9 C 5.54 g/m*3 6.9 C 0 km/h
1448 06-04-2020 00:35:00 6.9 C 5.62 g/m*3 6.9 C 0 km/h
1449 06-04-2020 00:40:00 6.7 C 5.55 g/m*3 6.7 C 0 km/h
1450 06-04-2020 00:45:00 6.6 C 5.51 g/m*3 6.6 C 0 km/h
Sensor: Nr:Datum:Temp:Abs-Feuchte:Windchill:Wind:
Aussen-T/F 1451 06-04-2020 00:50:00 6.5 C 5.62 g/m*3 6.5 C 0 km/h
1452 06-04-2020 00:55:00 6.4 C 5.59 g/m*3 6.4 C 0 km/h
1453 06-04-2020 01:00:00 6.3 C 5.63 g/m*3 6.3 C 0 km/h
1454 06-04-2020 01:05:00 6.2 C 5.59 g/m*3 6.2 C 0 km/h
1455 06-04-2020 01:10:00 6.2 C 5.66 g/m*3 6.2 C 0 km/h
1456 06-04-2020 01:15:00 6.1 C 5.55 g/m*3 6.1 C 0 km/h
1457 06-04-2020 01:20:00 6 C 5.59 g/m*3 6 C 0 km/h
1458 06-04-2020 01:25:00 5.9 C 5.55 g/m*3 5.9 C 0 km/h
1459 06-04-2020 01:30:00 5.8 C 5.52 g/m*3 5.8 C 0 km/h
1460 06-04-2020 01:35:00 5.7 C 5.55 g/m*3 5.7 C 0 km/h
1461 06-04-2020 01:40:00 5.6 C 5.51 g/m*3 5.6 C 0 km/h
1462 06-04-2020 01:45:00 5.5 C 5.55 g/m*3 5.5 C 0 km/h
1463 06-04-2020 01:50:00 5.4 C 5.51 g/m*3 5.4 C 0 km/h
1464 06-04-2020 01:55:00 5.4 C 5.51 g/m*3 5.4 C 0 km/h
1465 06-04-2020 02:00:00 5.4 C 5.58 g/m*3 5.4 C 0 km/h
1466 06-04-2020 02:05:00 5.3 C 5.48 g/m*3 5.3 C 0 km/h
1467 06-04-2020 02:10:00 5.1 C 5.47 g/m*3 5.1 C 0 km/h
1468 06-04-2020 02:15:00 5 C 5.5 g/m*3 5 C 0 km/h
1469 06-04-2020 02:20:00 5 C 5.5 g/m*3 5 C 0 km/h
1470 06-04-2020 02:25:00 4.9 C 5.4 g/m*3 4.9 C 0 km/h
1471 06-04-2020 02:30:00 4.9 C 5.47 g/m*3 4.9 C 0 km/h
1472 06-04-2020 02:35:00 4.8 C 5.43 g/m*3 4.8 C 0 km/h
1473 06-04-2020 02:40:00 4.8 C 5.43 g/m*3 4.8 C 0 km/h
1474 06-04-2020 02:45:00 4.8 C 5.43 g/m*3 4.8 C 0 km/h
1475 06-04-2020 02:50:00 4.7 C 5.4 g/m*3 4.7 C 0 km/h
Sensor: Nr:Datum:Temp:Abs-Feuchte:Windchill:Wind:
Aussen-T/F 1476 06-04-2020 02:55:00 4.6 C 5.36 g/m*3 4.6 C 0 km/h
1477 06-04-2020 03:00:00 4.4 C 5.35 g/m*3 4.4 C 0 km/h
1478 06-04-2020 03:05:00 4.4 C 5.35 g/m*3 4.4 C 0 km/h
1479 06-04-2020 03:10:00 4.3 C 5.32 g/m*3 4.3 C 0 km/h
1480 06-04-2020 03:15:00 4.3 C 5.32 g/m*3 4.3 C 0 km/h
1481 06-04-2020 03:20:00 4.2 C 5.35 g/m*3 4.2 C 0 km/h
1482 06-04-2020 03:25:00 4.2 C 5.35 g/m*3 4.2 C 0 km/h
1483 06-04-2020 03:30:00 4.2 C 5.35 g/m*3 4.2 C 0 km/h
1484 06-04-2020 03:35:00 4.1 C 5.31 g/m*3 4.1 C 0 km/h
1485 06-04-2020 03:40:00 4.1 C 5.31 g/m*3 4.1 C 0 km/h
1486 06-04-2020 03:45:00 4 C 5.28 g/m*3 4 C 0 km/h
1487 06-04-2020 03:50:00 3.9 C 5.24 g/m*3 3.9 C 0 km/h
1488 06-04-2020 03:55:00 3.9 C 5.31 g/m*3 3.9 C 0 km/h
1489 06-04-2020 04:00:00 3.8 C 5.27 g/m*3 3.8 C 0 km/h
1490 06-04-2020 04:05:00 3.8 C 5.27 g/m*3 3.8 C 0 km/h
1491 06-04-2020 04:10:00 3.8 C 5.27 g/m*3 3.8 C 0 km/h
1492 06-04-2020 04:15:00 3.8 C 5.27 g/m*3 3.8 C 0 km/h
1493 06-04-2020 04:20:00 3.8 C 5.27 g/m*3 3.8 C 0 km/h
1494 06-04-2020 04:25:00 3.8 C 5.27 g/m*3 3.8 C 0 km/h
1495 06-04-2020 04:30:00 3.7 C 5.23 g/m*3 3.7 C 0 km/h
1496 06-04-2020 04:35:00 3.6 C 5.2 g/m*3 3.6 C 0 km/h
1497 06-04-2020 04:40:00 3.5 C 5.23 g/m*3 3.5 C 0 km/h
1498 06-04-2020 04:45:00 3.4 C 5.19 g/m*3 3.4 C 0 km/h
1499 06-04-2020 04:50:00 3.3 C 5.16 g/m*3 3.3 C 0 km/h
1500 06-04-2020 04:55:00 3.2 C 5.18 g/m*3 3.2 C 0 km/h
Sensor: Nr:Datum:Temp:Abs-Feuchte:Windchill:Wind:
Aussen-T/F 1501 06-04-2020 05:00:00 3.2 C 5.18 g/m*3 3.2 C 0 km/h
1502 06-04-2020 05:05:00 3.2 C 5.18 g/m*3 3.2 C 0 km/h
1503 06-04-2020 05:10:00 3.2 C 5.18 g/m*3 3.2 C 0 km/h
1504 06-04-2020 05:15:00 3.2 C 5.18 g/m*3 3.2 C 0 km/h
1505 06-04-2020 05:20:00 3.1 C 5.15 g/m*3 3.1 C 0 km/h
1506 06-04-2020 05:25:00 3 C 5.11 g/m*3 3 C 0 km/h
1507 06-04-2020 05:30:00 2.9 C 5.08 g/m*3 2.9 C 0 km/h
1508 06-04-2020 05:35:00 2.9 C 5.14 g/m*3 2.9 C 0 km/h
1509 06-04-2020 05:40:00 2.9 C 5.14 g/m*3 2.9 C 0 km/h
1510 06-04-2020 05:45:00 2.8 C 5.1 g/m*3 2.8 C 0 km/h
1511 06-04-2020 05:50:00 2.8 C 5.1 g/m*3 2.8 C 0 km/h
1512 06-04-2020 05:55:00 2.7 C 5.07 g/m*3 2.7 C 0 km/h
1513 06-04-2020 06:00:00 2.6 C 5.03 g/m*3 2.6 C 0 km/h
1514 06-04-2020 06:05:00 2.6 C 5.09 g/m*3 2.6 C 0 km/h
1515 06-04-2020 06:10:00 2.4 C 5.02 g/m*3 2.4 C 0 km/h
1516 06-04-2020 06:15:00 2.4 C 5.02 g/m*3 2.4 C 0 km/h
1517 06-04-2020 06:20:00 2.3 C 4.99 g/m*3 2.3 C 0 km/h
1518 06-04-2020 06:25:00 2.2 C 4.96 g/m*3 2.2 C 0 km/h
1519 06-04-2020 06:30:00 2.2 C 5.01 g/m*3 2.2 C 0 km/h
1520 06-04-2020 06:35:00 2.1 C 4.98 g/m*3 2.1 C 0 km/h
1521 06-04-2020 06:40:00 2.1 C 4.98 g/m*3 2.1 C 0 km/h
1522 06-04-2020 06:45:00 2.1 C 4.98 g/m*3 2.1 C 0 km/h
1523 06-04-2020 06:50:00 2.1 C 4.98 g/m*3 2.1 C 0 km/h
1524 06-04-2020 06:55:00 2.1 C 4.98 g/m*3 2.1 C 0 km/h
1525 06-04-2020 07:00:00 2.1 C 5.04 g/m*3 2.1 C 0 km/h
Sensor: Nr:Datum:Temp:Abs-Feuchte:Windchill:Wind:
Aussen-T/F 1526 06-04-2020 07:05:00 2.2 C 5.07 g/m*3 2.2 C 0 km/h
1527 06-04-2020 07:10:00 2.2 C 5.07 g/m*3 2.2 C 0 km/h
1528 06-04-2020 07:15:00 2.3 C 5.1 g/m*3 2.3 C 0 km/h
1529 06-04-2020 07:20:00 2.4 C 5.2 g/m*3 2.4 C 0 km/h
1530 06-04-2020 07:25:00 2.4 C 5.14 g/m*3 2.4 C 0 km/h
1531 06-04-2020 07:30:00 2.4 C 5.14 g/m*3 2.4 C 0 km/h
1532 06-04-2020 07:35:00 2.4 C 5.14 g/m*3 2.4 C 0 km/h
1533 06-04-2020 07:40:00 2.4 C 5.14 g/m*3 2.4 C 0 km/h
1534 06-04-2020 07:45:00 2.4 C 5.14 g/m*3 2.4 C 0 km/h
1535 06-04-2020 07:50:00 2.6 C 5.27 g/m*3 2.6 C 0 km/h
1536 06-04-2020 07:55:00 2.7 C 5.24 g/m*3 2.7 C 0 km/h
1537 06-04-2020 08:00:00 2.6 C 5.21 g/m*3 2.6 C 0 km/h
1538 06-04-2020 08:05:00 2.7 C 5.24 g/m*3 2.7 C 0 km/h
1539 06-04-2020 08:10:00 2.7 C 5.3 g/m*3 2.7 C 0 km/h
1540 06-04-2020 08:15:00 2.8 C 5.34 g/m*3 2.8 C 0 km/h
1541 06-04-2020 08:20:00 2.9 C 5.37 g/m*3 2.9 C 0 km/h
1542 06-04-2020 08:25:00 3.1 C 5.45 g/m*3 3.1 C 0 km/h
1543 06-04-2020 08:30:00 3.4 C 5.5 g/m*3 3.4 C 1.6 km/h
1544 06-04-2020 08:35:00 3.6 C 5.57 g/m*3 3.6 C 0 km/h
1545 06-04-2020 08:40:00 3.7 C 5.55 g/m*3 3.7 C 0 km/h
1546 06-04-2020 08:45:00 3.8 C 5.58 g/m*3 3.8 C 0 km/h
1547 06-04-2020 08:50:00 3.9 C 5.62 g/m*3 3.9 C 0 km/h
1548 06-04-2020 08:55:00 3.9 C 5.56 g/m*3 3.9 C 0 km/h
1549 06-04-2020 09:00:00 3.9 C 5.56 g/m*3 3.9 C 0 km/h
1550 06-04-2020 09:05:00 4 C 5.59 g/m*3 4 C 0 km/h
Sensor: Nr:Datum:Temp:Abs-Feuchte:Windchill:Wind:
Aussen-T/F 1551 06-04-2020 09:10:00 4.1 C 5.63 g/m*3 4.1 C 0 km/h
1552 06-04-2020 09:15:00 4.2 C 5.67 g/m*3 4.2 C 1.6 km/h
1553 06-04-2020 09:20:00 4.2 C 5.67 g/m*3 4.2 C 0 km/h
1554 06-04-2020 09:25:00 4.3 C 5.71 g/m*3 4.3 C 0 km/h
1555 06-04-2020 09:30:00 4.4 C 5.75 g/m*3 4.4 C 0 km/h
1556 06-04-2020 09:35:00 4.6 C 5.82 g/m*3 4.6 C 0 km/h
1557 06-04-2020 09:40:00 4.8 C 5.9 g/m*3 4.8 C 0 km/h
1558 06-04-2020 09:45:00 5 C 5.98 g/m*3 5 C 0 km/h
1559 06-04-2020 09:50:00 5.2 C 6.06 g/m*3 5.2 C 0 km/h
1560 06-04-2020 09:55:00 5.3 C 6.1 g/m*3 5.3 C 0 km/h
1561 06-04-2020 10:00:00 5.6 C 6.15 g/m*3 5.6 C 0 km/h
1562 06-04-2020 10:05:00 5.9 C 6.2 g/m*3 5.9 C 0 km/h
1563 06-04-2020 10:10:00 6.2 C 6.25 g/m*3 6.2 C 0 km/h
1564 06-04-2020 10:15:00 6.4 C 6.33 g/m*3 6.4 C 0 km/h
1565 06-04-2020 10:20:00 6.7 C 6.38 g/m*3 6.7 C 0 km/h
1566 06-04-2020 10:25:00 7.1 C 6.47 g/m*3 7.1 C 0 km/h
1567 06-04-2020 10:30:00 7.4 C 6.52 g/m*3 7.4 C 0 km/h
1568 06-04-2020 10:35:00 8 C 6.61 g/m*3 8 C 0 km/h
1569 06-04-2020 10:40:00 8.4 C 6.62 g/m*3 8.4 C 0 km/h
1570 06-04-2020 10:45:00 8.8 C 6.7 g/m*3 8.8 C 3.2 km/h
1571 06-04-2020 10:50:00 9.4 C 6.87 g/m*3 9.4 C 0 km/h
1572 06-04-2020 10:55:00 9.9 C 6.82 g/m*3 9.9 C 0 km/h
1573 06-04-2020 11:00:00 10.5 C 6.98 g/m*3 10.5 C 0 km/h
1574 06-04-2020 11:05:00 11.2 C 6.89 g/m*3 11.2 C 0 km/h
1575 06-04-2020 11:10:00 11.7 C 6.9 g/m*3 11.7 C 0 km/h
Sensor: Nr:Datum:Temp:Abs-Feuchte:Windchill:Wind:
Aussen-T/F 1576 06-04-2020 11:15:00 12.3 C 7.28 g/m*3 12.3 C 0 km/h
1577 06-04-2020 11:20:00 12.7 C 6.9 g/m*3 12.7 C 0 km/h
1578 06-04-2020 11:25:00 13.3 C 6.47 g/m*3 13.3 C 6.4 km/h
1579 06-04-2020 11:30:00 14.2 C 6.59 g/m*3 14.2 C 11.3 km/h
1580 06-04-2020 11:35:00 15.3 C 6.4 g/m*3 15.3 C 12.9 km/h
1581 06-04-2020 11:40:00 16.1 C 6.17 g/m*3 16.1 C 8.1 km/h
1582 06-04-2020 11:45:00 16.7 C 5.97 g/m*3 16.7 C 17.7 km/h
1583 06-04-2020 11:50:00 17.1 C 6.26 g/m*3 17.1 C 19.3 km/h
1584 06-04-2020 11:55:00 17.3 C 6.04 g/m*3 17.3 C 16.1 km/h
1585 06-04-2020 12:00:00 17.6 C 6 g/m*3 17.6 C 9.7 km/h
1586 06-04-2020 12:05:00 17.9 C 5.8 g/m*3 17.9 C 16.1 km/h
1587 06-04-2020 12:10:00 18.1 C 5.87 g/m*3 18.1 C 12.9 km/h
1588 06-04-2020 12:15:00 18.3 C 5.79 g/m*3 18.3 C 14.5 km/h
1589 06-04-2020 12:20:00 18.6 C 6.05 g/m*3 18.6 C 9.7 km/h
1590 06-04-2020 12:25:00 18.7 C 5.76 g/m*3 18.7 C 12.9 km/h
1591 06-04-2020 12:30:00 18.9 C 5.67 g/m*3 18.9 C 11.3 km/h
1592 06-04-2020 12:35:00 19.1 C 5.74 g/m*3 19.1 C 14.5 km/h
1593 06-04-2020 12:40:00 19.2 C 5.77 g/m*3 19.2 C 14.5 km/h
1594 06-04-2020 12:45:00 19.3 C 5.81 g/m*3 19.3 C 11.3 km/h
1595 06-04-2020 12:50:00 19.4 C 5.84 g/m*3 19.4 C 12.9 km/h
1596 06-04-2020 12:55:00 19.4 C 6.01 g/m*3 19.4 C 11.3 km/h
1597 06-04-2020 13:00:00 19.6 C 5.74 g/m*3 19.6 C 11.3 km/h
1598 06-04-2020 13:05:00 19.7 C 5.94 g/m*3 19.7 C 11.3 km/h
1599 06-04-2020 13:10:00 19.8 C 5.98 g/m*3 19.8 C 11.3 km/h
1600 06-04-2020 13:15:00 19.9 C 5.84 g/m*3 19.9 C 8.1 km/h
Sensor: Nr:Datum:Temp:Abs-Feuchte:Windchill:Wind:
Aussen-T/F 1601 06-04-2020 13:20:00 20.1 C 5.91 g/m*3 20.1 C 12.9 km/h
1602 06-04-2020 13:25:00 20.2 C 5.94 g/m*3 20.2 C 9.7 km/h
1603 06-04-2020 13:30:00 20.2 C 6.12 g/m*3 20.2 C 8.1 km/h
1604 06-04-2020 13:35:00 20.3 C 6.16 g/m*3 20.3 C 6.4 km/h
1605 06-04-2020 13:40:00 20.4 C 6.37 g/m*3 20.4 C 9.7 km/h
1606 06-04-2020 13:45:00 20.5 C 6.41 g/m*3 20.5 C 9.7 km/h
1607 06-04-2020 13:50:00 20.7 C 6.12 g/m*3 20.7 C 8.1 km/h
1608 06-04-2020 13:55:00 20.8 C 6.16 g/m*3 20.8 C 8.1 km/h
1609 06-04-2020 14:00:00 21 C 6.23 g/m*3 21 C 9.7 km/h
1610 06-04-2020 14:05:00 21.2 C 6.3 g/m*3 21.2 C 11.3 km/h
1611 06-04-2020 14:10:00 21.2 C 6.12 g/m*3 21.2 C 11.3 km/h
1612 06-04-2020 14:15:00 21.3 C 6.52 g/m*3 21.3 C 6.4 km/h
1613 06-04-2020 14:20:00 21.5 C 6.03 g/m*3 21.5 C 9.7 km/h
1614 06-04-2020 14:25:00 21.7 C 6.1 g/m*3 21.7 C 8.1 km/h
1615 06-04-2020 14:30:00 21.9 C 6.37 g/m*3 21.9 C 8.1 km/h
1616 06-04-2020 14:35:00 22.2 C 6.28 g/m*3 22.2 C 9.7 km/h
1617 06-04-2020 14:40:00 22.4 C 5.96 g/m*3 22.4 C 14.5 km/h
1618 06-04-2020 14:45:00 22.6 C 6.03 g/m*3 22.6 C 17.7 km/h
1619 06-04-2020 14:50:00 22.6 C 5.62 g/m*3 22.6 C 12.9 km/h
1620 06-04-2020 14:55:00 22.7 C 5.05 g/m*3 22.7 C 11.3 km/h
1621 06-04-2020 15:00:00 22.8 C 5.08 g/m*3 22.8 C 12.9 km/h
1622 06-04-2020 15:05:00 22.9 C 4.7 g/m*3 22.9 C 16.1 km/h
1623 06-04-2020 15:10:00 22.8 C 4.88 g/m*3 22.8 C 14.5 km/h
1624 06-04-2020 15:15:00 22.7 C 5.05 g/m*3 22.7 C 20.9 km/h
1625 06-04-2020 15:20:00 22.6 C 5.22 g/m*3 22.6 C 17.7 km/h
Sensor: Nr:Datum:Temp:Abs-Feuchte:Windchill:Wind:
Aussen-T/F 1626 06-04-2020 15:25:00 22.6 C 5.22 g/m*3 22.6 C 20.9 km/h
1627 06-04-2020 15:30:00 22.6 C 4.82 g/m*3 22.6 C 22.5 km/h
1628 06-04-2020 15:35:00 22.6 C 5.02 g/m*3 22.6 C 16.1 km/h
1629 06-04-2020 15:40:00 22.6 C 5.02 g/m*3 22.6 C 25.7 km/h
1630 06-04-2020 15:45:00 22.6 C 5.02 g/m*3 22.6 C 20.9 km/h
1631 06-04-2020 15:50:00 22.6 C 5.02 g/m*3 22.6 C 19.3 km/h
1632 06-04-2020 15:55:00 22.8 C 5.28 g/m*3 22.8 C 11.3 km/h
1633 06-04-2020 16:00:00 23 C 5.34 g/m*3 23 C 4.8 km/h
1634 06-04-2020 16:05:00 23.2 C 5.41 g/m*3 23.2 C 6.4 km/h
1635 06-04-2020 16:10:00 23.4 C 5.26 g/m*3 23.4 C 16.1 km/h
1636 06-04-2020 16:15:00 23.6 C 5.32 g/m*3 23.6 C 11.3 km/h
1637 06-04-2020 16:20:00 23.8 C 5.16 g/m*3 23.8 C 12.9 km/h
1638 06-04-2020 16:25:00 23.8 C 4.95 g/m*3 23.8 C 16.1 km/h
1639 06-04-2020 16:30:00 23.9 C 5.62 g/m*3 23.9 C 11.3 km/h
1640 06-04-2020 16:35:00 23.9 C 5.62 g/m*3 23.9 C 11.3 km/h
1641 06-04-2020 16:40:00 24.1 C 5.91 g/m*3 24.1 C 11.3 km/h
1642 06-04-2020 16:45:00 24.3 C 5.75 g/m*3 24.3 C 11.3 km/h
1643 06-04-2020 16:50:00 24.3 C 5.75 g/m*3 24.3 C 11.3 km/h
1644 06-04-2020 16:55:00 24.1 C 6.13 g/m*3 24.1 C 16.1 km/h
1645 06-04-2020 17:00:00 23.8 C 5.81 g/m*3 23.8 C 17.7 km/h
1646 06-04-2020 17:05:00 23.8 C 6.02 g/m*3 23.8 C 14.5 km/h
1647 06-04-2020 17:10:00 23.6 C 5.74 g/m*3 23.6 C 16.1 km/h
1648 06-04-2020 17:15:00 23.7 C 5.99 g/m*3 23.7 C 14.5 km/h
1649 06-04-2020 17:20:00 23.8 C 6.02 g/m*3 23.8 C 12.9 km/h
1650 06-04-2020 17:25:00 23.9 C 5.62 g/m*3 23.9 C 16.1 km/h
Sensor: Nr:Datum:Temp:Abs-Feuchte:Windchill:Wind:
Aussen-T/F 1651 06-04-2020 17:30:00 23.9 C 5.84 g/m*3 23.9 C 17.7 km/h
1652 06-04-2020 17:35:00 23.8 C 5.59 g/m*3 23.8 C 14.5 km/h
1653 06-04-2020 17:40:00 23.7 C 5.78 g/m*3 23.7 C 19.3 km/h
1654 06-04-2020 17:45:00 23.9 C 6.06 g/m*3 23.9 C 12.9 km/h
1655 06-04-2020 17:50:00 24.1 C 5.69 g/m*3 24.1 C 16.1 km/h
1656 06-04-2020 17:55:00 23.9 C 5.62 g/m*3 23.9 C 11.3 km/h
1657 06-04-2020 18:00:00 23.8 C 5.81 g/m*3 23.8 C 14.5 km/h
1658 06-04-2020 18:05:00 23.7 C 5.56 g/m*3 23.7 C 14.5 km/h
1659 06-04-2020 18:10:00 23.7 C 5.56 g/m*3 23.7 C 16.1 km/h
1660 06-04-2020 18:15:00 23.4 C 5.47 g/m*3 23.4 C 12.9 km/h
1661 06-04-2020 18:20:00 23.5 C 5.71 g/m*3 23.5 C 11.3 km/h
1662 06-04-2020 18:25:00 23.6 C 5.53 g/m*3 23.6 C 12.9 km/h
1663 06-04-2020 18:30:00 23.5 C 5.5 g/m*3 23.5 C 16.1 km/h
1664 06-04-2020 18:35:00 23.4 C 5.68 g/m*3 23.4 C 12.9 km/h
1665 06-04-2020 18:40:00 23.3 C 5.44 g/m*3 23.3 C 11.3 km/h
1666 06-04-2020 18:45:00 23.3 C 5.44 g/m*3 23.3 C 9.7 km/h
1667 06-04-2020 18:50:00 23.2 C 5.61 g/m*3 23.2 C 12.9 km/h
1668 06-04-2020 18:55:00 23.1 C 5.58 g/m*3 23.1 C 11.3 km/h
1669 06-04-2020 19:00:00 22.9 C 5.52 g/m*3 22.9 C 11.3 km/h
1670 06-04-2020 19:05:00 22.8 C 5.69 g/m*3 22.8 C 8.1 km/h
1671 06-04-2020 19:10:00 22.7 C 5.86 g/m*3 22.7 C 9.7 km/h
1672 06-04-2020 19:15:00 22.6 C 6.23 g/m*3 22.6 C 4.8 km/h
1673 06-04-2020 19:20:00 22.3 C 6.12 g/m*3 22.3 C 9.7 km/h
1674 06-04-2020 19:25:00 22 C 6.02 g/m*3 22 C 4.8 km/h
1675 06-04-2020 19:30:00 21.7 C 5.91 g/m*3 21.7 C 6.4 km/h
Sensor: Nr:Datum:Temp:Abs-Feuchte:Windchill:Wind:
Aussen-T/F 1676 06-04-2020 19:35:00 21.3 C 6.34 g/m*3 21.3 C 3.2 km/h
1677 06-04-2020 19:40:00 20.8 C 6.52 g/m*3 20.8 C 6.4 km/h
1678 06-04-2020 19:45:00 20.4 C 6.19 g/m*3 20.4 C 4.8 km/h
1679 06-04-2020 19:50:00 20 C 6.39 g/m*3 20 C 6.4 km/h
1680 06-04-2020 19:55:00 19.5 C 6.38 g/m*3 19.5 C 3.2 km/h
1681 06-04-2020 20:00:00 18.9 C 6.48 g/m*3 18.9 C 6.4 km/h
1682 06-04-2020 20:05:00 18.2 C 6.37 g/m*3 18.2 C 6.4 km/h
1683 06-04-2020 20:10:00 17.6 C 6.45 g/m*3 17.6 C 6.4 km/h
1684 06-04-2020 20:15:00 17.1 C 6.55 g/m*3 17.1 C 6.4 km/h
1685 06-04-2020 20:20:00 16.6 C 6.36 g/m*3 16.6 C 6.4 km/h
1686 06-04-2020 20:25:00 16.2 C 6.34 g/m*3 16.2 C 6.4 km/h
1687 06-04-2020 20:30:00 15.8 C 6.46 g/m*3 15.8 C 6.4 km/h
1688 06-04-2020 20:35:00 15.5 C 6.34 g/m*3 15.5 C 6.4 km/h
1689 06-04-2020 20:40:00 15.3 C 6.53 g/m*3 15.3 C 4.8 km/h
1690 06-04-2020 20:45:00 15 C 6.41 g/m*3 15 C 4.8 km/h
1691 06-04-2020 20:50:00 14.7 C 6.55 g/m*3 14.7 C 3.2 km/h
1692 06-04-2020 20:55:00 14.5 C 6.59 g/m*3 14.5 C 4.8 km/h
1693 06-04-2020 21:00:00 14.2 C 6.47 g/m*3 14.2 C 4.8 km/h
1694 06-04-2020 21:05:00 14 C 6.51 g/m*3 14 C 4.8 km/h
1695 06-04-2020 21:10:00 13.9 C 6.47 g/m*3 13.9 C 4.8 km/h
1696 06-04-2020 21:15:00 13.7 C 6.51 g/m*3 13.7 C 3.2 km/h
1697 06-04-2020 21:20:00 13.6 C 6.59 g/m*3 13.6 C 3.2 km/h
1698 06-04-2020 21:25:00 13.3 C 6.47 g/m*3 13.3 C 1.6 km/h
1699 06-04-2020 21:30:00 13.2 C 6.54 g/m*3 13.2 C 3.2 km/h
1700 06-04-2020 21:35:00 12.9 C 6.42 g/m*3 12.9 C 0 km/h
Sensor: Nr:Datum:Temp:Abs-Feuchte:Windchill:Wind:
Aussen-T/F 1701 06-04-2020 21:40:00 12.8 C 6.5 g/m*3 12.8 C 0 km/h
1702 06-04-2020 21:45:00 12.6 C 6.31 g/m*3 12.6 C 0 km/h
1703 06-04-2020 21:50:00 12.3 C 6.3 g/m*3 12.3 C 0 km/h
1704 06-04-2020 21:55:00 12.1 C 6.33 g/m*3 12.1 C 1.6 km/h
1705 06-04-2020 22:00:00 12 C 6.39 g/m*3 12 C 1.6 km/h
1706 06-04-2020 22:05:00 11.9 C 6.35 g/m*3 11.9 C 1.6 km/h
1707 06-04-2020 22:10:00 11.8 C 6.53 g/m*3 11.8 C 1.6 km/h
1708 06-04-2020 22:15:00 11.6 C 6.44 g/m*3 11.6 C 0 km/h
1709 06-04-2020 22:20:00 11.3 C 6.32 g/m*3 11.3 C 0 km/h
1710 06-04-2020 22:25:00 11 C 6.31 g/m*3 11 C 1.6 km/h
1711 06-04-2020 22:30:00 10.8 C 6.33 g/m*3 10.8 C 0 km/h
1712 06-04-2020 22:35:00 10.7 C 6.29 g/m*3 10.7 C 1.6 km/h
1713 06-04-2020 22:40:00 10.6 C 6.34 g/m*3 10.6 C 1.6 km/h
1714 06-04-2020 22:45:00 10.4 C 6.17 g/m*3 10.4 C 0 km/h
1715 06-04-2020 22:50:00 10.4 C 6.17 g/m*3 10.4 C 0 km/h
1716 06-04-2020 22:55:00 10.3 C 6.22 g/m*3 10.3 C 0 km/h
1717 06-04-2020 23:00:00 10.2 C 6.19 g/m*3 10.2 C 1.6 km/h
1718 06-04-2020 23:05:00 10.2 C 6.19 g/m*3 10.2 C 0 km/h
1719 06-04-2020 23:10:00 10.1 C 6.15 g/m*3 10.1 C 0 km/h
1720 06-04-2020 23:15:00 10.1 C 6.05 g/m*3 10.1 C 0 km/h
1721 06-04-2020 23:20:00 10.1 C 6.15 g/m*3 10.1 C 0 km/h
1722 06-04-2020 23:25:00 10.1 C 6.15 g/m*3 10.1 C 0 km/h
1723 06-04-2020 23:30:00 10.1 C 6.15 g/m*3 10.1 C 1.6 km/h
1724 06-04-2020 23:35:00 9.9 C 6.07 g/m*3 9.9 C 0 km/h
1725 06-04-2020 23:40:00 9.8 C 6.03 g/m*3 9.8 C 0 km/h
Sensor: Nr:Datum:Temp:Abs-Feuchte:Windchill:Wind:
Aussen-T/F 1726 06-04-2020 23:45:00 9.8 C 6.12 g/m*3 9.8 C 0 km/h
1727 06-04-2020 23:50:00 9.8 C 6.22 g/m*3 9.8 C 3.2 km/h
1728 06-04-2020 23:55:00 9.9 C 6.35 g/m*3 8.06 C 12.9 km/h
1729 07-04-2020 00:00:00 10 C 6.39 g/m*3 8.42 C 11.3 km/h
1730 07-04-2020 00:05:00 10.1 C 6.43 g/m*3 10.1 C 3.2 km/h
1731 07-04-2020 00:10:00 10.1 C 6.52 g/m*3 10.1 C 1.6 km/h
1732 07-04-2020 00:15:00 9.8 C 6.4 g/m*3 9.8 C 1.6 km/h
1733 07-04-2020 00:20:00 9.6 C 6.41 g/m*3 9.6 C 0 km/h
1734 07-04-2020 00:25:00 9.4 C 6.33 g/m*3 9.4 C 0 km/h
1735 07-04-2020 00:30:00 9.3 C 6.29 g/m*3 9.3 C 1.6 km/h
1736 07-04-2020 00:35:00 9.3 C 6.29 g/m*3 9.3 C 0 km/h
1737 07-04-2020 00:40:00 9.3 C 6.29 g/m*3 9.3 C 1.6 km/h
1738 07-04-2020 00:45:00 9.3 C 6.29 g/m*3 9.3 C 1.6 km/h
1739 07-04-2020 00:50:00 9.3 C 6.29 g/m*3 9.3 C 0 km/h
1740 07-04-2020 00:55:00 9.3 C 6.38 g/m*3 9.3 C 0 km/h
1741 07-04-2020 01:00:00 9.2 C 6.34 g/m*3 9.2 C 0 km/h
1742 07-04-2020 01:05:00 9.2 C 6.43 g/m*3 9.2 C 0 km/h
1743 07-04-2020 01:10:00 9.2 C 6.43 g/m*3 9.2 C 0 km/h
1744 07-04-2020 01:15:00 9.3 C 6.47 g/m*3 9.3 C 0 km/h
1745 07-04-2020 01:20:00 9.4 C 6.42 g/m*3 9.4 C 1.6 km/h
1746 07-04-2020 01:25:00 9.6 C 6.6 g/m*3 9.6 C 0 km/h
1747 07-04-2020 01:30:00 9.7 C 6.55 g/m*3 9.7 C 3.2 km/h
1748 07-04-2020 01:35:00 9.8 C 6.49 g/m*3 9.8 C 4.8 km/h
1749 07-04-2020 01:40:00 10 C 6.86 g/m*3 10 C 4.8 km/h
1750 07-04-2020 01:45:00 10.2 C 6.76 g/m*3 10.2 C 3.2 km/h
Sensor: Nr:Datum:Temp:Abs-Feuchte:Windchill:Wind:
Aussen-T/F 1751 07-04-2020 01:50:00 10.3 C 6.8 g/m*3 10.3 C 0 km/h
1752 07-04-2020 01:55:00 10.3 C 6.7 g/m*3 10.3 C 0 km/h
1753 07-04-2020 02:00:00 10.3 C 6.7 g/m*3 10.3 C 0 km/h
1754 07-04-2020 02:05:00 10.1 C 6.71 g/m*3 10.1 C 0 km/h
1755 07-04-2020 02:10:00 9.9 C 6.63 g/m*3 9.9 C 0 km/h
1756 07-04-2020 02:15:00 9.8 C 6.59 g/m*3 9.8 C 0 km/h
1757 07-04-2020 02:20:00 9.6 C 6.6 g/m*3 9.6 C 0 km/h
1758 07-04-2020 02:25:00 9.3 C 6.56 g/m*3 9.3 C 0 km/h
1759 07-04-2020 02:30:00 9.1 C 6.57 g/m*3 9.1 C 0 km/h
1760 07-04-2020 02:35:00 8.9 C 6.48 g/m*3 8.9 C 0 km/h
1761 07-04-2020 02:40:00 8.8 C 6.53 g/m*3 8.8 C 0 km/h
1762 07-04-2020 02:45:00 8.6 C 6.44 g/m*3 8.6 C 0 km/h
1763 07-04-2020 02:50:00 8.3 C 6.41 g/m*3 8.3 C 0 km/h
1764 07-04-2020 02:55:00 8.2 C 6.45 g/m*3 8.2 C 3.2 km/h
1765 07-04-2020 03:00:00 8.2 C 6.53 g/m*3 8.2 C 0 km/h
1766 07-04-2020 03:05:00 8.1 C 6.49 g/m*3 8.1 C 0 km/h
1767 07-04-2020 03:10:00 8.1 C 6.57 g/m*3 8.1 C 0 km/h
1768 07-04-2020 03:15:00 8 C 6.53 g/m*3 8 C 0 km/h
1769 07-04-2020 03:20:00 8.1 C 6.66 g/m*3 8.1 C 0 km/h
1770 07-04-2020 03:25:00 8.1 C 6.74 g/m*3 8.1 C 0 km/h
1771 07-04-2020 03:30:00 8.2 C 6.7 g/m*3 8.2 C 0 km/h
1772 07-04-2020 03:35:00 8.2 C 6.7 g/m*3 8.2 C 0 km/h
1773 07-04-2020 03:40:00 8.2 C 6.7 g/m*3 8.2 C 0 km/h
1774 07-04-2020 03:45:00 8.2 C 6.7 g/m*3 8.2 C 1.6 km/h
1775 07-04-2020 03:50:00 8.2 C 6.78 g/m*3 8.2 C 0 km/h
Sensor: Nr:Datum:Temp:Abs-Feuchte:Windchill:Wind:
Aussen-T/F 1776 07-04-2020 03:55:00 8.2 C 6.78 g/m*3 8.2 C 0 km/h
1777 07-04-2020 04:00:00 8.2 C 6.78 g/m*3 8.2 C 0 km/h
1778 07-04-2020 04:05:00 8.3 C 6.83 g/m*3 8.3 C 0 km/h
1779 07-04-2020 04:10:00 8.3 C 6.83 g/m*3 8.3 C 0 km/h
1780 07-04-2020 04:15:00 8.2 C 6.78 g/m*3 8.2 C 0 km/h
1781 07-04-2020 04:20:00 8.2 C 6.7 g/m*3 8.2 C 0 km/h
1782 07-04-2020 04:25:00 8.2 C 6.7 g/m*3 8.2 C 0 km/h
1783 07-04-2020 04:30:00 8.1 C 6.66 g/m*3 8.1 C 0 km/h
1784 07-04-2020 04:35:00 7.9 C 6.57 g/m*3 7.9 C 0 km/h
1785 07-04-2020 04:40:00 7.7 C 6.57 g/m*3 7.7 C 0 km/h
1786 07-04-2020 04:45:00 7.6 C 6.61 g/m*3 7.6 C 0 km/h
1787 07-04-2020 04:50:00 7.6 C 6.61 g/m*3 7.6 C 0 km/h
1788 07-04-2020 04:55:00 7.5 C 6.56 g/m*3 7.5 C 0 km/h
1789 07-04-2020 05:00:00 7.3 C 6.48 g/m*3 7.3 C 0 km/h
1790 07-04-2020 05:05:00 7.2 C 6.52 g/m*3 7.2 C 0 km/h
1791 07-04-2020 05:10:00 7.1 C 6.47 g/m*3 7.1 C 0 km/h
1792 07-04-2020 05:15:00 6.9 C 6.39 g/m*3 6.9 C 0 km/h
1793 07-04-2020 05:20:00 6.8 C 6.42 g/m*3 6.8 C 0 km/h
1794 07-04-2020 05:25:00 6.7 C 6.38 g/m*3 6.7 C 0 km/h
1795 07-04-2020 05:30:00 6.7 C 6.46 g/m*3 6.7 C 0 km/h
1796 07-04-2020 05:35:00 6.6 C 6.42 g/m*3 6.6 C 0 km/h
1797 07-04-2020 05:40:00 6.4 C 6.33 g/m*3 6.4 C 0 km/h
1798 07-04-2020 05:45:00 6.4 C 6.41 g/m*3 6.4 C 0 km/h
1799 07-04-2020 05:50:00 6.3 C 6.37 g/m*3 6.3 C 0 km/h
1800 07-04-2020 05:55:00 6.3 C 6.44 g/m*3 6.3 C 0 km/h
Sensor: Nr:Datum:Temp:Abs-Feuchte:Windchill:Wind:
Aussen-T/F 1801 07-04-2020 06:00:00 6.3 C 6.44 g/m*3 6.3 C 0 km/h
1802 07-04-2020 06:05:00 6.3 C 6.44 g/m*3 6.3 C 0 km/h
1803 07-04-2020 06:10:00 6.2 C 6.32 g/m*3 6.2 C 0 km/h
1804 07-04-2020 06:15:00 6.1 C 6.36 g/m*3 6.1 C 0 km/h
1805 07-04-2020 06:20:00 6.1 C 6.36 g/m*3 6.1 C 0 km/h
1806 07-04-2020 06:25:00 6.1 C 6.36 g/m*3 6.1 C 0 km/h
1807 07-04-2020 06:30:00 5.9 C 6.27 g/m*3 5.9 C 0 km/h
1808 07-04-2020 06:35:00 5.8 C 6.23 g/m*3 5.8 C 0 km/h
1809 07-04-2020 06:40:00 5.8 C 6.3 g/m*3 5.8 C 0 km/h
1810 07-04-2020 06:45:00 5.8 C 6.3 g/m*3 5.8 C 0 km/h
1811 07-04-2020 06:50:00 5.7 C 6.26 g/m*3 5.7 C 0 km/h
1812 07-04-2020 06:55:00 5.6 C 6.22 g/m*3 5.6 C 0 km/h
1813 07-04-2020 07:00:00 5.5 C 6.18 g/m*3 5.5 C 0 km/h
1814 07-04-2020 07:05:00 5.4 C 6.21 g/m*3 5.4 C 0 km/h
1815 07-04-2020 07:10:00 5.4 C 6.21 g/m*3 5.4 C 0 km/h
1816 07-04-2020 07:15:00 5.4 C 6.28 g/m*3 5.4 C 0 km/h
1817 07-04-2020 07:20:00 5.5 C 6.32 g/m*3 5.5 C 0 km/h
1818 07-04-2020 07:25:00 5.6 C 6.36 g/m*3 5.6 C 0 km/h
1819 07-04-2020 07:30:00 5.6 C 6.43 g/m*3 5.6 C 0 km/h
1820 07-04-2020 07:35:00 5.7 C 6.4 g/m*3 5.7 C 0 km/h
1821 07-04-2020 07:40:00 5.8 C 6.52 g/m*3 5.8 C 0 km/h
1822 07-04-2020 07:45:00 5.9 C 6.56 g/m*3 5.9 C 0 km/h
1823 07-04-2020 07:50:00 6 C 6.6 g/m*3 6 C 0 km/h
1824 07-04-2020 07:55:00 6.1 C 6.58 g/m*3 6.1 C 0 km/h
1825 07-04-2020 08:00:00 6.2 C 6.62 g/m*3 6.2 C 0 km/h
Sensor: Nr:Datum:Temp:Abs-Feuchte:Windchill:Wind:
Aussen-T/F 1826 07-04-2020 08:05:00 6.2 C 6.62 g/m*3 6.2 C 0 km/h
1827 07-04-2020 08:10:00 6.3 C 6.66 g/m*3 6.3 C 0 km/h
1828 07-04-2020 08:15:00 6.3 C 6.66 g/m*3 6.3 C 1.6 km/h
1829 07-04-2020 08:20:00 6.4 C 6.71 g/m*3 6.4 C 0 km/h
1830 07-04-2020 08:25:00 6.5 C 6.67 g/m*3 6.5 C 0 km/h
1831 07-04-2020 08:30:00 6.6 C 6.72 g/m*3 6.6 C 0 km/h
1832 07-04-2020 08:35:00 6.6 C 6.72 g/m*3 6.6 C 1.6 km/h
1833 07-04-2020 08:40:00 6.6 C 6.72 g/m*3 6.6 C 0 km/h
1834 07-04-2020 08:45:00 6.7 C 6.84 g/m*3 6.7 C 0 km/h
1835 07-04-2020 08:50:00 6.8 C 6.88 g/m*3 6.8 C 0 km/h
1836 07-04-2020 08:55:00 6.9 C 6.93 g/m*3 6.9 C 0 km/h
1837 07-04-2020 09:00:00 7.1 C 7.02 g/m*3 7.1 C 0 km/h
1838 07-04-2020 09:05:00 7.2 C 7.06 g/m*3 7.2 C 0 km/h
1839 07-04-2020 09:10:00 7.3 C 7.03 g/m*3 7.3 C 0 km/h
1840 07-04-2020 09:15:00 7.4 C 7.08 g/m*3 7.4 C 0 km/h
1841 07-04-2020 09:20:00 7.5 C 7.2 g/m*3 7.5 C 0 km/h
1842 07-04-2020 09:25:00 7.6 C 7.25 g/m*3 7.6 C 0 km/h
1843 07-04-2020 09:30:00 7.8 C 7.35 g/m*3 7.8 C 0 km/h
1844 07-04-2020 09:35:00 7.9 C 7.39 g/m*3 7.9 C 0 km/h
1845 07-04-2020 09:40:00 8.2 C 7.54 g/m*3 8.2 C 0 km/h
1846 07-04-2020 09:45:00 8.4 C 7.63 g/m*3 8.4 C 0 km/h
1847 07-04-2020 09:50:00 8.7 C 7.61 g/m*3 8.7 C 0 km/h
1848 07-04-2020 09:55:00 8.9 C 7.71 g/m*3 8.9 C 0 km/h
1849 07-04-2020 10:00:00 9.2 C 7.77 g/m*3 9.2 C 0 km/h
1850 07-04-2020 10:05:00 9.4 C 7.87 g/m*3 9.4 C 0 km/h
Sensor: Nr:Datum:Temp:Abs-Feuchte:Windchill:Wind:
Aussen-T/F 1851 07-04-2020 10:10:00 9.6 C 8.06 g/m*3 9.6 C 0 km/h
1852 07-04-2020 10:15:00 9.9 C 8.22 g/m*3 9.9 C 0 km/h
1853 07-04-2020 10:20:00 10.2 C 8.28 g/m*3 10.2 C 0 km/h
1854 07-04-2020 10:25:00 10.5 C 8.34 g/m*3 10.5 C 0 km/h
1855 07-04-2020 10:30:00 10.8 C 8.4 g/m*3 10.8 C 0 km/h
1856 07-04-2020 10:35:00 11.2 C 8.62 g/m*3 11.2 C 0 km/h
1857 07-04-2020 10:40:00 11.4 C 8.62 g/m*3 11.4 C 0 km/h
1858 07-04-2020 10:45:00 11.8 C 8.74 g/m*3 11.8 C 0 km/h
1859 07-04-2020 10:50:00 12.2 C 8.85 g/m*3 12.2 C 0 km/h
1860 07-04-2020 10:55:00 12.6 C 8.96 g/m*3 12.6 C 0 km/h
1861 07-04-2020 11:00:00 13 C 8.96 g/m*3 13 C 1.6 km/h
1862 07-04-2020 11:05:00 13.4 C 8.95 g/m*3 13.4 C 0 km/h
1863 07-04-2020 11:10:00 13.8 C 9.06 g/m*3 13.8 C 0 km/h
1864 07-04-2020 11:15:00 14.2 C 9.04 g/m*3 14.2 C 3.2 km/h
1865 07-04-2020 11:20:00 14.6 C 9.13 g/m*3 14.6 C 0 km/h
1866 07-04-2020 11:25:00 14.8 C 9.25 g/m*3 14.8 C 1.6 km/h
1867 07-04-2020 11:30:00 15.1 C 9.16 g/m*3 15.1 C 3.2 km/h
1868 07-04-2020 11:35:00 15.4 C 9.2 g/m*3 15.4 C 1.6 km/h
1869 07-04-2020 11:40:00 15.7 C 9.1 g/m*3 15.7 C 1.6 km/h
1870 07-04-2020 11:45:00 16.1 C 9.18 g/m*3 16.1 C 3.2 km/h
1871 07-04-2020 11:50:00 16.2 C 9.24 g/m*3 16.2 C 3.2 km/h
1872 07-04-2020 11:55:00 16.4 C 9.21 g/m*3 16.4 C 3.2 km/h
1873 07-04-2020 12:00:00 16.6 C 9.18 g/m*3 16.6 C 3.2 km/h
1874 07-04-2020 12:05:00 16.8 C 9.15 g/m*3 16.8 C 3.2 km/h
1875 07-04-2020 12:10:00 17.1 C 9.17 g/m*3 17.1 C 3.2 km/h
Sensor: Nr:Datum:Temp:Abs-Feuchte:Windchill:Wind:
Aussen-T/F 1876 07-04-2020 12:15:00 17.2 C 9.08 g/m*3 17.2 C 4.8 km/h
1877 07-04-2020 12:20:00 17.4 C 9.34 g/m*3 17.4 C 3.2 km/h
1878 07-04-2020 12:25:00 17.6 C 9.15 g/m*3 17.6 C 4.8 km/h
1879 07-04-2020 12:30:00 17.8 C 9.26 g/m*3 17.8 C 6.4 km/h
1880 07-04-2020 12:35:00 18 C 9.22 g/m*3 18 C 4.8 km/h
1881 07-04-2020 12:40:00 18.2 C 9.33 g/m*3 18.2 C 3.2 km/h
1882 07-04-2020 12:45:00 18.3 C 9.22 g/m*3 18.3 C 4.8 km/h
1883 07-04-2020 12:50:00 18.4 C 9.28 g/m*3 18.4 C 4.8 km/h
1884 07-04-2020 12:55:00 18.5 C 9.33 g/m*3 18.5 C 3.2 km/h
1885 07-04-2020 13:00:00 18.6 C 9.39 g/m*3 18.6 C 4.8 km/h
1886 07-04-2020 13:05:00 18.8 C 9.34 g/m*3 18.8 C 3.2 km/h
1887 07-04-2020 13:10:00 18.9 C 9.23 g/m*3 18.9 C 6.4 km/h
1888 07-04-2020 13:15:00 19.2 C 9.23 g/m*3 19.2 C 6.4 km/h
1889 07-04-2020 13:20:00 19.3 C 9.29 g/m*3 19.3 C 3.2 km/h
1890 07-04-2020 13:25:00 19.4 C 8.84 g/m*3 19.4 C 6.4 km/h
1891 07-04-2020 13:30:00 19.5 C 9.06 g/m*3 19.5 C 4.8 km/h
1892 07-04-2020 13:35:00 19.6 C 9.12 g/m*3 19.6 C 6.4 km/h
1893 07-04-2020 13:40:00 19.7 C 9 g/m*3 19.7 C 3.2 km/h
1894 07-04-2020 13:45:00 19.8 C 9.05 g/m*3 19.8 C 6.4 km/h
1895 07-04-2020 13:50:00 19.9 C 8.93 g/m*3 19.9 C 8.1 km/h
1896 07-04-2020 13:55:00 20.1 C 9.04 g/m*3 20.1 C 11.3 km/h
1897 07-04-2020 14:00:00 20.3 C 8.97 g/m*3 20.3 C 8.1 km/h
1898 07-04-2020 14:05:00 20.3 C 8.97 g/m*3 20.3 C 8.1 km/h
1899 07-04-2020 14:10:00 20.4 C 9.02 g/m*3 20.4 C 11.3 km/h
1900 07-04-2020 14:15:00 20.6 C 8.95 g/m*3 20.6 C 6.4 km/h
Sensor: Nr:Datum:Temp:Abs-Feuchte:Windchill:Wind:
Aussen-T/F 1901 07-04-2020 14:20:00 20.8 C 9.23 g/m*3 20.8 C 3.2 km/h
1902 07-04-2020 14:25:00 20.9 C 8.92 g/m*3 20.9 C 11.3 km/h
1903 07-04-2020 14:30:00 21.1 C 9.21 g/m*3 21.1 C 6.4 km/h
1904 07-04-2020 14:35:00 21.3 C 8.95 g/m*3 21.3 C 8.1 km/h
1905 07-04-2020 14:40:00 21.3 C 8.95 g/m*3 21.3 C 12.9 km/h
1906 07-04-2020 14:45:00 21.2 C 8.9 g/m*3 21.2 C 8.1 km/h
1907 07-04-2020 14:50:00 21.1 C 8.84 g/m*3 21.1 C 8.1 km/h
1908 07-04-2020 14:55:00 21.2 C 8.9 g/m*3 21.2 C 4.8 km/h
1909 07-04-2020 15:00:00 21.4 C 8.81 g/m*3 21.4 C 11.3 km/h
1910 07-04-2020 15:05:00 21.6 C 8.91 g/m*3 21.6 C 11.3 km/h
1911 07-04-2020 15:10:00 21.7 C 8.97 g/m*3 21.7 C 8.1 km/h
1912 07-04-2020 15:15:00 21.8 C 8.83 g/m*3 21.8 C 8.1 km/h
1913 07-04-2020 15:20:00 21.8 C 8.63 g/m*3 21.8 C 6.4 km/h
1914 07-04-2020 15:25:00 21.8 C 8.63 g/m*3 21.8 C 8.1 km/h
1915 07-04-2020 15:30:00 21.9 C 8.68 g/m*3 21.9 C 9.7 km/h
1916 07-04-2020 15:35:00 21.9 C 8.49 g/m*3 21.9 C 12.9 km/h
1917 07-04-2020 15:40:00 22.1 C 8.59 g/m*3 22.1 C 11.3 km/h
1918 07-04-2020 15:45:00 22.1 C 8.78 g/m*3 22.1 C 9.7 km/h
1919 07-04-2020 15:50:00 22.1 C 8.78 g/m*3 22.1 C 11.3 km/h
1920 07-04-2020 15:55:00 22.2 C 8.64 g/m*3 22.2 C 12.9 km/h
1921 07-04-2020 16:00:00 22.3 C 8.49 g/m*3 22.3 C 9.7 km/h
1922 07-04-2020 16:05:00 22.3 C 8.49 g/m*3 22.3 C 9.7 km/h
1923 07-04-2020 16:10:00 22.3 C 8.49 g/m*3 22.3 C 4.8 km/h
1924 07-04-2020 16:15:00 22.2 C 8.44 g/m*3 22.2 C 3.2 km/h
1925 07-04-2020 16:20:00 22.2 C 8.44 g/m*3 22.2 C 11.3 km/h
Sensor: Nr:Datum:Temp:Abs-Feuchte:Windchill:Wind:
Aussen-T/F 1926 07-04-2020 16:25:00 22.4 C 8.34 g/m*3 22.4 C 9.7 km/h
1927 07-04-2020 16:30:00 22.5 C 8.39 g/m*3 22.5 C 12.9 km/h
1928 07-04-2020 16:35:00 22.3 C 8.29 g/m*3 22.3 C 6.4 km/h
1929 07-04-2020 16:40:00 22.1 C 8.2 g/m*3 22.1 C 6.4 km/h
1930 07-04-2020 16:45:00 22.3 C 8.49 g/m*3 22.3 C 4.8 km/h
1931 07-04-2020 16:50:00 22.9 C 8.17 g/m*3 22.9 C 6.4 km/h
1932 07-04-2020 16:55:00 23.4 C 8.41 g/m*3 23.4 C 4.8 km/h
1933 07-04-2020 17:00:00 23.9 C 8.22 g/m*3 23.9 C 8.1 km/h
1934 07-04-2020 17:05:00 24.1 C 7.88 g/m*3 24.1 C 8.1 km/h
1935 07-04-2020 17:10:00 23.9 C 8 g/m*3 23.9 C 11.3 km/h
1936 07-04-2020 17:15:00 23.4 C 7.99 g/m*3 23.4 C 6.4 km/h
1937 07-04-2020 17:20:00 23.2 C 7.9 g/m*3 23.2 C 3.2 km/h
1938 07-04-2020 17:25:00 22.9 C 8.17 g/m*3 22.9 C 1.6 km/h
1939 07-04-2020 17:30:00 22.8 C 7.52 g/m*3 22.8 C 6.4 km/h
1940 07-04-2020 17:35:00 22.8 C 7.32 g/m*3 22.8 C 6.4 km/h
1941 07-04-2020 17:40:00 23.1 C 7.44 g/m*3 23.1 C 6.4 km/h
1942 07-04-2020 17:45:00 23.4 C 7.36 g/m*3 23.4 C 4.8 km/h
1943 07-04-2020 17:50:00 23.4 C 7.15 g/m*3 23.4 C 3.2 km/h
1944 07-04-2020 17:55:00 23.4 C 7.36 g/m*3 23.4 C 6.4 km/h
1945 07-04-2020 18:00:00 23.6 C 7.66 g/m*3 23.6 C 9.7 km/h
1946 07-04-2020 18:05:00 23.6 C 7.66 g/m*3 23.6 C 9.7 km/h
1947 07-04-2020 18:10:00 23.8 C 7.53 g/m*3 23.8 C 3.2 km/h
1948 07-04-2020 18:15:00 23.9 C 7.57 g/m*3 23.9 C 4.8 km/h
1949 07-04-2020 18:20:00 23.8 C 7.53 g/m*3 23.8 C 8.1 km/h
1950 07-04-2020 18:25:00 23.8 C 7.74 g/m*3 23.8 C 4.8 km/h
Sensor: Nr:Datum:Temp:Abs-Feuchte:Windchill:Wind:
Aussen-T/F 1951 07-04-2020 18:30:00 23.6 C 7.66 g/m*3 23.6 C 8.1 km/h
1952 07-04-2020 18:35:00 23.4 C 7.78 g/m*3 23.4 C 9.7 km/h
1953 07-04-2020 18:40:00 23.1 C 7.86 g/m*3 23.1 C 9.7 km/h
1954 07-04-2020 18:45:00 23.1 C 8.27 g/m*3 23.1 C 1.6 km/h
1955 07-04-2020 18:50:00 23 C 7.81 g/m*3 23 C 3.2 km/h
1956 07-04-2020 18:55:00 22.9 C 7.56 g/m*3 22.9 C 6.4 km/h
1957 07-04-2020 19:00:00 22.7 C 7.48 g/m*3 22.7 C 6.4 km/h
1958 07-04-2020 19:05:00 22.7 C 7.68 g/m*3 22.7 C 1.6 km/h
1959 07-04-2020 19:10:00 22.6 C 8.04 g/m*3 22.6 C 1.6 km/h
1960 07-04-2020 19:15:00 22.4 C 8.54 g/m*3 22.4 C 3.2 km/h
1961 07-04-2020 19:20:00 22.1 C 8.78 g/m*3 22.1 C 3.2 km/h
1962 07-04-2020 19:25:00 21.6 C 8.53 g/m*3 21.6 C 3.2 km/h
1963 07-04-2020 19:30:00 21 C 8.61 g/m*3 21 C 3.2 km/h
1964 07-04-2020 19:35:00 20.4 C 8.67 g/m*3 20.4 C 3.2 km/h
1965 07-04-2020 19:40:00 19.9 C 8.42 g/m*3 19.9 C 6.4 km/h
1966 07-04-2020 19:45:00 19.4 C 8.51 g/m*3 19.4 C 4.8 km/h
1967 07-04-2020 19:50:00 19.1 C 8.36 g/m*3 19.1 C 4.8 km/h
1968 07-04-2020 19:55:00 18.7 C 8.33 g/m*3 18.7 C 6.4 km/h
1969 07-04-2020 20:00:00 18.3 C 8.13 g/m*3 18.3 C 6.4 km/h
1970 07-04-2020 20:05:00 17.9 C 7.94 g/m*3 17.9 C 6.4 km/h
1971 07-04-2020 20:10:00 17.6 C 7.95 g/m*3 17.6 C 4.8 km/h
1972 07-04-2020 20:15:00 17.3 C 7.96 g/m*3 17.3 C 4.8 km/h
1973 07-04-2020 20:20:00 17 C 7.96 g/m*3 17 C 6.4 km/h
1974 07-04-2020 20:25:00 16.8 C 8.01 g/m*3 16.8 C 6.4 km/h
1975 07-04-2020 20:30:00 16.6 C 8.05 g/m*3 16.6 C 6.4 km/h
Sensor: Nr:Datum:Temp:Abs-Feuchte:Windchill:Wind:
Aussen-T/F 1976 07-04-2020 20:35:00 16.3 C 7.91 g/m*3 16.3 C 8.1 km/h
1977 07-04-2020 20:40:00 16.2 C 8.14 g/m*3 16.2 C 4.8 km/h
1978 07-04-2020 20:45:00 16 C 8.04 g/m*3 16 C 4.8 km/h
1979 07-04-2020 20:50:00 15.8 C 8.08 g/m*3 15.8 C 4.8 km/h
1980 07-04-2020 20:55:00 15.7 C 8.03 g/m*3 15.7 C 4.8 km/h
1981 07-04-2020 21:00:00 15.6 C 7.98 g/m*3 15.6 C 6.4 km/h
1982 07-04-2020 21:05:00 15.4 C 8.01 g/m*3 15.4 C 6.4 km/h
1983 07-04-2020 21:10:00 15.3 C 8.1 g/m*3 15.3 C 4.8 km/h
1984 07-04-2020 21:15:00 15.2 C 8.18 g/m*3 15.2 C 6.4 km/h
1985 07-04-2020 21:20:00 15.1 C 8.26 g/m*3 15.1 C 6.4 km/h
1986 07-04-2020 21:25:00 14.9 C 8.16 g/m*3 14.9 C 6.4 km/h
1987 07-04-2020 21:30:00 14.8 C 8.23 g/m*3 14.8 C 4.8 km/h
1988 07-04-2020 21:35:00 14.7 C 8.18 g/m*3 14.7 C 6.4 km/h
1989 07-04-2020 21:40:00 14.7 C 8.31 g/m*3 14.7 C 4.8 km/h
1990 07-04-2020 21:45:00 14.7 C 8.31 g/m*3 14.7 C 4.8 km/h
1991 07-04-2020 21:50:00 14.6 C 8.26 g/m*3 14.6 C 6.4 km/h
1992 07-04-2020 21:55:00 14.5 C 8.33 g/m*3 14.5 C 4.8 km/h
1993 07-04-2020 22:00:00 14.4 C 8.28 g/m*3 14.4 C 4.8 km/h
1994 07-04-2020 22:05:00 14.3 C 8.35 g/m*3 14.3 C 4.8 km/h
1995 07-04-2020 22:10:00 14.1 C 8.25 g/m*3 14.1 C 3.2 km/h
1996 07-04-2020 22:15:00 13.8 C 8.22 g/m*3 13.8 C 0 km/h
1997 07-04-2020 22:20:00 13.7 C 8.29 g/m*3 13.7 C 3.2 km/h
1998 07-04-2020 22:25:00 13.4 C 8.14 g/m*3 13.4 C 3.2 km/h
1999 07-04-2020 22:30:00 13.3 C 8.2 g/m*3 13.3 C 1.6 km/h
2000 07-04-2020 22:35:00 13.2 C 8.27 g/m*3 13.2 C 4.8 km/h
Sensor: Nr:Datum:Temp:Abs-Feuchte:Windchill:Wind:
Aussen-T/F 2001 07-04-2020 22:40:00 13.2 C 8.27 g/m*3 13.2 C 1.6 km/h
2002 07-04-2020 22:45:00 13.2 C 8.27 g/m*3 13.2 C 0 km/h
2003 07-04-2020 22:50:00 13.2 C 8.27 g/m*3 13.2 C 3.2 km/h
2004 07-04-2020 22:55:00 13.1 C 8.22 g/m*3 13.1 C 4.8 km/h
2005 07-04-2020 23:00:00 13.1 C 8.22 g/m*3 13.1 C 3.2 km/h
2006 07-04-2020 23:05:00 13.1 C 8.33 g/m*3 13.1 C 1.6 km/h
2007 07-04-2020 23:10:00 13 C 8.28 g/m*3 13 C 3.2 km/h
2008 07-04-2020 23:15:00 13 C 8.39 g/m*3 13 C 4.8 km/h
2009 07-04-2020 23:20:00 13 C 8.39 g/m*3 13 C 4.8 km/h
2010 07-04-2020 23:25:00 13 C 8.39 g/m*3 13 C 4.8 km/h
2011 07-04-2020 23:30:00 13 C 8.39 g/m*3 13 C 1.6 km/h
2012 07-04-2020 23:35:00 12.9 C 8.34 g/m*3 12.9 C 4.8 km/h
2013 07-04-2020 23:40:00 12.9 C 8.45 g/m*3 12.9 C 4.8 km/h
2014 07-04-2020 23:45:00 12.8 C 8.4 g/m*3 12.8 C 3.2 km/h
2015 07-04-2020 23:50:00 12.8 C 8.4 g/m*3 12.8 C 1.6 km/h
2016 07-04-2020 23:55:00 12.7 C 8.35 g/m*3 12.7 C 1.6 km/h

Legende:
   Min
   Max


Maximal/Minimal-Werte vom 01.04.2020 - 07.04.2020

Sensor Min Max Avg
Temp
(Aussen-T/F)
-3.4 °C
01-04-2020  07:15:00
24.3 °C
06-04-2020  16:45:00
8.46 °C
Abs-Feuchte
(Aussen-T/F)
3.08 g/m*3
01-04-2020  15:45:00
9.39 g/m*3
07-04-2020  13:00:00
5.36 g/m*3
Windchill
(Aussen-T/F)
-3.4 C
01-04-2020  07:15:00
24.3 C
06-04-2020  16:45:00
8.33 C

Die Daten stammen von einer Davis Vantage Pro 2 Wetter-Station und werden unter Linux mit der Software wview2wettercgi und aufbereitet. Alle Angaben erfolgen ohne Gewähr für ihre Vollständigkeit oder Richtigkeit.
Kontakt: Rainer Krienke krienke@uni-koblenz.de . Meine Webseiten an der Uni Koblenz oder privat.
Version: $Revision: 0.78 $